Provisional Data: Long Run near Gaines, PA


Please select a monitoring station.
Please select start date.
Please select start date.

Toggle Unit: C/F Toggle Unit: C/F
Sample Time Temperature (C) Temperature (F) Specific Conductivity (mS/cm) pH   Turbidity (NTU+) DO (mg/L)
3/23/2021 12:00:00 AM 4.19 39.542 0.063 6.94 5.83 12.4
3/23/2021 12:15:00 AM 4.12 39.416 0.063 6.94 5.69 12.43
3/23/2021 12:30:00 AM 4.05 39.29 0.063 6.94 6.11 12.45
3/23/2021 12:45:00 AM 3.99 39.182 0.063 6.94 5.99 12.47
3/23/2021 1:00:00 AM 3.93 39.074 0.063 6.95 6.1 12.49
3/23/2021 1:15:00 AM 3.87 38.966 0.063 6.94 5.88 12.52
3/23/2021 1:30:00 AM 3.81 38.858 0.063 6.95 5.92 12.54
3/23/2021 1:45:00 AM 3.75 38.75 0.063 6.95 5.88 12.56
3/23/2021 2:00:00 AM 3.69 38.642 0.063 6.95 5.94 12.57
3/23/2021 2:15:00 AM 3.64 38.552 0.063 6.95 5.97 12.6
3/23/2021 2:30:00 AM 3.58 38.444 0.063 6.95 5.88 12.62
3/23/2021 2:45:00 AM 3.53 38.354 0.063 6.95 5.67 12.64
3/23/2021 3:00:00 AM 3.47 38.246 0.063 6.95 5.8 12.65
3/23/2021 3:15:00 AM 3.42 38.156 0.063 6.96 5.63 12.67
3/23/2021 3:30:00 AM 3.37 38.066 0.063 6.96 5.84 12.69
3/23/2021 3:45:00 AM 3.32 37.976 0.063 6.96 5.7 12.7
3/23/2021 4:00:00 AM 3.27 37.886 0.063 6.95 5.9 12.73
3/23/2021 4:15:00 AM 3.22 37.796 0.063 6.96 5.78 12.75
3/23/2021 4:30:00 AM 3.17 37.706 0.063 6.95 5.89 12.76
3/23/2021 4:45:00 AM 3.12 37.616 0.063 6.96 5.6 12.79
3/23/2021 5:00:00 AM 3.07 37.526 0.063 6.96 5.6 12.8
3/23/2021 5:15:00 AM 3.03 37.454 0.063 6.96 5.89 12.82
3/23/2021 5:30:00 AM 2.98 37.364 0.063 6.96 5.54 12.83
3/23/2021 5:45:00 AM 2.94 37.292 0.063 6.97 5.47 12.86
3/23/2021 6:00:00 AM 2.89 37.202 0.063 6.96 5.54 12.87
3/23/2021 6:15:00 AM 2.85 37.13 0.063 6.97 5.68 12.89
3/23/2021 6:30:00 AM 2.82 37.076 0.063 6.97 5.55 12.92
3/23/2021 6:45:00 AM 2.79 37.022 0.063 6.98 5.5 12.97
3/23/2021 7:00:00 AM 2.77 36.986 0.063 7 5.3 13
3/23/2021 7:15:00 AM 2.75 36.95 0.063 7 5.46 13.04
3/23/2021 7:30:00 AM 2.75 36.95 0.063 7.01 5.51 13.07
3/23/2021 7:45:00 AM 2.75 36.95 0.063 7.02 5.25 13.1
3/23/2021 8:00:00 AM 2.77 36.986 0.062 7.04 5.39 13.12
3/23/2021 8:15:00 AM 2.8 37.04 0.062 7.05 5.33 13.13
3/23/2021 8:30:00 AM 2.87 37.166 0.062 7.06 5.29 13.13
3/23/2021 8:45:00 AM 2.97 37.346 0.062 7.07 5.29 13.12
3/23/2021 9:00:00 AM 3.11 37.598 0.062 7.09 5.26 13.1
3/23/2021 9:15:00 AM 3.27 37.886 0.062 7.1 5.44 13.07
3/23/2021 9:30:00 AM 3.45 38.21 0.062 7.11 5.23 13.03
3/23/2021 9:45:00 AM 3.67 38.606 0.062 7.13 5.32 12.97
3/23/2021 10:00:00 AM 3.92 39.056 0.062 7.14 5.22 12.91
3/23/2021 10:15:00 AM 4.18 39.524 0.062 7.16 5.19 12.84
3/23/2021 10:30:00 AM 4.46 40.028 0.062 7.18 5.2 12.76
3/23/2021 10:45:00 AM 4.75 40.55 0.062 7.19 5.25 12.67
3/23/2021 11:00:00 AM 5.04 41.072 0.061 7.21 5.15 12.58
3/23/2021 11:15:00 AM 5.32 41.576 0.061 7.23 5.34 12.5
3/23/2021 11:30:00 AM 5.57 42.026 0.061 7.24 5.3 12.41
3/23/2021 11:45:00 AM 5.84 42.512 0.061 7.25 5.18 12.33
3/23/2021 12:00:00 PM 6.09 42.962 0.061 7.26 5.21 12.25
3/23/2021 12:15:00 PM 6.28 43.304 0.061 7.26 5.23 12.17
3/23/2021 12:30:00 PM 6.49 43.682 0.061 7.26 5.23 12.11
3/23/2021 12:45:00 PM 6.67 44.006 0.06 7.05 5.29 12.05
3/23/2021 1:00:00 PM 6.88 44.384 0.061 7.3 5.25 11.98
3/23/2021 1:15:00 PM 7 44.6 0.061 7.28 5.22 11.93
3/23/2021 1:30:00 PM 7.12 44.816 0.061 7.28 6.66 11.88
3/23/2021 1:45:00 PM 7.21 44.978 0.061 7.28 5.74 11.85
3/23/2021 2:00:00 PM 7.26 45.068 0.061 7.28 5.48 11.81
3/23/2021 2:15:00 PM 7.28 45.104 0.061 7.28 5.52 11.8
3/23/2021 2:30:00 PM 7.32 45.176 0.061 7.29 5.54 11.78
3/23/2021 2:45:00 PM 7.33 45.194 0.061 7.28 5.35 11.77
3/23/2021 3:00:00 PM 7.29 45.122 0.061 7.27 5.47 11.75
3/23/2021 3:15:00 PM 7.27 45.086 0.061 7.27 5.45 11.75
3/23/2021 3:30:00 PM 7.26 45.068 0.061 7.27 5.57 11.74
3/23/2021 3:45:00 PM 7.24 45.032 0.061 7.26 5.51 11.74
3/23/2021 4:00:00 PM 7.2 44.96 0.061 7.26 5.54 11.74
3/23/2021 4:15:00 PM 7.17 44.906 0.061 7.26 5.45 11.74
3/23/2021 4:30:00 PM 7.15 44.87 0.061 7.25 5.58 11.74
3/23/2021 4:45:00 PM 7.1 44.78 0.061 7.24 5.51 11.73
3/23/2021 5:00:00 PM 7.03 44.654 0.061 7.22 5.6 11.72
3/23/2021 5:15:00 PM 6.98 44.564 0.061 7.22 5.72 11.73
3/23/2021 5:30:00 PM 6.94 44.492 0.061 7.21 5.58 11.73
3/23/2021 5:45:00 PM 6.87 44.366 0.061 7.19 5.55 11.72
3/23/2021 6:00:00 PM 6.8 44.24 0.061 7.18 5.71 11.71
3/23/2021 6:15:00 PM 6.72 44.096 0.061 7.16 5.69 11.7
3/23/2021 6:30:00 PM 6.64 43.952 0.061 7.13 5.63 11.68
3/23/2021 6:45:00 PM 6.55 43.79 0.061 7.11 5.86 11.67
3/23/2021 7:00:00 PM 6.46 43.628 0.061 7.1 6.01 11.68
3/23/2021 7:15:00 PM 6.38 43.484 0.061 7.07 6.01 11.68
3/23/2021 7:30:00 PM 6.3 43.34 0.061 7.07 5.97 11.69
3/23/2021 7:45:00 PM 6.22 43.196 0.061 7.06 5.97 11.72
3/23/2021 8:00:00 PM 6.15 43.07 0.061 7.06 5.9 11.73
3/23/2021 8:15:00 PM 6.08 42.944 0.061 7.05 5.96 11.76
3/23/2021 8:30:00 PM 6 42.8 0.061 7.04 6.01 11.78
3/23/2021 8:45:00 PM 5.92 42.656 0.061 7.04 6.1 11.79
3/23/2021 9:00:00 PM 5.84 42.512 0.062 7.04 6.15 11.82
3/23/2021 9:15:00 PM 5.77 42.386 0.062 7.04 5.96 11.84
3/23/2021 9:30:00 PM 5.71 42.278 0.062 7.02 6.21 11.86
3/23/2021 9:45:00 PM 5.65 42.17 0.062 7.02 5.9 11.88
3/23/2021 10:00:00 PM 5.58 42.044 0.061 7.03 5.95 11.9
3/23/2021 10:15:00 PM 5.51 41.918 0.062 7.03 5.85 11.92
3/23/2021 10:30:00 PM 5.44 41.792 0.062 7.03 5.91 11.94
3/23/2021 10:45:00 PM 5.37 41.666 0.062 7.02 6.08 11.96
3/23/2021 11:00:00 PM 5.31 41.558 0.062 7.02 5.96 11.98
3/23/2021 11:15:00 PM 5.26 41.468 0.062 7.01 5.8 12
3/23/2021 11:30:00 PM 5.2 41.36 0.062 7.01 5.66 12.01
3/23/2021 11:45:00 PM 5.15 41.27 0.062 7 5.8 12.03
3/24/2021 12:00:00 AM 5.11 41.198 0.061 6.82 5.8 12.04
3/24/2021 12:15:00 AM 5.06 41.108 0.061 6.94 5.71 12.06
3/24/2021 12:30:00 AM 5.02 41.036 0.062 7.01 5.62 12.07
3/24/2021 12:45:00 AM 4.99 40.982 0.062 7 5.68 12.08
3/24/2021 1:00:00 AM 4.96 40.928 0.062 7.01 5.64 12.09
3/24/2021 1:15:00 AM 4.93 40.874 0.062 7 5.64 12.1
3/24/2021 1:30:00 AM 4.9 40.82 0.062 7 5.62 12.11
3/24/2021 1:45:00 AM 4.89 40.802 0.062 7 5.84 12.11
3/24/2021 2:00:00 AM 4.88 40.784 0.062 7 5.64 12.12
3/24/2021 2:15:00 AM 4.87 40.766 0.062 7 5.8 12.12
3/24/2021 2:30:00 AM 4.87 40.766 0.062 7.01 5.61 12.12
3/24/2021 2:45:00 AM 4.87 40.766 0.062 7 5.7 12.12
3/24/2021 3:00:00 AM 4.87 40.766 0.062 7.01 5.6 12.12
3/24/2021 3:15:00 AM 4.87 40.766 0.062 7.01 5.71 12.12
3/24/2021 3:30:00 AM 4.86 40.748 0.062 7.02 5.62 12.12
3/24/2021 3:45:00 AM 4.87 40.766 0.062 7.01 5.62 12.12
3/24/2021 4:00:00 AM 4.87 40.766 0.062 7.02 5.68 12.12
3/24/2021 4:15:00 AM 4.88 40.784 0.062 7.02 5.64 12.12
3/24/2021 4:30:00 AM 4.89 40.802 0.062 7.02 5.65 12.11
3/24/2021 4:45:00 AM 4.9 40.82 0.062 7.02 5.57 12.11
3/24/2021 5:00:00 AM 4.91 40.838 0.062 7.01 5.69 12.1
3/24/2021 5:15:00 AM 4.93 40.874 0.062 7.01 5.7 12.1
3/24/2021 5:30:00 AM 4.94 40.892 0.062 7.02 5.67 12.09
3/24/2021 5:45:00 AM 4.96 40.928 0.062 7.02 5.67 12.09
3/24/2021 6:00:00 AM 4.98 40.964 0.062 7.02 5.61 12.08
3/24/2021 6:15:00 AM 5 41 0.061 7.02 5.67 12.08
3/24/2021 6:30:00 AM 5.01 41.018 0.061 7.02 5.72 12.08
3/24/2021 6:45:00 AM 5.03 41.054 0.061 7.02 5.85 12.07
3/24/2021 7:00:00 AM 5.05 41.09 0.061 7.03 5.63 12.08
3/24/2021 7:15:00 AM 5.07 41.126 0.061 7.02 5.7 12.08
3/24/2021 7:30:00 AM 5.09 41.162 0.061 7.02 5.78 12.09
3/24/2021 7:45:00 AM 5.11 41.198 0.061 7.03 5.77 12.07
3/24/2021 8:00:00 AM 5.14 41.252 0.061 7.05 5.93 12.11
3/24/2021 8:15:00 AM 5.17 41.306 0.06 7.06 6.09 12.12
3/24/2021 8:30:00 AM 5.2 41.36 0.06 7.06 6.35 12.15
3/24/2021 8:45:00 AM 5.24 41.432 0.06 7.07 6.67 12.17
3/24/2021 9:00:00 AM 5.28 41.504 0.061 7.08 6.89 12.18
3/24/2021 9:15:00 AM 5.32 41.576 0.061 7.1 7.29 12.19
3/24/2021 9:30:00 AM 5.37 41.666 0.061 7.11 7 12.2
3/24/2021 9:45:00 AM 5.43 41.774 0.061 7.12 7.5 12.19
3/24/2021 10:00:00 AM 5.48 41.864 0.061 7.14 7.95 12.18
3/24/2021 10:15:00 AM 5.52 41.936 0.061 7.14 7.49 12.16
3/26/2021 1:15:00 PM -99999.99 -179968 -99999.99 -99999.99 -99999.99 -99999.99
3/26/2021 1:30:00 PM -99999.99 -179968 -99999.99 -99999.99 -99999.99 -99999.99
3/26/2021 1:45:00 PM -99999.99 -179968 -99999.99 -99999.99 -99999.99 -99999.99
4/5/2021 2:30:00 PM 40521 72969.8 142937 1.61 0 80.89
4/5/2021 2:45:00 PM 40521 72969.8 144434 1.44 0 80.86
4/5/2021 3:00:00 PM 40521 72969.8 145937 1.37 0 80.82
4/5/2021 3:15:00 PM 40521 72969.8 151435 1.43 0 80.79
4/5/2021 3:30:00 PM 40521 72969.8 152937 1.5 0 80.77
4/5/2021 3:45:00 PM 40521 72969.8 154435 1.48 0 80.75
4/5/2021 4:00:00 PM 40521 72969.8 155937 1.5 0 80.71
4/5/2021 4:15:00 PM 40521 72969.8 161436 1.53 0 80.69
4/5/2021 4:30:00 PM 40521 72969.8 162938 1.4 0 80.69
4/5/2021 4:45:00 PM 40521 72969.8 164436 1.43 0 80.69
4/5/2021 5:00:00 PM 40521 72969.8 165938 1.36 0 80.65
4/5/2021 5:15:00 PM 40521 72969.8 171436 1.45 0 80.69
4/5/2021 5:30:00 PM 40521 72969.8 172939 1.41 0 80.76
4/5/2021 5:45:00 PM 40521 72969.8 174436 1.47 0 80.78
4/5/2021 6:00:00 PM 40521 72969.8 175938 1.42 0 80.84
4/5/2021 6:15:00 PM 40521 72969.8 181437 1.55 0 80.89
4/5/2021 6:30:00 PM 40521 72969.8 182935 1.65 0 80.94
4/5/2021 6:45:00 PM 40521 72969.8 184437 1.55 0 81.04
4/5/2021 7:00:00 PM 40521 72969.8 185934 1.56 0 81.11
4/5/2021 7:15:00 PM 40521 72969.8 191438 1.56 0 81.22
4/5/2021 7:30:00 PM 40521 72969.8 192935 1.66 0 81.33
4/5/2021 7:45:00 PM 40521 72969.8 194437 1.73 0 81.45
4/5/2021 8:00:00 PM 40521 72969.8 195935 1.61 0 81.57
4/5/2021 8:15:00 PM 40521 72969.8 201439 1.58 0 81.68
4/5/2021 8:30:00 PM 40521 72969.8 202936 1.81 0 81.77
4/5/2021 8:45:00 PM 40521 72969.8 204438 1.84 0 81.86
4/5/2021 9:00:00 PM 40521 72969.8 205936 1.84 0 81.96
4/5/2021 9:15:00 PM 40521 72969.8 211434 1.77 0 82.04
4/5/2021 9:30:00 PM 40521 72969.8 212936 1.9 0 82.12
4/5/2021 9:45:00 PM 40521 72969.8 214439 1.82 0 82.14
4/5/2021 10:00:00 PM 40521 72969.8 215936 1.7 0 82.21
4/5/2021 10:15:00 PM 40521 72969.8 221434 1.82 0 82.28
4/5/2021 10:30:00 PM 40521 72969.8 222937 1.78 0 82.33
4/5/2021 10:45:00 PM 40521 72969.8 224435 1.84 0 82.38
4/5/2021 11:00:00 PM 40521 72969.8 225937 1.84 0 82.43
4/5/2021 11:15:00 PM 40521 72969.8 231435 1.85 0 82.48
4/5/2021 11:30:00 PM 40521 72969.8 232938 1.74 0 82.54
4/5/2021 11:45:00 PM 40521 72969.8 234435 1.8 0 82.55
4/6/2021 12:00:00 AM 40521 72969.8 235937 1.73 0 82.64
4/6/2021 12:15:00 AM 40621 73149.8 1436 1.76 0 82.68
4/6/2021 12:30:00 AM 40621 73149.8 2939 1.81 0 82.75
4/6/2021 12:45:00 AM 40621 73149.8 4436 1.71 0 82.81
4/6/2021 1:00:00 AM 40621 73149.8 5938 1.76 0 82.87
4/6/2021 1:15:00 AM 40621 73149.8 11436 1.78 0 82.91
4/6/2021 1:30:00 AM 40621 73149.8 12934 1.71 0 82.94
4/6/2021 1:45:00 AM 40621 73149.8 14437 1.82 0 83
4/6/2021 2:00:00 AM 40621 73149.8 15938 1.96 0 83.03
4/6/2021 2:15:00 AM 40621 73149.8 21438 1.86 0 83.05
4/6/2021 2:30:00 AM 40621 73149.8 22935 1.9 0 83.09
4/6/2021 2:45:00 AM 40621 73149.8 24437 1.82 0 83.12
4/6/2021 3:00:00 AM 40621 73149.8 25934 1.89 0 83.16
4/6/2021 3:15:00 AM 40621 73149.8 31438 1.83 0 83.16
4/6/2021 3:30:00 AM 40621 73149.8 32935 1.82 0 83.2
4/6/2021 3:45:00 AM 40621 73149.8 34437 1.8 0 83.24
4/6/2021 4:00:00 AM 40621 73149.8 35934 1.93 0 83.26
4/6/2021 4:15:00 AM 40621 73149.8 41439 1.83 0 83.29
4/6/2021 4:30:00 AM 40621 73149.8 42938 1.85 0 83.33
4/6/2021 4:45:00 AM 40621 73149.8 44436 1.86 0 83.36
4/6/2021 5:00:00 AM 40621 73149.8 45938 1.97 0 83.4
4/6/2021 5:15:00 AM 40621 73149.8 51436 1.83 0 83.4
4/6/2021 5:30:00 AM 40621 73149.8 52934 1.85 0 83.46
4/6/2021 5:45:00 AM 40621 73149.8 54436 1.83 0 83.47
4/6/2021 6:00:00 AM 40621 73149.8 55938 1.78 0 83.48
4/6/2021 6:15:00 AM 40621 73149.8 61437 1.85 0 83.5
4/6/2021 6:30:00 AM 40621 73149.8 62935 1.8 0 83.54
4/6/2021 6:45:00 AM 40621 73149.8 64437 1.84 0 83.55
4/6/2021 7:00:00 AM 40621 73149.8 65934 1.89 0 83.53
4/6/2021 7:15:00 AM 40621 73149.8 71438 1.9 0 83.52
4/6/2021 7:30:00 AM 40621 73149.8 72935 1.97 0 83.5
4/6/2021 7:45:00 AM 40621 73149.8 74437 1.9 0 83.44
4/6/2021 8:00:00 AM 40621 73149.8 75934 2.03 0 83.37
4/6/2021 8:15:00 AM 40621 73149.8 81434 1.86 0 83.28
4/6/2021 8:30:00 AM 40621 73149.8 82936 1.88 0 83.21
4/6/2021 8:45:00 AM 40621 73149.8 84438 1.82 0 83.12
4/6/2021 9:00:00 AM 40621 73149.8 85935 1.79 0 83
4/6/2021 9:15:00 AM 40621 73149.8 91434 1.78 0 82.89
4/6/2021 9:30:00 AM 40621 73149.8 92936 1.8 0 82.79
4/6/2021 9:45:00 AM 40621 73149.8 94438 1.75 0 82.66
4/6/2021 10:00:00 AM 40621 73149.8 95936 1.8 0 82.56
4/6/2021 10:15:00 AM 40621 73149.8 101435 1.8 0 82.47
4/6/2021 10:30:00 AM 40621 73149.8 102937 1.74 0 82.37
4/6/2021 10:45:00 AM 40621 73149.8 104434 1.74 0 82.26
4/6/2021 11:00:00 AM 40621 73149.8 105937 1.75 0 82.14
4/6/2021 11:15:00 AM 40621 73149.8 111435 1.72 0 82.04
4/6/2021 11:30:00 AM 40621 73149.8 112937 1.76 0 81.96
4/6/2021 11:45:00 AM 40621 73149.8 114434 1.77 0 81.88
4/6/2021 12:00:00 PM 40621 73149.8 115937 1.71 0 81.79
4/6/2021 12:15:00 PM 40621 73149.8 121436 1.87 0 81.74
4/6/2021 12:30:00 PM 40621 73149.8 122938 1.77 0 81.66
4/6/2021 12:45:00 PM 40621 73149.8 124436 1.69 0 81.57
4/6/2021 1:00:00 PM 40621 73149.8 125938 1.68 0 81.5
4/6/2021 1:15:00 PM 40621 73149.8 131436 1.79 0 81.5
4/6/2021 1:30:00 PM 40621 73149.8 132933 1.9 0 81.38
4/6/2021 1:45:00 PM 40621 73149.8 134436 1.8 0 81.39
4/6/2021 2:00:00 PM 40621 73149.8 135938 1.77 0 81.34
4/6/2021 2:15:00 PM 40621 73149.8 141437 1.85 0 81.29
4/6/2021 2:30:00 PM 40621 73149.8 142935 1.82 0 81.28
4/6/2021 2:45:00 PM 40621 73149.8 144437 1.98 0 81.25
4/6/2021 3:00:00 PM 40621 73149.8 145934 1.78 0 81.23
4/6/2021 3:15:00 PM 40621 73149.8 151438 1.85 0 81.22
4/6/2021 3:30:00 PM 40621 73149.8 152935 1.87 0 81.23
4/6/2021 3:45:00 PM 40621 73149.8 154437 1.87 0 81.18
4/6/2021 4:00:00 PM 40621 73149.8 155934 1.85 0 81.18
4/6/2021 4:15:00 PM 40621 73149.8 161434 1.92 0 81.17
4/6/2021 4:30:00 PM 40621 73149.8 162936 1.92 0 81.18
4/6/2021 4:45:00 PM 40621 73149.8 164433 1.94 0 81.19
4/6/2021 5:00:00 PM 40621 73149.8 165935 1.95 0 81.23
4/6/2021 5:15:00 PM 40621 73149.8 171434 1.92 0 81.24
4/6/2021 5:30:00 PM 40621 73149.8 172936 1.99 0 81.28
4/6/2021 5:45:00 PM 40621 73149.8 174433 1.92 0 81.35
4/6/2021 6:00:00 PM 40621 73149.8 175936 2.03 0 81.38
4/6/2021 6:15:00 PM 40621 73149.8 181435 2.04 0 81.45
4/6/2021 6:30:00 PM 40621 73149.8 182938 2.09 0 81.54
4/6/2021 6:45:00 PM 40621 73149.8 184435 1.95 0 81.57
4/6/2021 7:00:00 PM 40621 73149.8 185937 2.06 0 81.68
4/6/2021 7:15:00 PM 40621 73149.8 191435 1.94 0 81.8
4/6/2021 7:30:00 PM 40621 73149.8 192938 1.97 0 81.95
4/6/2021 7:45:00 PM 40621 73149.8 194435 1.93 0 82.11
4/6/2021 8:00:00 PM 40621 73149.8 195937 2.09 0 82.27
4/6/2021 8:15:00 PM 40621 73149.8 201437 2.08 0 82.42
4/6/2021 8:30:00 PM 40621 73149.8 202934 2.02 0 82.54
4/6/2021 8:45:00 PM 40621 73149.8 204436 2.11 0 82.68
4/6/2021 9:00:00 PM 40621 73149.8 205933 2.06 0 82.82
4/6/2021 9:15:00 PM 40621 73149.8 211437 2.19 0 82.93
4/6/2021 9:30:00 PM 40621 73149.8 212934 2.15 0 83.06
4/6/2021 9:45:00 PM 40621 73149.8 214436 2.15 0 83.13
4/6/2021 10:00:00 PM 40621 73149.8 215934 2.16 0 83.23
4/6/2021 10:15:00 PM 40621 73149.8 221438 2.13 0 83.31
4/6/2021 10:30:00 PM 40621 73149.8 222935 2 0 83.39
4/6/2021 10:45:00 PM 40621 73149.8 224437 2.09 0 83.45
4/6/2021 11:00:00 PM 40621 73149.8 225935 1.99 0 83.5
4/6/2021 11:15:00 PM 40621 73149.8 231433 1.93 0 83.57
4/6/2021 11:30:00 PM 40621 73149.8 232935 2.04 0 83.6
4/6/2021 11:45:00 PM 40621 73149.8 234438 1.98 0 83.65
4/7/2021 12:00:00 AM 40621 73149.8 235935 2.1 0 83.71
4/7/2021 12:15:00 AM 40721 73329.8 1434 2.05 0 83.76
4/7/2021 12:30:00 AM 40721 73329.8 2936 2.48 0 83.79
4/7/2021 12:45:00 AM 40721 73329.8 4434 1.89 0 83.81
4/7/2021 1:00:00 AM 40721 73329.8 5936 1.9 0 83.85
4/7/2021 1:15:00 AM 40721 73329.8 11434 1.88 0 83.88
4/7/2021 1:30:00 AM 40721 73329.8 12937 1.85 0 83.93
4/7/2021 1:45:00 AM 40721 73329.8 14434 1.99 0 83.94
4/7/2021 2:00:00 AM 40721 73329.8 15936 1.92 0 83.98
4/7/2021 2:15:00 AM 40721 73329.8 21435 1.9 0 83.97
4/7/2021 2:30:00 AM 40721 73329.8 22938 1.84 0 84
4/7/2021 2:45:00 AM 40721 73329.8 24435 1.82 0 84.01
4/7/2021 3:00:00 AM 40721 73329.8 25937 1.91 0 84.02
4/7/2021 3:15:00 AM 40721 73329.8 31436 2 0 84.03
4/7/2021 3:30:00 AM 40721 73329.8 32933 1.89 0 84.04
4/7/2021 3:45:00 AM 40721 73329.8 34435 1.91 0 84.05
4/7/2021 4:00:00 AM 40721 73329.8 35937 1.99 0 84.05
4/7/2021 4:15:00 AM 40721 73329.8 41437 2.05 0 84.07
4/7/2021 4:30:00 AM 40721 73329.8 42934 1.99 0 84.06
4/7/2021 4:45:00 AM 40721 73329.8 44436 1.96 0 84.03
4/7/2021 5:00:00 AM 40721 73329.8 45933 2.08 0 84.02
4/7/2021 5:15:00 AM 40721 73329.8 51437 1.96 0 83.98
4/7/2021 5:30:00 AM 40721 73329.8 52934 2.16 0 83.96
4/7/2021 5:45:00 AM 40721 73329.8 54436 2.01 0 83.94
4/7/2021 6:00:00 AM 40721 73329.8 55934 2.02 0 83.92
4/7/2021 6:15:00 AM 40721 73329.8 61433 1.99 0 83.9
4/7/2021 6:30:00 AM 40721 73329.8 62935 2.06 0 83.93
4/7/2021 6:45:00 AM 40721 73329.8 64437 2.06 0 83.93
4/7/2021 7:00:00 AM 40721 73329.8 65935 2.06 0 83.96
4/7/2021 7:15:00 AM 40721 73329.8 71433 2.1 0 83.96
4/7/2021 7:30:00 AM 40721 73329.8 72935 2.08 0 83.97
4/7/2021 7:45:00 AM 40721 73329.8 74438 2.02 0 83.92
4/7/2021 8:00:00 AM 40721 73329.8 75935 2 0 83.81
4/7/2021 8:15:00 AM 40721 73329.8 81434 2 0 83.78
4/7/2021 8:30:00 AM 40721 73329.8 82936 2.18 0 83.71
4/7/2021 8:45:00 AM 40721 73329.8 84434 2.08 0 83.61
4/7/2021 9:00:00 AM 40721 73329.8 85936 2 0 83.56
4/7/2021 9:15:00 AM 40721 73329.8 91434 1.97 0 83.48
4/7/2021 9:30:00 AM 40721 73329.8 92937 1.99 0 83.38
4/7/2021 9:45:00 AM 40721 73329.8 94434 2.19 0 83.28
4/7/2021 10:00:00 AM 40721 73329.8 95936 2.26 0 83.18
4/7/2021 10:15:00 AM 40721 73329.8 101435 2.41 0 83.13
4/7/2021 10:30:00 AM 40721 73329.8 102933 2.11 0 83.06
4/7/2021 10:45:00 AM 40721 73329.8 104435 2.03 0 82.98
4/7/2021 11:00:00 AM 40721 73329.8 105937 1.95 0 82.92
4/7/2021 11:15:00 AM 40721 73329.8 111434 1.97 0 82.84
4/7/2021 11:30:00 AM 40721 73329.8 112933 1.92 0 82.79
4/7/2021 11:45:00 AM 40721 73329.8 114435 2 0 82.72
4/7/2021 12:00:00 PM 40721 73329.8 115937 2.03 0 82.68
4/7/2021 12:15:00 PM 40721 73329.8 121437 2.07 0 82.61
4/7/2021 12:30:00 PM 40721 73329.8 122934 1.98 0 82.55
4/7/2021 12:45:00 PM 40721 73329.8 124436 2.04 0 82.51
4/7/2021 1:00:00 PM 40721 73329.8 125933 2.08 0 82.47
4/7/2021 1:15:00 PM 40721 73329.8 131437 1.98 0 82.42
4/7/2021 1:30:00 PM 40721 73329.8 132934 2 0 82.42
4/7/2021 1:45:00 PM 40721 73329.8 134436 2.07 0 82.38
4/7/2021 2:00:00 PM 40721 73329.8 135934 1.92 0 82.34
4/7/2021 2:15:00 PM 40721 73329.8 141433 2 0 82.34
4/7/2021 2:30:00 PM 40721 73329.8 142935 2.07 0 82.33
4/7/2021 2:45:00 PM 40721 73329.8 144433 2.01 0 82.31
4/7/2021 3:00:00 PM 40721 73329.8 145935 1.98 0 82.3
4/7/2021 3:15:00 PM 40721 73329.8 151433 1.95 0 82.27
4/7/2021 3:30:00 PM 40721 73329.8 152935 2.1 0 82.25
4/7/2021 3:45:00 PM 40721 73329.8 154433 2.03 0 82.24
4/7/2021 4:00:00 PM -99999.99 -179968 -99999.99 -99999.99 -99999.99 -99999.99
4/7/2021 4:15:00 PM -99999.99 -179968 -99999.99 -99999.99 -99999.99 -99999.99
4/7/2021 4:30:00 PM -99999.99 -179968 -99999.99 -99999.99 -99999.99 -99999.99
4/7/2021 4:45:00 PM -99999.99 -179968 -99999.99 -99999.99 -99999.99 -99999.99
4/7/2021 5:00:00 PM -99999.99 -179968 -99999.99 -99999.99 -99999.99 -99999.99
4/7/2021 5:15:00 PM -99999.99 -179968 -99999.99 -99999.99 -99999.99 -99999.99
4/7/2021 5:30:00 PM -99999.99 -179968 -99999.99 -99999.99 -99999.99 -99999.99
4/7/2021 5:45:00 PM -99999.99 -179968 -99999.99 -99999.99 -99999.99 -99999.99
4/7/2021 6:00:00 PM -99999.99 -179968 -99999.99 -99999.99 -99999.99 -99999.99
4/7/2021 6:15:00 PM -99999.99 -179968 -99999.99 -99999.99 -99999.99 -99999.99
4/7/2021 6:30:00 PM -99999.99 -179968 -99999.99 -99999.99 -99999.99 -99999.99
4/7/2021 6:45:00 PM -99999.99 -179968 -99999.99 -99999.99 -99999.99 -99999.99
4/7/2021 7:00:00 PM -99999.99 -179968 -99999.99 -99999.99 -99999.99 -99999.99
4/7/2021 7:15:00 PM -99999.99 -179968 -99999.99 -99999.99 -99999.99 -99999.99
4/7/2021 7:30:00 PM -99999.99 -179968 -99999.99 -99999.99 -99999.99 -99999.99
4/7/2021 7:45:00 PM -99999.99 -179968 -99999.99 -99999.99 -99999.99 -99999.99
4/7/2021 8:00:00 PM -99999.99 -179968 -99999.99 -99999.99 -99999.99 -99999.99
4/7/2021 8:15:00 PM -99999.99 -179968 -99999.99 -99999.99 -99999.99 -99999.99
4/7/2021 8:30:00 PM -99999.99 -179968 -99999.99 -99999.99 -99999.99 -99999.99
4/7/2021 8:45:00 PM -99999.99 -179968 -99999.99 -99999.99 -99999.99 -99999.99
4/7/2021 9:00:00 PM -99999.99 -179968 -99999.99 -99999.99 -99999.99 -99999.99
4/7/2021 9:15:00 PM -99999.99 -179968 -99999.99 -99999.99 -99999.99 -99999.99
4/7/2021 9:30:00 PM -99999.99 -179968 -99999.99 -99999.99 -99999.99 -99999.99
4/7/2021 9:45:00 PM -99999.99 -179968 -99999.99 -99999.99 -99999.99 -99999.99
4/7/2021 10:00:00 PM -99999.99 -179968 -99999.99 -99999.99 -99999.99 -99999.99
4/7/2021 10:15:00 PM -99999.99 -179968 -99999.99 -99999.99 -99999.99 -99999.99
4/7/2021 10:30:00 PM -99999.99 -179968 -99999.99 -99999.99 -99999.99 -99999.99
4/7/2021 10:45:00 PM -99999.99 -179968 -99999.99 -99999.99 -99999.99 -99999.99
4/7/2021 11:00:00 PM -99999.99 -179968 -99999.99 -99999.99 -99999.99 -99999.99
4/7/2021 11:15:00 PM -99999.99 -179968 -99999.99 -99999.99 -99999.99 -99999.99
4/7/2021 11:30:00 PM -99999.99 -179968 -99999.99 -99999.99 -99999.99 -99999.99
4/7/2021 11:45:00 PM -99999.99 -179968 -99999.99 -99999.99 -99999.99 -99999.99
4/8/2021 12:00:00 AM -99999.99 -179968 -99999.99 -99999.99 -99999.99 -99999.99
4/8/2021 12:15:00 AM -99999.99 -179968 -99999.99 -99999.99 -99999.99 -99999.99
4/8/2021 12:30:00 AM -99999.99 -179968 -99999.99 -99999.99 -99999.99 -99999.99
4/8/2021 12:45:00 AM -99999.99 -179968 -99999.99 -99999.99 -99999.99 -99999.99
4/8/2021 1:00:00 AM -99999.99 -179968 -99999.99 -99999.99 -99999.99 -99999.99
4/8/2021 1:15:00 AM -99999.99 -179968 -99999.99 -99999.99 -99999.99 -99999.99
4/8/2021 1:30:00 AM -99999.99 -179968 -99999.99 -99999.99 -99999.99 -99999.99
4/8/2021 1:45:00 AM -99999.99 -179968 -99999.99 -99999.99 -99999.99 -99999.99
4/8/2021 2:00:00 AM -99999.99 -179968 -99999.99 -99999.99 -99999.99 -99999.99
4/8/2021 2:15:00 AM -99999.99 -179968 -99999.99 -99999.99 -99999.99 -99999.99
4/8/2021 2:30:00 AM -99999.99 -179968 -99999.99 -99999.99 -99999.99 -99999.99
4/8/2021 2:45:00 AM -99999.99 -179968 -99999.99 -99999.99 -99999.99 -99999.99
4/8/2021 3:00:00 AM -99999.99 -179968 -99999.99 -99999.99 -99999.99 -99999.99
4/8/2021 3:15:00 AM -99999.99 -179968 -99999.99 -99999.99 -99999.99 -99999.99
4/8/2021 3:30:00 AM -99999.99 -179968 -99999.99 -99999.99 -99999.99 -99999.99
4/8/2021 3:45:00 AM -99999.99 -179968 -99999.99 -99999.99 -99999.99 -99999.99
4/8/2021 4:00:00 AM -99999.99 -179968 -99999.99 -99999.99 -99999.99 -99999.99
4/8/2021 4:15:00 AM -99999.99 -179968 -99999.99 -99999.99 -99999.99 -99999.99
4/8/2021 4:30:00 AM -99999.99 -179968 -99999.99 -99999.99 -99999.99 -99999.99
4/8/2021 4:45:00 AM -99999.99 -179968 -99999.99 -99999.99 -99999.99 -99999.99
4/8/2021 5:00:00 AM -99999.99 -179968 -99999.99 -99999.99 -99999.99 -99999.99
4/8/2021 5:15:00 AM -99999.99 -179968 -99999.99 -99999.99 -99999.99 -99999.99
4/8/2021 5:30:00 AM -99999.99 -179968 -99999.99 -99999.99 -99999.99 -99999.99
4/8/2021 5:45:00 AM -99999.99 -179968 -99999.99 -99999.99 -99999.99 -99999.99
4/8/2021 6:00:00 AM -99999.99 -179968 -99999.99 -99999.99 -99999.99 -99999.99
4/8/2021 6:15:00 AM -99999.99 -179968 -99999.99 -99999.99 -99999.99 -99999.99
4/8/2021 6:30:00 AM -99999.99 -179968 -99999.99 -99999.99 -99999.99 -99999.99
4/8/2021 6:45:00 AM -99999.99 -179968 -99999.99 -99999.99 -99999.99 -99999.99
4/8/2021 7:00:00 AM -99999.99 -179968 -99999.99 -99999.99 -99999.99 -99999.99
4/8/2021 7:15:00 AM -99999.99 -179968 -99999.99 -99999.99 -99999.99 -99999.99
4/8/2021 7:30:00 AM -99999.99 -179968 -99999.99 -99999.99 -99999.99 -99999.99
4/8/2021 7:45:00 AM -99999.99 -179968 -99999.99 -99999.99 -99999.99 -99999.99
4/8/2021 8:00:00 AM -99999.99 -179968 -99999.99 -99999.99 -99999.99 -99999.99
4/8/2021 8:15:00 AM -99999.99 -179968 -99999.99 -99999.99 -99999.99 -99999.99
4/8/2021 8:30:00 AM -99999.99 -179968 -99999.99 -99999.99 -99999.99 -99999.99
4/8/2021 8:45:00 AM -99999.99 -179968 -99999.99 -99999.99 -99999.99 -99999.99
4/8/2021 9:00:00 AM -99999.99 -179968 -99999.99 -99999.99 -99999.99 -99999.99
4/8/2021 9:15:00 AM -99999.99 -179968 -99999.99 -99999.99 -99999.99 -99999.99
4/8/2021 9:30:00 AM -99999.99 -179968 -99999.99 -99999.99 -99999.99 -99999.99
4/8/2021 9:45:00 AM -99999.99 -179968 -99999.99 -99999.99 -99999.99 -99999.99
4/8/2021 10:00:00 AM -99999.99 -179968 -99999.99 -99999.99 -99999.99 -99999.99
4/8/2021 10:15:00 AM -99999.99 -179968 -99999.99 -99999.99 -99999.99 -99999.99
4/8/2021 10:30:00 AM -99999.99 -179968 -99999.99 -99999.99 -99999.99 -99999.99
4/8/2021 10:45:00 AM -99999.99 -179968 -99999.99 -99999.99 -99999.99 -99999.99
4/8/2021 11:00:00 AM -99999.99 -179968 -99999.99 -99999.99 -99999.99 -99999.99
4/8/2021 11:15:00 AM -99999.99 -179968 -99999.99 -99999.99 -99999.99 -99999.99
4/8/2021 11:30:00 AM -99999.99 -179968 -99999.99 -99999.99 -99999.99 -99999.99
4/8/2021 11:45:00 AM -99999.99 -179968 -99999.99 -99999.99 -99999.99 -99999.99
4/8/2021 12:00:00 PM -99999.99 -179968 -99999.99 -99999.99 -99999.99 -99999.99
4/8/2021 12:15:00 PM -99999.99 -179968 -99999.99 -99999.99 -99999.99 -99999.99
4/8/2021 12:30:00 PM -99999.99 -179968 -99999.99 -99999.99 -99999.99 -99999.99
4/8/2021 12:45:00 PM -99999.99 -179968 -99999.99 -99999.99 -99999.99 -99999.99
4/8/2021 1:00:00 PM -99999.99 -179968 -99999.99 -99999.99 -99999.99 -99999.99
4/8/2021 1:15:00 PM -99999.99 -179968 -99999.99 -99999.99 -99999.99 -99999.99
4/8/2021 1:30:00 PM -99999.99 -179968 -99999.99 -99999.99 -99999.99 -99999.99
4/8/2021 1:45:00 PM -99999.99 -179968 -99999.99 -99999.99 -99999.99 -99999.99
4/8/2021 2:00:00 PM -99999.99 -179968 -99999.99 -99999.99 -99999.99 -99999.99
4/8/2021 2:15:00 PM -99999.99 -179968 -99999.99 -99999.99 -99999.99 -99999.99
4/8/2021 2:30:00 PM -99999.99 -179968 -99999.99 -99999.99 -99999.99 -99999.99
4/8/2021 2:45:00 PM -99999.99 -179968 -99999.99 -99999.99 -99999.99 -99999.99
4/8/2021 3:00:00 PM -99999.99 -179968 -99999.99 -99999.99 -99999.99 -99999.99
4/8/2021 3:15:00 PM -99999.99 -179968 -99999.99 -99999.99 -99999.99 -99999.99
4/8/2021 3:30:00 PM -99999.99 -179968 -99999.99 -99999.99 -99999.99 -99999.99
4/8/2021 3:45:00 PM -99999.99 -179968 -99999.99 -99999.99 -99999.99 -99999.99
4/8/2021 4:00:00 PM -99999.99 -179968 -99999.99 -99999.99 -99999.99 -99999.99
4/8/2021 4:15:00 PM -99999.99 -179968 -99999.99 -99999.99 -99999.99 -99999.99
4/8/2021 4:30:00 PM -99999.99 -179968 -99999.99 -99999.99 -99999.99 -99999.99
4/8/2021 4:45:00 PM -99999.99 -179968 -99999.99 -99999.99 -99999.99 -99999.99
4/8/2021 5:00:00 PM -99999.99 -179968 -99999.99 -99999.99 -99999.99 -99999.99
4/8/2021 5:15:00 PM -99999.99 -179968 -99999.99 -99999.99 -99999.99 -99999.99
4/8/2021 5:30:00 PM -99999.99 -179968 -99999.99 -99999.99 -99999.99 -99999.99
4/8/2021 5:45:00 PM -99999.99 -179968 -99999.99 -99999.99 -99999.99 -99999.99
4/8/2021 6:00:00 PM -99999.99 -179968 -99999.99 -99999.99 -99999.99 -99999.99
4/8/2021 6:15:00 PM -99999.99 -179968 -99999.99 -99999.99 -99999.99 -99999.99
4/8/2021 6:30:00 PM -99999.99 -179968 -99999.99 -99999.99 -99999.99 -99999.99
4/8/2021 6:45:00 PM -99999.99 -179968 -99999.99 -99999.99 -99999.99 -99999.99
4/8/2021 7:00:00 PM -99999.99 -179968 -99999.99 -99999.99 -99999.99 -99999.99
4/8/2021 7:15:00 PM -99999.99 -179968 -99999.99 -99999.99 -99999.99 -99999.99
4/8/2021 7:30:00 PM -99999.99 -179968 -99999.99 -99999.99 -99999.99 -99999.99
4/8/2021 7:45:00 PM -99999.99 -179968 -99999.99 -99999.99 -99999.99 -99999.99
4/8/2021 8:00:00 PM -99999.99 -179968 -99999.99 -99999.99 -99999.99 -99999.99
4/8/2021 8:15:00 PM -99999.99 -179968 -99999.99 -99999.99 -99999.99 -99999.99
4/8/2021 8:30:00 PM -99999.99 -179968 -99999.99 -99999.99 -99999.99 -99999.99
4/8/2021 8:45:00 PM -99999.99 -179968 -99999.99 -99999.99 -99999.99 -99999.99
4/8/2021 9:00:00 PM -99999.99 -179968 -99999.99 -99999.99 -99999.99 -99999.99
4/8/2021 9:15:00 PM -99999.99 -179968 -99999.99 -99999.99 -99999.99 -99999.99
4/8/2021 9:30:00 PM -99999.99 -179968 -99999.99 -99999.99 -99999.99 -99999.99
4/8/2021 9:45:00 PM -99999.99 -179968 -99999.99 -99999.99 -99999.99 -99999.99
4/8/2021 10:00:00 PM -99999.99 -179968 -99999.99 -99999.99 -99999.99 -99999.99
4/8/2021 10:15:00 PM -99999.99 -179968 -99999.99 -99999.99 -99999.99 -99999.99
4/8/2021 10:30:00 PM -99999.99 -179968 -99999.99 -99999.99 -99999.99 -99999.99
4/8/2021 10:45:00 PM -99999.99 -179968 -99999.99 -99999.99 -99999.99 -99999.99
4/8/2021 11:00:00 PM -99999.99 -179968 -99999.99 -99999.99 -99999.99 -99999.99
4/8/2021 11:15:00 PM -99999.99 -179968 -99999.99 -99999.99 -99999.99 -99999.99
4/8/2021 11:30:00 PM -99999.99 -179968 -99999.99 -99999.99 -99999.99 -99999.99
4/8/2021 11:45:00 PM -99999.99 -179968 -99999.99 -99999.99 -99999.99 -99999.99
4/9/2021 12:00:00 AM -99999.99 -179968 -99999.99 -99999.99 -99999.99 -99999.99
4/9/2021 12:15:00 AM -99999.99 -179968 -99999.99 -99999.99 -99999.99 -99999.99
4/9/2021 12:30:00 AM -99999.99 -179968 -99999.99 -99999.99 -99999.99 -99999.99
4/9/2021 12:45:00 AM -99999.99 -179968 -99999.99 -99999.99 -99999.99 -99999.99
4/9/2021 1:00:00 AM -99999.99 -179968 -99999.99 -99999.99 -99999.99 -99999.99
4/9/2021 1:15:00 AM -99999.99 -179968 -99999.99 -99999.99 -99999.99 -99999.99
4/9/2021 1:30:00 AM -99999.99 -179968 -99999.99 -99999.99 -99999.99 -99999.99
4/9/2021 1:45:00 AM -99999.99 -179968 -99999.99 -99999.99 -99999.99 -99999.99
4/9/2021 2:00:00 AM -99999.99 -179968 -99999.99 -99999.99 -99999.99 -99999.99
4/9/2021 2:15:00 AM -99999.99 -179968 -99999.99 -99999.99 -99999.99 -99999.99
4/9/2021 2:30:00 AM -99999.99 -179968 -99999.99 -99999.99 -99999.99 -99999.99
4/9/2021 2:45:00 AM -99999.99 -179968 -99999.99 -99999.99 -99999.99 -99999.99
4/9/2021 3:00:00 AM -99999.99 -179968 -99999.99 -99999.99 -99999.99 -99999.99
4/9/2021 3:15:00 AM -99999.99 -179968 -99999.99 -99999.99 -99999.99 -99999.99
4/9/2021 3:30:00 AM -99999.99 -179968 -99999.99 -99999.99 -99999.99 -99999.99
4/9/2021 3:45:00 AM -99999.99 -179968 -99999.99 -99999.99 -99999.99 -99999.99
4/9/2021 4:00:00 AM -99999.99 -179968 -99999.99 -99999.99 -99999.99 -99999.99
4/9/2021 4:15:00 AM -99999.99 -179968 -99999.99 -99999.99 -99999.99 -99999.99
4/9/2021 4:30:00 AM -99999.99 -179968 -99999.99 -99999.99 -99999.99 -99999.99
4/9/2021 4:45:00 AM -99999.99 -179968 -99999.99 -99999.99 -99999.99 -99999.99
4/9/2021 5:00:00 AM -99999.99 -179968 -99999.99 -99999.99 -99999.99 -99999.99
4/9/2021 5:15:00 AM -99999.99 -179968 -99999.99 -99999.99 -99999.99 -99999.99
4/9/2021 5:30:00 AM -99999.99 -179968 -99999.99 -99999.99 -99999.99 -99999.99
4/9/2021 5:45:00 AM -99999.99 -179968 -99999.99 -99999.99 -99999.99 -99999.99
4/9/2021 6:00:00 AM -99999.99 -179968 -99999.99 -99999.99 -99999.99 -99999.99
4/9/2021 6:15:00 AM -99999.99 -179968 -99999.99 -99999.99 -99999.99 -99999.99
4/9/2021 6:30:00 AM -99999.99 -179968 -99999.99 -99999.99 -99999.99 -99999.99
4/9/2021 6:45:00 AM -99999.99 -179968 -99999.99 -99999.99 -99999.99 -99999.99
4/9/2021 7:00:00 AM -99999.99 -179968 -99999.99 -99999.99 -99999.99 -99999.99
4/9/2021 7:15:00 AM -99999.99 -179968 -99999.99 -99999.99 -99999.99 -99999.99
4/9/2021 7:30:00 AM -99999.99 -179968 -99999.99 -99999.99 -99999.99 -99999.99
4/9/2021 7:45:00 AM -99999.99 -179968 -99999.99 -99999.99 -99999.99 -99999.99
4/9/2021 8:00:00 AM -99999.99 -179968 -99999.99 -99999.99 -99999.99 -99999.99
4/9/2021 8:15:00 AM -99999.99 -179968 -99999.99 -99999.99 -99999.99 -99999.99
4/9/2021 8:30:00 AM -99999.99 -179968 -99999.99 -99999.99 -99999.99 -99999.99
4/9/2021 8:45:00 AM -99999.99 -179968 -99999.99 -99999.99 -99999.99 -99999.99
4/9/2021 9:00:00 AM -99999.99 -179968 -99999.99 -99999.99 -99999.99 -99999.99
4/9/2021 9:15:00 AM -99999.99 -179968 -99999.99 -99999.99 -99999.99 -99999.99
4/9/2021 9:30:00 AM -99999.99 -179968 -99999.99 -99999.99 -99999.99 -99999.99
4/9/2021 9:45:00 AM -99999.99 -179968 -99999.99 -99999.99 -99999.99 -99999.99
4/9/2021 10:00:00 AM -99999.99 -179968 -99999.99 -99999.99 -99999.99 -99999.99
4/9/2021 10:15:00 AM -99999.99 -179968 -99999.99 -99999.99 -99999.99 -99999.99
4/9/2021 10:30:00 AM -99999.99 -179968 -99999.99 -99999.99 -99999.99 -99999.99
4/9/2021 10:45:00 AM -99999.99 -179968 -99999.99 -99999.99 -99999.99 -99999.99
4/9/2021 11:00:00 AM -99999.99 -179968 -99999.99 -99999.99 -99999.99 -99999.99
4/9/2021 11:15:00 AM -99999.99 -179968 -99999.99 -99999.99 -99999.99 -99999.99
4/9/2021 11:30:00 AM -99999.99 -179968 -99999.99 -99999.99 -99999.99 -99999.99
4/9/2021 11:45:00 AM -99999.99 -179968 -99999.99 -99999.99 -99999.99 -99999.99
4/9/2021 12:00:00 PM -99999.99 -179968 -99999.99 -99999.99 -99999.99 -99999.99
4/9/2021 12:15:00 PM -99999.99 -179968 -99999.99 -99999.99 -99999.99 -99999.99
4/9/2021 12:30:00 PM -99999.99 -179968 -99999.99 -99999.99 -99999.99 -99999.99
4/9/2021 12:45:00 PM -99999.99 -179968 -99999.99 -99999.99 -99999.99 -99999.99
4/9/2021 1:00:00 PM -99999.99 -179968 -99999.99 -99999.99 -99999.99 -99999.99
4/9/2021 1:15:00 PM -99999.99 -179968 -99999.99 -99999.99 -99999.99 -99999.99
4/9/2021 1:30:00 PM -99999.99 -179968 -99999.99 -99999.99 -99999.99 -99999.99
4/9/2021 1:45:00 PM -99999.99 -179968 -99999.99 -99999.99 -99999.99 -99999.99
4/9/2021 2:00:00 PM -99999.99 -179968 -99999.99 -99999.99 -99999.99 -99999.99
4/9/2021 2:15:00 PM -99999.99 -179968 -99999.99 -99999.99 -99999.99 -99999.99
4/9/2021 2:30:00 PM -99999.99 -179968 -99999.99 -99999.99 -99999.99 -99999.99
4/9/2021 2:45:00 PM -99999.99 -179968 -99999.99 -99999.99 -99999.99 -99999.99
4/9/2021 3:00:00 PM -99999.99 -179968 -99999.99 -99999.99 -99999.99 -99999.99
4/9/2021 3:15:00 PM -99999.99 -179968 -99999.99 -99999.99 -99999.99 -99999.99
4/9/2021 3:30:00 PM -99999.99 -179968 -99999.99 -99999.99 -99999.99 -99999.99
4/9/2021 3:45:00 PM -99999.99 -179968 -99999.99 -99999.99 -99999.99 -99999.99
4/9/2021 4:00:00 PM -99999.99 -179968 -99999.99 -99999.99 -99999.99 -99999.99
4/9/2021 4:15:00 PM -99999.99 -179968 -99999.99 -99999.99 -99999.99 -99999.99
4/9/2021 4:30:00 PM -99999.99 -179968 -99999.99 -99999.99 -99999.99 -99999.99
4/9/2021 4:45:00 PM -99999.99 -179968 -99999.99 -99999.99 -99999.99 -99999.99
4/9/2021 5:00:00 PM -99999.99 -179968 -99999.99 -99999.99 -99999.99 -99999.99
4/9/2021 5:15:00 PM -99999.99 -179968 -99999.99 -99999.99 -99999.99 -99999.99
4/9/2021 5:30:00 PM -99999.99 -179968 -99999.99 -99999.99 -99999.99 -99999.99
4/9/2021 5:45:00 PM -99999.99 -179968 -99999.99 -99999.99 -99999.99 -99999.99
4/9/2021 6:00:00 PM -99999.99 -179968 -99999.99 -99999.99 -99999.99 -99999.99
4/9/2021 6:15:00 PM -99999.99 -179968 -99999.99 -99999.99 -99999.99 -99999.99
4/9/2021 6:30:00 PM -99999.99 -179968 -99999.99 -99999.99 -99999.99 -99999.99
4/9/2021 6:45:00 PM -99999.99 -179968 -99999.99 -99999.99 -99999.99 -99999.99
4/9/2021 7:00:00 PM -99999.99 -179968 -99999.99 -99999.99 -99999.99 -99999.99
4/9/2021 7:15:00 PM -99999.99 -179968 -99999.99 -99999.99 -99999.99 -99999.99
4/9/2021 7:30:00 PM -99999.99 -179968 -99999.99 -99999.99 -99999.99 -99999.99
4/9/2021 7:45:00 PM -99999.99 -179968 -99999.99 -99999.99 -99999.99 -99999.99
4/9/2021 8:00:00 PM -99999.99 -179968 -99999.99 -99999.99 -99999.99 -99999.99
4/9/2021 8:15:00 PM -99999.99 -179968 -99999.99 -99999.99 -99999.99 -99999.99
4/9/2021 8:30:00 PM -99999.99 -179968 -99999.99 -99999.99 -99999.99 -99999.99
4/9/2021 8:45:00 PM -99999.99 -179968 -99999.99 -99999.99 -99999.99 -99999.99
4/9/2021 9:00:00 PM -99999.99 -179968 -99999.99 -99999.99 -99999.99 -99999.99
4/9/2021 9:15:00 PM -99999.99 -179968 -99999.99 -99999.99 -99999.99 -99999.99
4/9/2021 9:30:00 PM -99999.99 -179968 -99999.99 -99999.99 -99999.99 -99999.99
4/9/2021 9:45:00 PM -99999.99 -179968 -99999.99 -99999.99 -99999.99 -99999.99
4/9/2021 10:00:00 PM -99999.99 -179968 -99999.99 -99999.99 -99999.99 -99999.99
4/9/2021 10:15:00 PM -99999.99 -179968 -99999.99 -99999.99 -99999.99 -99999.99
4/9/2021 10:30:00 PM -99999.99 -179968 -99999.99 -99999.99 -99999.99 -99999.99
4/9/2021 10:45:00 PM -99999.99 -179968 -99999.99 -99999.99 -99999.99 -99999.99
4/9/2021 11:00:00 PM -99999.99 -179968 -99999.99 -99999.99 -99999.99 -99999.99
4/9/2021 11:15:00 PM -99999.99 -179968 -99999.99 -99999.99 -99999.99 -99999.99
4/9/2021 11:30:00 PM -99999.99 -179968 -99999.99 -99999.99 -99999.99 -99999.99
4/9/2021 11:45:00 PM -99999.99 -179968 -99999.99 -99999.99 -99999.99 -99999.99
4/10/2021 12:00:00 AM -99999.99 -179968 -99999.99 -99999.99 -99999.99 -99999.99
4/10/2021 12:15:00 AM -99999.99 -179968 -99999.99 -99999.99 -99999.99 -99999.99
4/10/2021 12:30:00 AM -99999.99 -179968 -99999.99 -99999.99 -99999.99 -99999.99
4/10/2021 12:45:00 AM -99999.99 -179968 -99999.99 -99999.99 -99999.99 -99999.99
4/10/2021 1:00:00 AM -99999.99 -179968 -99999.99 -99999.99 -99999.99 -99999.99
4/10/2021 1:15:00 AM -99999.99 -179968 -99999.99 -99999.99 -99999.99 -99999.99
4/10/2021 1:30:00 AM -99999.99 -179968 -99999.99 -99999.99 -99999.99 -99999.99
4/10/2021 1:45:00 AM -99999.99 -179968 -99999.99 -99999.99 -99999.99 -99999.99
4/10/2021 2:00:00 AM -99999.99 -179968 -99999.99 -99999.99 -99999.99 -99999.99
4/10/2021 2:15:00 AM -99999.99 -179968 -99999.99 -99999.99 -99999.99 -99999.99
4/10/2021 2:30:00 AM -99999.99 -179968 -99999.99 -99999.99 -99999.99 -99999.99
4/10/2021 2:45:00 AM -99999.99 -179968 -99999.99 -99999.99 -99999.99 -99999.99
4/10/2021 3:00:00 AM -99999.99 -179968 -99999.99 -99999.99 -99999.99 -99999.99
4/10/2021 3:15:00 AM -99999.99 -179968 -99999.99 -99999.99 -99999.99 -99999.99
4/10/2021 3:30:00 AM -99999.99 -179968 -99999.99 -99999.99 -99999.99 -99999.99
4/10/2021 3:45:00 AM -99999.99 -179968 -99999.99 -99999.99 -99999.99 -99999.99
4/10/2021 4:00:00 AM -99999.99 -179968 -99999.99 -99999.99 -99999.99 -99999.99
4/10/2021 4:15:00 AM -99999.99 -179968 -99999.99 -99999.99 -99999.99 -99999.99
4/10/2021 4:30:00 AM -99999.99 -179968 -99999.99 -99999.99 -99999.99 -99999.99
4/10/2021 4:45:00 AM -99999.99 -179968 -99999.99 -99999.99 -99999.99 -99999.99
4/10/2021 5:00:00 AM -99999.99 -179968 -99999.99 -99999.99 -99999.99 -99999.99
4/10/2021 5:15:00 AM -99999.99 -179968 -99999.99 -99999.99 -99999.99 -99999.99
4/10/2021 5:30:00 AM -99999.99 -179968 -99999.99 -99999.99 -99999.99 -99999.99
4/10/2021 5:45:00 AM -99999.99 -179968 -99999.99 -99999.99 -99999.99 -99999.99
4/10/2021 6:00:00 AM -99999.99 -179968 -99999.99 -99999.99 -99999.99 -99999.99
4/10/2021 6:15:00 AM -99999.99 -179968 -99999.99 -99999.99 -99999.99 -99999.99
4/10/2021 6:30:00 AM -99999.99 -179968 -99999.99 -99999.99 -99999.99 -99999.99
4/10/2021 6:45:00 AM -99999.99 -179968 -99999.99 -99999.99 -99999.99 -99999.99
4/10/2021 7:00:00 AM -99999.99 -179968 -99999.99 -99999.99 -99999.99 -99999.99
4/10/2021 7:15:00 AM -99999.99 -179968 -99999.99 -99999.99 -99999.99 -99999.99
4/10/2021 7:30:00 AM -99999.99 -179968 -99999.99 -99999.99 -99999.99 -99999.99
4/10/2021 7:45:00 AM -99999.99 -179968 -99999.99 -99999.99 -99999.99 -99999.99
4/10/2021 8:00:00 AM -99999.99 -179968 -99999.99 -99999.99 -99999.99 -99999.99
4/10/2021 8:15:00 AM -99999.99 -179968 -99999.99 -99999.99 -99999.99 -99999.99
4/10/2021 8:30:00 AM -99999.99 -179968 -99999.99 -99999.99 -99999.99 -99999.99
4/10/2021 8:45:00 AM -99999.99 -179968 -99999.99 -99999.99 -99999.99 -99999.99
4/10/2021 9:00:00 AM -99999.99 -179968 -99999.99 -99999.99 -99999.99 -99999.99
4/10/2021 9:15:00 AM -99999.99 -179968 -99999.99 -99999.99 -99999.99 -99999.99
4/10/2021 9:30:00 AM -99999.99 -179968 -99999.99 -99999.99 -99999.99 -99999.99
4/10/2021 9:45:00 AM -99999.99 -179968 -99999.99 -99999.99 -99999.99 -99999.99
4/10/2021 10:00:00 AM -99999.99 -179968 -99999.99 -99999.99 -99999.99 -99999.99
4/10/2021 10:15:00 AM -99999.99 -179968 -99999.99 -99999.99 -99999.99 -99999.99
4/10/2021 10:30:00 AM -99999.99 -179968 -99999.99 -99999.99 -99999.99 -99999.99
4/10/2021 10:45:00 AM -99999.99 -179968 -99999.99 -99999.99 -99999.99 -99999.99
4/10/2021 11:00:00 AM -99999.99 -179968 -99999.99 -99999.99 -99999.99 -99999.99
4/10/2021 11:15:00 AM -99999.99 -179968 -99999.99 -99999.99 -99999.99 -99999.99
4/10/2021 11:30:00 AM -99999.99 -179968 -99999.99 -99999.99 -99999.99 -99999.99
4/10/2021 11:45:00 AM -99999.99 -179968 -99999.99 -99999.99 -99999.99 -99999.99
4/10/2021 12:00:00 PM -99999.99 -179968 -99999.99 -99999.99 -99999.99 -99999.99
4/10/2021 12:15:00 PM -99999.99 -179968 -99999.99 -99999.99 -99999.99 -99999.99
4/10/2021 12:30:00 PM -99999.99 -179968 -99999.99 -99999.99 -99999.99 -99999.99
4/10/2021 12:45:00 PM -99999.99 -179968 -99999.99 -99999.99 -99999.99 -99999.99
4/10/2021 1:00:00 PM -99999.99 -179968 -99999.99 -99999.99 -99999.99 -99999.99
4/10/2021 1:15:00 PM -99999.99 -179968 -99999.99 -99999.99 -99999.99 -99999.99
4/10/2021 1:30:00 PM -99999.99 -179968 -99999.99 -99999.99 -99999.99 -99999.99
4/10/2021 1:45:00 PM -99999.99 -179968 -99999.99 -99999.99 -99999.99 -99999.99
4/10/2021 2:00:00 PM -99999.99 -179968 -99999.99 -99999.99 -99999.99 -99999.99
4/10/2021 2:15:00 PM -99999.99 -179968 -99999.99 -99999.99 -99999.99 -99999.99
4/10/2021 2:30:00 PM -99999.99 -179968 -99999.99 -99999.99 -99999.99 -99999.99
4/10/2021 2:45:00 PM -99999.99 -179968 -99999.99 -99999.99 -99999.99 -99999.99
4/10/2021 3:00:00 PM -99999.99 -179968 -99999.99 -99999.99 -99999.99 -99999.99
4/10/2021 3:15:00 PM -99999.99 -179968 -99999.99 -99999.99 -99999.99 -99999.99
4/10/2021 3:30:00 PM -99999.99 -179968 -99999.99 -99999.99 -99999.99 -99999.99
4/10/2021 3:45:00 PM -99999.99 -179968 -99999.99 -99999.99 -99999.99 -99999.99
4/10/2021 4:00:00 PM -99999.99 -179968 -99999.99 -99999.99 -99999.99 -99999.99
4/10/2021 4:15:00 PM -99999.99 -179968 -99999.99 -99999.99 -99999.99 -99999.99
4/10/2021 4:30:00 PM -99999.99 -179968 -99999.99 -99999.99 -99999.99 -99999.99
4/10/2021 4:45:00 PM -99999.99 -179968 -99999.99 -99999.99 -99999.99 -99999.99
4/10/2021 5:00:00 PM -99999.99 -179968 -99999.99 -99999.99 -99999.99 -99999.99
4/10/2021 5:15:00 PM -99999.99 -179968 -99999.99 -99999.99 -99999.99 -99999.99
4/10/2021 5:30:00 PM -99999.99 -179968 -99999.99 -99999.99 -99999.99 -99999.99
4/10/2021 5:45:00 PM -99999.99 -179968 -99999.99 -99999.99 -99999.99 -99999.99
4/10/2021 6:00:00 PM -99999.99 -179968 -99999.99 -99999.99 -99999.99 -99999.99
4/10/2021 6:15:00 PM -99999.99 -179968 -99999.99 -99999.99 -99999.99 -99999.99
4/10/2021 6:30:00 PM -99999.99 -179968 -99999.99 -99999.99 -99999.99 -99999.99
4/10/2021 6:45:00 PM -99999.99 -179968 -99999.99 -99999.99 -99999.99 -99999.99
4/10/2021 7:00:00 PM -99999.99 -179968 -99999.99 -99999.99 -99999.99 -99999.99
4/10/2021 7:15:00 PM -99999.99 -179968 -99999.99 -99999.99 -99999.99 -99999.99
4/10/2021 7:30:00 PM -99999.99 -179968 -99999.99 -99999.99 -99999.99 -99999.99
4/10/2021 7:45:00 PM -99999.99 -179968 -99999.99 -99999.99 -99999.99 -99999.99
4/10/2021 8:00:00 PM -99999.99 -179968 -99999.99 -99999.99 -99999.99 -99999.99
4/10/2021 8:15:00 PM -99999.99 -179968 -99999.99 -99999.99 -99999.99 -99999.99
4/10/2021 8:30:00 PM -99999.99 -179968 -99999.99 -99999.99 -99999.99 -99999.99
4/10/2021 8:45:00 PM -99999.99 -179968 -99999.99 -99999.99 -99999.99 -99999.99
4/10/2021 9:00:00 PM -99999.99 -179968 -99999.99 -99999.99 -99999.99 -99999.99
4/10/2021 9:15:00 PM -99999.99 -179968 -99999.99 -99999.99 -99999.99 -99999.99
4/10/2021 9:30:00 PM -99999.99 -179968 -99999.99 -99999.99 -99999.99 -99999.99
4/10/2021 9:45:00 PM -99999.99 -179968 -99999.99 -99999.99 -99999.99 -99999.99
4/10/2021 10:00:00 PM -99999.99 -179968 -99999.99 -99999.99 -99999.99 -99999.99
4/10/2021 10:15:00 PM -99999.99 -179968 -99999.99 -99999.99 -99999.99 -99999.99
4/10/2021 10:30:00 PM -99999.99 -179968 -99999.99 -99999.99 -99999.99 -99999.99
4/10/2021 10:45:00 PM -99999.99 -179968 -99999.99 -99999.99 -99999.99 -99999.99
4/10/2021 11:00:00 PM -99999.99 -179968 -99999.99 -99999.99 -99999.99 -99999.99
4/10/2021 11:15:00 PM -99999.99 -179968 -99999.99 -99999.99 -99999.99 -99999.99
4/10/2021 11:30:00 PM -99999.99 -179968 -99999.99 -99999.99 -99999.99 -99999.99
4/10/2021 11:45:00 PM -99999.99 -179968 -99999.99 -99999.99 -99999.99 -99999.99
4/11/2021 12:00:00 AM -99999.99 -179968 -99999.99 -99999.99 -99999.99 -99999.99
4/11/2021 12:15:00 AM -99999.99 -179968 -99999.99 -99999.99 -99999.99 -99999.99
4/11/2021 12:30:00 AM -99999.99 -179968 -99999.99 -99999.99 -99999.99 -99999.99
4/11/2021 12:45:00 AM -99999.99 -179968 -99999.99 -99999.99 -99999.99 -99999.99
4/11/2021 1:00:00 AM -99999.99 -179968 -99999.99 -99999.99 -99999.99 -99999.99
4/11/2021 1:15:00 AM -99999.99 -179968 -99999.99 -99999.99 -99999.99 -99999.99
4/11/2021 1:30:00 AM -99999.99 -179968 -99999.99 -99999.99 -99999.99 -99999.99
4/11/2021 1:45:00 AM -99999.99 -179968 -99999.99 -99999.99 -99999.99 -99999.99
4/11/2021 2:00:00 AM -99999.99 -179968 -99999.99 -99999.99 -99999.99 -99999.99
4/11/2021 2:15:00 AM -99999.99 -179968 -99999.99 -99999.99 -99999.99 -99999.99
4/11/2021 2:30:00 AM -99999.99 -179968 -99999.99 -99999.99 -99999.99 -99999.99
4/11/2021 2:45:00 AM -99999.99 -179968 -99999.99 -99999.99 -99999.99 -99999.99
4/11/2021 3:00:00 AM -99999.99 -179968 -99999.99 -99999.99 -99999.99 -99999.99
4/11/2021 3:15:00 AM -99999.99 -179968 -99999.99 -99999.99 -99999.99 -99999.99
4/11/2021 3:30:00 AM -99999.99 -179968 -99999.99 -99999.99 -99999.99 -99999.99
4/11/2021 3:45:00 AM -99999.99 -179968 -99999.99 -99999.99 -99999.99 -99999.99
4/11/2021 4:00:00 AM -99999.99 -179968 -99999.99 -99999.99 -99999.99 -99999.99
4/11/2021 4:15:00 AM -99999.99 -179968 -99999.99 -99999.99 -99999.99 -99999.99
4/11/2021 4:30:00 AM -99999.99 -179968 -99999.99 -99999.99 -99999.99 -99999.99
4/11/2021 4:45:00 AM -99999.99 -179968 -99999.99 -99999.99 -99999.99 -99999.99
4/11/2021 5:00:00 AM -99999.99 -179968 -99999.99 -99999.99 -99999.99 -99999.99
4/11/2021 5:15:00 AM -99999.99 -179968 -99999.99 -99999.99 -99999.99 -99999.99
4/11/2021 5:30:00 AM -99999.99 -179968 -99999.99 -99999.99 -99999.99 -99999.99
4/11/2021 5:45:00 AM -99999.99 -179968 -99999.99 -99999.99 -99999.99 -99999.99
4/11/2021 6:00:00 AM -99999.99 -179968 -99999.99 -99999.99 -99999.99 -99999.99
4/11/2021 6:15:00 AM -99999.99 -179968 -99999.99 -99999.99 -99999.99 -99999.99
4/11/2021 6:30:00 AM -99999.99 -179968 -99999.99 -99999.99 -99999.99 -99999.99
4/11/2021 6:45:00 AM -99999.99 -179968 -99999.99 -99999.99 -99999.99 -99999.99
4/11/2021 7:00:00 AM -99999.99 -179968 -99999.99 -99999.99 -99999.99 -99999.99
4/11/2021 7:15:00 AM -99999.99 -179968 -99999.99 -99999.99 -99999.99 -99999.99
4/11/2021 7:30:00 AM -99999.99 -179968 -99999.99 -99999.99 -99999.99 -99999.99
4/11/2021 7:45:00 AM -99999.99 -179968 -99999.99 -99999.99 -99999.99 -99999.99
4/11/2021 8:00:00 AM -99999.99 -179968 -99999.99 -99999.99 -99999.99 -99999.99
4/11/2021 8:15:00 AM -99999.99 -179968 -99999.99 -99999.99 -99999.99 -99999.99
4/11/2021 8:30:00 AM -99999.99 -179968 -99999.99 -99999.99 -99999.99 -99999.99
4/11/2021 8:45:00 AM -99999.99 -179968 -99999.99 -99999.99 -99999.99 -99999.99
4/11/2021 9:00:00 AM -99999.99 -179968 -99999.99 -99999.99 -99999.99 -99999.99
4/11/2021 9:15:00 AM -99999.99 -179968 -99999.99 -99999.99 -99999.99 -99999.99
4/11/2021 9:30:00 AM -99999.99 -179968 -99999.99 -99999.99 -99999.99 -99999.99
4/11/2021 9:45:00 AM -99999.99 -179968 -99999.99 -99999.99 -99999.99 -99999.99
4/11/2021 10:00:00 AM -99999.99 -179968 -99999.99 -99999.99 -99999.99 -99999.99
4/11/2021 10:15:00 AM -99999.99 -179968 -99999.99 -99999.99 -99999.99 -99999.99
4/11/2021 10:30:00 AM -99999.99 -179968 -99999.99 -99999.99 -99999.99 -99999.99
4/11/2021 10:45:00 AM -99999.99 -179968 -99999.99 -99999.99 -99999.99 -99999.99
4/11/2021 11:00:00 AM -99999.99 -179968 -99999.99 -99999.99 -99999.99 -99999.99
4/11/2021 11:15:00 AM -99999.99 -179968 -99999.99 -99999.99 -99999.99 -99999.99
4/11/2021 11:30:00 AM -99999.99 -179968 -99999.99 -99999.99 -99999.99 -99999.99
4/11/2021 11:45:00 AM -99999.99 -179968 -99999.99 -99999.99 -99999.99 -99999.99
4/11/2021 12:00:00 PM -99999.99 -179968 -99999.99 -99999.99 -99999.99 -99999.99
4/11/2021 12:15:00 PM -99999.99 -179968 -99999.99 -99999.99 -99999.99 -99999.99
4/11/2021 12:30:00 PM -99999.99 -179968 -99999.99 -99999.99 -99999.99 -99999.99
4/11/2021 12:45:00 PM -99999.99 -179968 -99999.99 -99999.99 -99999.99 -99999.99
4/11/2021 1:00:00 PM -99999.99 -179968 -99999.99 -99999.99 -99999.99 -99999.99
4/11/2021 1:15:00 PM -99999.99 -179968 -99999.99 -99999.99 -99999.99 -99999.99
4/11/2021 1:30:00 PM -99999.99 -179968 -99999.99 -99999.99 -99999.99 -99999.99
4/11/2021 1:45:00 PM -99999.99 -179968 -99999.99 -99999.99 -99999.99 -99999.99
4/11/2021 2:00:00 PM -99999.99 -179968 -99999.99 -99999.99 -99999.99 -99999.99
4/11/2021 2:15:00 PM -99999.99 -179968 -99999.99 -99999.99 -99999.99 -99999.99
4/11/2021 2:30:00 PM -99999.99 -179968 -99999.99 -99999.99 -99999.99 -99999.99
4/11/2021 2:45:00 PM -99999.99 -179968 -99999.99 -99999.99 -99999.99 -99999.99
4/11/2021 3:00:00 PM -99999.99 -179968 -99999.99 -99999.99 -99999.99 -99999.99
4/11/2021 3:15:00 PM -99999.99 -179968 -99999.99 -99999.99 -99999.99 -99999.99
4/11/2021 3:30:00 PM -99999.99 -179968 -99999.99 -99999.99 -99999.99 -99999.99
4/11/2021 3:45:00 PM -99999.99 -179968 -99999.99 -99999.99 -99999.99 -99999.99
4/11/2021 4:00:00 PM -99999.99 -179968 -99999.99 -99999.99 -99999.99 -99999.99
4/11/2021 4:15:00 PM -99999.99 -179968 -99999.99 -99999.99 -99999.99 -99999.99
4/11/2021 4:30:00 PM -99999.99 -179968 -99999.99 -99999.99 -99999.99 -99999.99
4/11/2021 4:45:00 PM -99999.99 -179968 -99999.99 -99999.99 -99999.99 -99999.99
4/11/2021 5:00:00 PM -99999.99 -179968 -99999.99 -99999.99 -99999.99 -99999.99
4/11/2021 5:15:00 PM -99999.99 -179968 -99999.99 -99999.99 -99999.99 -99999.99
4/11/2021 5:30:00 PM -99999.99 -179968 -99999.99 -99999.99 -99999.99 -99999.99
4/11/2021 5:45:00 PM -99999.99 -179968 -99999.99 -99999.99 -99999.99 -99999.99
4/11/2021 6:00:00 PM -99999.99 -179968 -99999.99 -99999.99 -99999.99 -99999.99
4/11/2021 6:15:00 PM -99999.99 -179968 -99999.99 -99999.99 -99999.99 -99999.99
4/11/2021 6:30:00 PM -99999.99 -179968 -99999.99 -99999.99 -99999.99 -99999.99
4/11/2021 6:45:00 PM -99999.99 -179968 -99999.99 -99999.99 -99999.99 -99999.99
4/11/2021 7:00:00 PM -99999.99 -179968 -99999.99 -99999.99 -99999.99 -99999.99
4/11/2021 7:15:00 PM -99999.99 -179968 -99999.99 -99999.99 -99999.99 -99999.99
4/11/2021 7:30:00 PM -99999.99 -179968 -99999.99 -99999.99 -99999.99 -99999.99
4/11/2021 7:45:00 PM -99999.99 -179968 -99999.99 -99999.99 -99999.99 -99999.99
4/11/2021 8:00:00 PM -99999.99 -179968 -99999.99 -99999.99 -99999.99 -99999.99
4/11/2021 8:15:00 PM -99999.99 -179968 -99999.99 -99999.99 -99999.99 -99999.99
4/11/2021 8:30:00 PM -99999.99 -179968 -99999.99 -99999.99 -99999.99 -99999.99
4/11/2021 8:45:00 PM -99999.99 -179968 -99999.99 -99999.99 -99999.99 -99999.99
4/11/2021 9:00:00 PM -99999.99 -179968 -99999.99 -99999.99 -99999.99 -99999.99
4/11/2021 9:15:00 PM -99999.99 -179968 -99999.99 -99999.99 -99999.99 -99999.99
4/11/2021 9:30:00 PM -99999.99 -179968 -99999.99 -99999.99 -99999.99 -99999.99
4/11/2021 9:45:00 PM -99999.99 -179968 -99999.99 -99999.99 -99999.99 -99999.99
4/11/2021 10:00:00 PM -99999.99 -179968 -99999.99 -99999.99 -99999.99 -99999.99
4/11/2021 10:15:00 PM -99999.99 -179968 -99999.99 -99999.99 -99999.99 -99999.99
4/11/2021 10:30:00 PM -99999.99 -179968 -99999.99 -99999.99 -99999.99 -99999.99
4/11/2021 10:45:00 PM -99999.99 -179968 -99999.99 -99999.99 -99999.99 -99999.99
4/11/2021 11:00:00 PM -99999.99 -179968 -99999.99 -99999.99 -99999.99 -99999.99
4/11/2021 11:15:00 PM -99999.99 -179968 -99999.99 -99999.99 -99999.99 -99999.99
4/11/2021 11:30:00 PM -99999.99 -179968 -99999.99 -99999.99 -99999.99 -99999.99
4/11/2021 11:45:00 PM -99999.99 -179968 -99999.99 -99999.99 -99999.99 -99999.99
4/12/2021 12:00:00 AM -99999.99 -179968 -99999.99 -99999.99 -99999.99 -99999.99
4/12/2021 12:15:00 AM -99999.99 -179968 -99999.99 -99999.99 -99999.99 -99999.99
4/12/2021 12:30:00 AM -99999.99 -179968 -99999.99 -99999.99 -99999.99 -99999.99
4/12/2021 12:45:00 AM -99999.99 -179968 -99999.99 -99999.99 -99999.99 -99999.99
4/12/2021 1:00:00 AM -99999.99 -179968 -99999.99 -99999.99 -99999.99 -99999.99
4/12/2021 1:15:00 AM -99999.99 -179968 -99999.99 -99999.99 -99999.99 -99999.99
4/12/2021 1:30:00 AM -99999.99 -179968 -99999.99 -99999.99 -99999.99 -99999.99
4/12/2021 1:45:00 AM -99999.99 -179968 -99999.99 -99999.99 -99999.99 -99999.99
4/12/2021 2:00:00 AM -99999.99 -179968 -99999.99 -99999.99 -99999.99 -99999.99
4/12/2021 2:15:00 AM -99999.99 -179968 -99999.99 -99999.99 -99999.99 -99999.99
4/12/2021 2:30:00 AM -99999.99 -179968 -99999.99 -99999.99 -99999.99 -99999.99
4/12/2021 2:45:00 AM -99999.99 -179968 -99999.99 -99999.99 -99999.99 -99999.99
4/12/2021 3:00:00 AM -99999.99 -179968 -99999.99 -99999.99 -99999.99 -99999.99
4/12/2021 3:15:00 AM -99999.99 -179968 -99999.99 -99999.99 -99999.99 -99999.99
4/12/2021 3:30:00 AM -99999.99 -179968 -99999.99 -99999.99 -99999.99 -99999.99
4/12/2021 3:45:00 AM -99999.99 -179968 -99999.99 -99999.99 -99999.99 -99999.99
4/12/2021 4:00:00 AM -99999.99 -179968 -99999.99 -99999.99 -99999.99 -99999.99
4/12/2021 4:15:00 AM -99999.99 -179968 -99999.99 -99999.99 -99999.99 -99999.99
4/12/2021 4:30:00 AM -99999.99 -179968 -99999.99 -99999.99 -99999.99 -99999.99
4/12/2021 4:45:00 AM -99999.99 -179968 -99999.99 -99999.99 -99999.99 -99999.99
4/12/2021 5:00:00 AM -99999.99 -179968 -99999.99 -99999.99 -99999.99 -99999.99
4/12/2021 5:15:00 AM -99999.99 -179968 -99999.99 -99999.99 -99999.99 -99999.99
4/12/2021 5:30:00 AM -99999.99 -179968 -99999.99 -99999.99 -99999.99 -99999.99
4/12/2021 5:45:00 AM -99999.99 -179968 -99999.99 -99999.99 -99999.99 -99999.99
4/12/2021 6:00:00 AM -99999.99 -179968 -99999.99 -99999.99 -99999.99 -99999.99
4/12/2021 6:15:00 AM -99999.99 -179968 -99999.99 -99999.99 -99999.99 -99999.99
4/12/2021 6:30:00 AM -99999.99 -179968 -99999.99 -99999.99 -99999.99 -99999.99
4/12/2021 6:45:00 AM -99999.99 -179968 -99999.99 -99999.99 -99999.99 -99999.99
4/12/2021 7:00:00 AM -99999.99 -179968 -99999.99 -99999.99 -99999.99 -99999.99
4/12/2021 7:15:00 AM -99999.99 -179968 -99999.99 -99999.99 -99999.99 -99999.99
4/12/2021 7:30:00 AM -99999.99 -179968 -99999.99 -99999.99 -99999.99 -99999.99
4/12/2021 7:45:00 AM -99999.99 -179968 -99999.99 -99999.99 -99999.99 -99999.99
4/12/2021 8:00:00 AM -99999.99 -179968 -99999.99 -99999.99 -99999.99 -99999.99
4/12/2021 8:15:00 AM -99999.99 -179968 -99999.99 -99999.99 -99999.99 -99999.99
4/12/2021 8:30:00 AM -99999.99 -179968 -99999.99 -99999.99 -99999.99 -99999.99
4/12/2021 8:45:00 AM -99999.99 -179968 -99999.99 -99999.99 -99999.99 -99999.99
4/12/2021 9:00:00 AM -99999.99 -179968 -99999.99 -99999.99 -99999.99 -99999.99
4/12/2021 9:15:00 AM -99999.99 -179968 -99999.99 -99999.99 -99999.99 -99999.99
4/12/2021 9:30:00 AM -99999.99 -179968 -99999.99 -99999.99 -99999.99 -99999.99
4/12/2021 9:45:00 AM -99999.99 -179968 -99999.99 -99999.99 -99999.99 -99999.99
4/12/2021 10:00:00 AM -99999.99 -179968 -99999.99 -99999.99 -99999.99 -99999.99
4/12/2021 10:15:00 AM -99999.99 -179968 -99999.99 -99999.99 -99999.99 -99999.99
4/12/2021 10:30:00 AM -99999.99 -179968 -99999.99 -99999.99 -99999.99 -99999.99
4/12/2021 10:45:00 AM -99999.99 -179968 -99999.99 -99999.99 -99999.99 -99999.99
4/12/2021 11:00:00 AM -99999.99 -179968 -99999.99 -99999.99 -99999.99 -99999.99
4/12/2021 11:15:00 AM -99999.99 -179968 -99999.99 -99999.99 -99999.99 -99999.99
4/12/2021 11:30:00 AM -99999.99 -179968 -99999.99 -99999.99 -99999.99 -99999.99
4/12/2021 11:45:00 AM -99999.99 -179968 -99999.99 -99999.99 -99999.99 -99999.99
4/12/2021 12:00:00 PM -99999.99 -179968 -99999.99 -99999.99 -99999.99 -99999.99
4/12/2021 12:15:00 PM -99999.99 -179968 -99999.99 -99999.99 -99999.99 -99999.99
4/12/2021 12:30:00 PM -99999.99 -179968 -99999.99 -99999.99 -99999.99 -99999.99
4/12/2021 12:45:00 PM -99999.99 -179968 -99999.99 -99999.99 -99999.99 -99999.99
4/12/2021 1:00:00 PM -99999.99 -179968 -99999.99 -99999.99 -99999.99 -99999.99
4/12/2021 1:15:00 PM -99999.99 -179968 -99999.99 -99999.99 -99999.99 -99999.99
4/12/2021 1:30:00 PM -99999.99 -179968 -99999.99 -99999.99 -99999.99 -99999.99
4/12/2021 1:45:00 PM -99999.99 -179968 -99999.99 -99999.99 -99999.99 -99999.99
4/12/2021 2:00:00 PM -99999.99 -179968 -99999.99 -99999.99 -99999.99 -99999.99
4/12/2021 2:15:00 PM -99999.99 -179968 -99999.99 -99999.99 -99999.99 -99999.99
4/12/2021 2:30:00 PM -99999.99 -179968 -99999.99 -99999.99 -99999.99 -99999.99
4/12/2021 2:45:00 PM -99999.99 -179968 -99999.99 -99999.99 -99999.99 -99999.99
4/12/2021 3:00:00 PM -99999.99 -179968 -99999.99 -99999.99 -99999.99 -99999.99
4/12/2021 3:15:00 PM -99999.99 -179968 -99999.99 -99999.99 -99999.99 -99999.99
4/12/2021 3:30:00 PM -99999.99 -179968 -99999.99 -99999.99 -99999.99 -99999.99
4/12/2021 3:45:00 PM -99999.99 -179968 -99999.99 -99999.99 -99999.99 -99999.99
4/12/2021 4:00:00 PM -99999.99 -179968 -99999.99 -99999.99 -99999.99 -99999.99
4/12/2021 4:15:00 PM -99999.99 -179968 -99999.99 -99999.99 -99999.99 -99999.99
4/12/2021 4:30:00 PM -99999.99 -179968 -99999.99 -99999.99 -99999.99 -99999.99
4/12/2021 4:45:00 PM -99999.99 -179968 -99999.99 -99999.99 -99999.99 -99999.99
4/12/2021 5:00:00 PM -99999.99 -179968 -99999.99 -99999.99 -99999.99 -99999.99
4/12/2021 5:15:00 PM -99999.99 -179968 -99999.99 -99999.99 -99999.99 -99999.99
4/12/2021 5:30:00 PM -99999.99 -179968 -99999.99 -99999.99 -99999.99 -99999.99
4/12/2021 5:45:00 PM -99999.99 -179968 -99999.99 -99999.99 -99999.99 -99999.99
4/12/2021 6:00:00 PM -99999.99 -179968 -99999.99 -99999.99 -99999.99 -99999.99
4/12/2021 6:15:00 PM -99999.99 -179968 -99999.99 -99999.99 -99999.99 -99999.99
4/12/2021 6:30:00 PM -99999.99 -179968 -99999.99 -99999.99 -99999.99 -99999.99
4/12/2021 6:45:00 PM -99999.99 -179968 -99999.99 -99999.99 -99999.99 -99999.99
4/12/2021 7:00:00 PM -99999.99 -179968 -99999.99 -99999.99 -99999.99 -99999.99
4/12/2021 7:15:00 PM -99999.99 -179968 -99999.99 -99999.99 -99999.99 -99999.99
4/12/2021 7:30:00 PM -99999.99 -179968 -99999.99 -99999.99 -99999.99 -99999.99
4/12/2021 7:45:00 PM -99999.99 -179968 -99999.99 -99999.99 -99999.99 -99999.99
4/12/2021 8:00:00 PM -99999.99 -179968 -99999.99 -99999.99 -99999.99 -99999.99
4/12/2021 8:15:00 PM -99999.99 -179968 -99999.99 -99999.99 -99999.99 -99999.99
4/12/2021 8:30:00 PM -99999.99 -179968 -99999.99 -99999.99 -99999.99 -99999.99
4/12/2021 8:45:00 PM -99999.99 -179968 -99999.99 -99999.99 -99999.99 -99999.99
4/12/2021 9:00:00 PM -99999.99 -179968 -99999.99 -99999.99 -99999.99 -99999.99
4/12/2021 9:15:00 PM -99999.99 -179968 -99999.99 -99999.99 -99999.99 -99999.99
4/12/2021 9:30:00 PM -99999.99 -179968 -99999.99 -99999.99 -99999.99 -99999.99
4/12/2021 9:45:00 PM -99999.99 -179968 -99999.99 -99999.99 -99999.99 -99999.99
4/12/2021 10:00:00 PM -99999.99 -179968 -99999.99 -99999.99 -99999.99 -99999.99
4/12/2021 10:15:00 PM -99999.99 -179968 -99999.99 -99999.99 -99999.99 -99999.99
4/12/2021 10:30:00 PM -99999.99 -179968 -99999.99 -99999.99 -99999.99 -99999.99
4/12/2021 10:45:00 PM -99999.99 -179968 -99999.99 -99999.99 -99999.99 -99999.99
4/12/2021 11:00:00 PM -99999.99 -179968 -99999.99 -99999.99 -99999.99 -99999.99
4/12/2021 11:15:00 PM -99999.99 -179968 -99999.99 -99999.99 -99999.99 -99999.99
4/12/2021 11:30:00 PM -99999.99 -179968 -99999.99 -99999.99 -99999.99 -99999.99
4/12/2021 11:45:00 PM -99999.99 -179968 -99999.99 -99999.99 -99999.99 -99999.99
4/13/2021 12:00:00 AM -99999.99 -179968 -99999.99 -99999.99 -99999.99 -99999.99
4/13/2021 12:15:00 AM -99999.99 -179968 -99999.99 -99999.99 -99999.99 -99999.99
4/13/2021 12:30:00 AM -99999.99 -179968 -99999.99 -99999.99 -99999.99 -99999.99
4/13/2021 12:45:00 AM -99999.99 -179968 -99999.99 -99999.99 -99999.99 -99999.99
4/13/2021 1:00:00 AM -99999.99 -179968 -99999.99 -99999.99 -99999.99 -99999.99
4/13/2021 1:15:00 AM -99999.99 -179968 -99999.99 -99999.99 -99999.99 -99999.99
4/13/2021 1:30:00 AM -99999.99 -179968 -99999.99 -99999.99 -99999.99 -99999.99
4/13/2021 1:45:00 AM -99999.99 -179968 -99999.99 -99999.99 -99999.99 -99999.99
4/13/2021 2:00:00 AM -99999.99 -179968 -99999.99 -99999.99 -99999.99 -99999.99
4/13/2021 2:15:00 AM -99999.99 -179968 -99999.99 -99999.99 -99999.99 -99999.99
4/13/2021 2:30:00 AM -99999.99 -179968 -99999.99 -99999.99 -99999.99 -99999.99
4/13/2021 2:45:00 AM -99999.99 -179968 -99999.99 -99999.99 -99999.99 -99999.99
4/13/2021 3:00:00 AM -99999.99 -179968 -99999.99 -99999.99 -99999.99 -99999.99
4/13/2021 3:15:00 AM -99999.99 -179968 -99999.99 -99999.99 -99999.99 -99999.99
4/13/2021 3:30:00 AM -99999.99 -179968 -99999.99 -99999.99 -99999.99 -99999.99
4/13/2021 3:45:00 AM -99999.99 -179968 -99999.99 -99999.99 -99999.99 -99999.99
4/13/2021 4:00:00 AM -99999.99 -179968 -99999.99 -99999.99 -99999.99 -99999.99
4/13/2021 4:15:00 AM -99999.99 -179968 -99999.99 -99999.99 -99999.99 -99999.99
4/13/2021 4:30:00 AM -99999.99 -179968 -99999.99 -99999.99 -99999.99 -99999.99
4/13/2021 4:45:00 AM -99999.99 -179968 -99999.99 -99999.99 -99999.99 -99999.99
4/13/2021 5:00:00 AM -99999.99 -179968 -99999.99 -99999.99 -99999.99 -99999.99
4/13/2021 5:15:00 AM -99999.99 -179968 -99999.99 -99999.99 -99999.99 -99999.99
4/13/2021 5:30:00 AM -99999.99 -179968 -99999.99 -99999.99 -99999.99 -99999.99
4/13/2021 5:45:00 AM -99999.99 -179968 -99999.99 -99999.99 -99999.99 -99999.99
4/13/2021 6:00:00 AM -99999.99 -179968 -99999.99 -99999.99 -99999.99 -99999.99
4/13/2021 6:15:00 AM -99999.99 -179968 -99999.99 -99999.99 -99999.99 -99999.99
4/13/2021 6:30:00 AM -99999.99 -179968 -99999.99 -99999.99 -99999.99 -99999.99
4/13/2021 6:45:00 AM -99999.99 -179968 -99999.99 -99999.99 -99999.99 -99999.99
4/13/2021 7:00:00 AM -99999.99 -179968 -99999.99 -99999.99 -99999.99 -99999.99
4/13/2021 7:15:00 AM -99999.99 -179968 -99999.99 -99999.99 -99999.99 -99999.99
4/13/2021 7:30:00 AM -99999.99 -179968 -99999.99 -99999.99 -99999.99 -99999.99
4/13/2021 7:45:00 AM -99999.99 -179968 -99999.99 -99999.99 -99999.99 -99999.99
4/13/2021 8:00:00 AM -99999.99 -179968 -99999.99 -99999.99 -99999.99 -99999.99
4/13/2021 8:15:00 AM -99999.99 -179968 -99999.99 -99999.99 -99999.99 -99999.99
4/13/2021 8:30:00 AM -99999.99 -179968 -99999.99 -99999.99 -99999.99 -99999.99
4/13/2021 8:45:00 AM -99999.99 -179968 -99999.99 -99999.99 -99999.99 -99999.99
4/13/2021 9:00:00 AM -99999.99 -179968 -99999.99 -99999.99 -99999.99 -99999.99
4/13/2021 9:15:00 AM -99999.99 -179968 -99999.99 -99999.99 -99999.99 -99999.99
4/13/2021 9:30:00 AM -99999.99 -179968 -99999.99 -99999.99 -99999.99 -99999.99
4/13/2021 9:45:00 AM -99999.99 -179968 -99999.99 -99999.99 -99999.99 -99999.99
4/13/2021 10:00:00 AM -99999.99 -179968 -99999.99 -99999.99 -99999.99 -99999.99
4/13/2021 10:15:00 AM -99999.99 -179968 -99999.99 -99999.99 -99999.99 -99999.99
4/13/2021 10:30:00 AM -99999.99 -179968 -99999.99 -99999.99 -99999.99 -99999.99
4/13/2021 10:45:00 AM -99999.99 -179968 -99999.99 -99999.99 -99999.99 -99999.99
4/13/2021 11:00:00 AM -99999.99 -179968 -99999.99 -99999.99 -99999.99 -99999.99
4/13/2021 11:15:00 AM -99999.99 -179968 -99999.99 -99999.99 -99999.99 -99999.99
4/13/2021 11:30:00 AM -99999.99 -179968 -99999.99 -99999.99 -99999.99 -99999.99
4/13/2021 11:45:00 AM -99999.99 -179968 -99999.99 -99999.99 -99999.99 -99999.99
4/13/2021 12:00:00 PM -99999.99 -179968 -99999.99 -99999.99 -99999.99 -99999.99
4/13/2021 12:15:00 PM -99999.99 -179968 -99999.99 -99999.99 -99999.99 -99999.99
4/13/2021 12:30:00 PM -99999.99 -179968 -99999.99 -99999.99 -99999.99 -99999.99
4/13/2021 12:45:00 PM -99999.99 -179968 -99999.99 -99999.99 -99999.99 -99999.99
4/13/2021 1:00:00 PM -99999.99 -179968 -99999.99 -99999.99 -99999.99 -99999.99
4/13/2021 1:15:00 PM -99999.99 -179968 -99999.99 -99999.99 -99999.99 -99999.99
4/13/2021 1:30:00 PM -99999.99 -179968 -99999.99 -99999.99 -99999.99 -99999.99
4/13/2021 1:45:00 PM -99999.99 -179968 -99999.99 -99999.99 -99999.99 -99999.99
4/13/2021 2:00:00 PM -99999.99 -179968 -99999.99 -99999.99 -99999.99 -99999.99
4/13/2021 2:15:00 PM -99999.99 -179968 -99999.99 -99999.99 -99999.99 -99999.99
4/13/2021 2:30:00 PM -99999.99 -179968 -99999.99 -99999.99 -99999.99 -99999.99
4/13/2021 2:45:00 PM -99999.99 -179968 -99999.99 -99999.99 -99999.99 -99999.99
4/13/2021 3:00:00 PM -99999.99 -179968 -99999.99 -99999.99 -99999.99 -99999.99
4/13/2021 3:15:00 PM -99999.99 -179968 -99999.99 -99999.99 -99999.99 -99999.99
4/13/2021 3:30:00 PM -99999.99 -179968 -99999.99 -99999.99 -99999.99 -99999.99
4/13/2021 3:45:00 PM -99999.99 -179968 -99999.99 -99999.99 -99999.99 -99999.99
4/13/2021 4:00:00 PM -99999.99 -179968 -99999.99 -99999.99 -99999.99 -99999.99
4/13/2021 4:15:00 PM -99999.99 -179968 -99999.99 -99999.99 -99999.99 -99999.99
4/13/2021 4:30:00 PM -99999.99 -179968 -99999.99 -99999.99 -99999.99 -99999.99
4/13/2021 4:45:00 PM -99999.99 -179968 -99999.99 -99999.99 -99999.99 -99999.99
4/13/2021 5:00:00 PM -99999.99 -179968 -99999.99 -99999.99 -99999.99 -99999.99
4/13/2021 5:15:00 PM -99999.99 -179968 -99999.99 -99999.99 -99999.99 -99999.99
4/13/2021 5:30:00 PM -99999.99 -179968 -99999.99 -99999.99 -99999.99 -99999.99
4/13/2021 5:45:00 PM -99999.99 -179968 -99999.99 -99999.99 -99999.99 -99999.99
4/13/2021 6:00:00 PM -99999.99 -179968 -99999.99 -99999.99 -99999.99 -99999.99
4/13/2021 6:15:00 PM -99999.99 -179968 -99999.99 -99999.99 -99999.99 -99999.99
4/13/2021 6:30:00 PM -99999.99 -179968 -99999.99 -99999.99 -99999.99 -99999.99
4/13/2021 6:45:00 PM -99999.99 -179968 -99999.99 -99999.99 -99999.99 -99999.99
4/13/2021 7:00:00 PM -99999.99 -179968 -99999.99 -99999.99 -99999.99 -99999.99
4/13/2021 7:15:00 PM -99999.99 -179968 -99999.99 -99999.99 -99999.99 -99999.99
4/13/2021 7:30:00 PM -99999.99 -179968 -99999.99 -99999.99 -99999.99 -99999.99
4/13/2021 7:45:00 PM -99999.99 -179968 -99999.99 -99999.99 -99999.99 -99999.99
4/13/2021 8:00:00 PM -99999.99 -179968 -99999.99 -99999.99 -99999.99 -99999.99
4/13/2021 8:15:00 PM -99999.99 -179968 -99999.99 -99999.99 -99999.99 -99999.99
4/13/2021 8:30:00 PM -99999.99 -179968 -99999.99 -99999.99 -99999.99 -99999.99
4/13/2021 8:45:00 PM -99999.99 -179968 -99999.99 -99999.99 -99999.99 -99999.99
4/13/2021 9:00:00 PM -99999.99 -179968 -99999.99 -99999.99 -99999.99 -99999.99
4/13/2021 9:15:00 PM -99999.99 -179968 -99999.99 -99999.99 -99999.99 -99999.99
4/13/2021 9:30:00 PM -99999.99 -179968 -99999.99 -99999.99 -99999.99 -99999.99
4/13/2021 9:45:00 PM -99999.99 -179968 -99999.99 -99999.99 -99999.99 -99999.99
4/13/2021 10:00:00 PM -99999.99 -179968 -99999.99 -99999.99 -99999.99 -99999.99
4/13/2021 10:15:00 PM -99999.99 -179968 -99999.99 -99999.99 -99999.99 -99999.99
4/13/2021 10:30:00 PM -99999.99 -179968 -99999.99 -99999.99 -99999.99 -99999.99
4/13/2021 10:45:00 PM -99999.99 -179968 -99999.99 -99999.99 -99999.99 -99999.99
4/13/2021 11:00:00 PM -99999.99 -179968 -99999.99 -99999.99 -99999.99 -99999.99
4/13/2021 11:15:00 PM -99999.99 -179968 -99999.99 -99999.99 -99999.99 -99999.99
4/13/2021 11:30:00 PM -99999.99 -179968 -99999.99 -99999.99 -99999.99 -99999.99
4/13/2021 11:45:00 PM -99999.99 -179968 -99999.99 -99999.99 -99999.99 -99999.99
4/14/2021 12:00:00 AM -99999.99 -179968 -99999.99 -99999.99 -99999.99 -99999.99
4/14/2021 12:15:00 AM -99999.99 -179968 -99999.99 -99999.99 -99999.99 -99999.99
4/14/2021 12:30:00 AM -99999.99 -179968 -99999.99 -99999.99 -99999.99 -99999.99
4/14/2021 12:45:00 AM -99999.99 -179968 -99999.99 -99999.99 -99999.99 -99999.99
4/14/2021 1:00:00 AM -99999.99 -179968 -99999.99 -99999.99 -99999.99 -99999.99
4/14/2021 1:15:00 AM -99999.99 -179968 -99999.99 -99999.99 -99999.99 -99999.99
4/14/2021 1:30:00 AM -99999.99 -179968 -99999.99 -99999.99 -99999.99 -99999.99
4/14/2021 1:45:00 AM -99999.99 -179968 -99999.99 -99999.99 -99999.99 -99999.99
4/14/2021 2:00:00 AM -99999.99 -179968 -99999.99 -99999.99 -99999.99 -99999.99
4/14/2021 2:15:00 AM -99999.99 -179968 -99999.99 -99999.99 -99999.99 -99999.99
4/14/2021 2:30:00 AM -99999.99 -179968 -99999.99 -99999.99 -99999.99 -99999.99
4/14/2021 2:45:00 AM -99999.99 -179968 -99999.99 -99999.99 -99999.99 -99999.99
4/14/2021 3:00:00 AM -99999.99 -179968 -99999.99 -99999.99 -99999.99 -99999.99
4/14/2021 3:15:00 AM -99999.99 -179968 -99999.99 -99999.99 -99999.99 -99999.99
4/14/2021 3:30:00 AM -99999.99 -179968 -99999.99 -99999.99 -99999.99 -99999.99
4/14/2021 3:45:00 AM -99999.99 -179968 -99999.99 -99999.99 -99999.99 -99999.99
4/14/2021 4:00:00 AM -99999.99 -179968 -99999.99 -99999.99 -99999.99 -99999.99
4/14/2021 4:15:00 AM -99999.99 -179968 -99999.99 -99999.99 -99999.99 -99999.99
4/14/2021 4:30:00 AM -99999.99 -179968 -99999.99 -99999.99 -99999.99 -99999.99
4/14/2021 4:45:00 AM -99999.99 -179968 -99999.99 -99999.99 -99999.99 -99999.99
4/14/2021 5:00:00 AM -99999.99 -179968 -99999.99 -99999.99 -99999.99 -99999.99
4/14/2021 5:15:00 AM -99999.99 -179968 -99999.99 -99999.99 -99999.99 -99999.99
4/14/2021 5:30:00 AM -99999.99 -179968 -99999.99 -99999.99 -99999.99 -99999.99
4/14/2021 5:45:00 AM -99999.99 -179968 -99999.99 -99999.99 -99999.99 -99999.99
4/14/2021 6:00:00 AM -99999.99 -179968 -99999.99 -99999.99 -99999.99 -99999.99
4/14/2021 6:15:00 AM -99999.99 -179968 -99999.99 -99999.99 -99999.99 -99999.99
4/14/2021 6:30:00 AM -99999.99 -179968 -99999.99 -99999.99 -99999.99 -99999.99
4/14/2021 6:45:00 AM -99999.99 -179968 -99999.99 -99999.99 -99999.99 -99999.99
4/14/2021 7:00:00 AM -99999.99 -179968 -99999.99 -99999.99 -99999.99 -99999.99
4/14/2021 7:15:00 AM -99999.99 -179968 -99999.99 -99999.99 -99999.99 -99999.99
4/14/2021 7:30:00 AM -99999.99 -179968 -99999.99 -99999.99 -99999.99 -99999.99
4/14/2021 7:45:00 AM -99999.99 -179968 -99999.99 -99999.99 -99999.99 -99999.99
4/14/2021 8:00:00 AM -99999.99 -179968 -99999.99 -99999.99 -99999.99 -99999.99
4/14/2021 8:15:00 AM -99999.99 -179968 -99999.99 -99999.99 -99999.99 -99999.99
4/14/2021 8:30:00 AM -99999.99 -179968 -99999.99 -99999.99 -99999.99 -99999.99
4/14/2021 8:45:00 AM -99999.99 -179968 -99999.99 -99999.99 -99999.99 -99999.99
4/14/2021 9:00:00 AM -99999.99 -179968 -99999.99 -99999.99 -99999.99 -99999.99
4/14/2021 9:15:00 AM -99999.99 -179968 -99999.99 -99999.99 -99999.99 -99999.99
4/14/2021 9:30:00 AM -99999.99 -179968 -99999.99 -99999.99 -99999.99 -99999.99
4/14/2021 9:45:00 AM -99999.99 -179968 -99999.99 -99999.99 -99999.99 -99999.99
4/14/2021 10:00:00 AM -99999.99 -179968 -99999.99 -99999.99 -99999.99 -99999.99
4/14/2021 10:15:00 AM -99999.99 -179968 -99999.99 -99999.99 -99999.99 -99999.99
4/14/2021 10:30:00 AM -99999.99 -179968 -99999.99 -99999.99 -99999.99 -99999.99
4/14/2021 10:45:00 AM -99999.99 -179968 -99999.99 -99999.99 -99999.99 -99999.99
4/14/2021 11:00:00 AM -99999.99 -179968 -99999.99 -99999.99 -99999.99 -99999.99
4/14/2021 11:15:00 AM -99999.99 -179968 -99999.99 -99999.99 -99999.99 -99999.99
4/14/2021 11:30:00 AM -99999.99 -179968 -99999.99 -99999.99 -99999.99 -99999.99
4/14/2021 11:45:00 AM -99999.99 -179968 -99999.99 -99999.99 -99999.99 -99999.99
4/14/2021 12:00:00 PM -99999.99 -179968 -99999.99 -99999.99 -99999.99 -99999.99
4/14/2021 12:15:00 PM -99999.99 -179968 -99999.99 -99999.99 -99999.99 -99999.99
4/14/2021 12:30:00 PM -99999.99 -179968 -99999.99 -99999.99 -99999.99 -99999.99
4/14/2021 12:45:00 PM -99999.99 -179968 -99999.99 -99999.99 -99999.99 -99999.99
4/14/2021 1:00:00 PM -99999.99 -179968 -99999.99 -99999.99 -99999.99 -99999.99
4/14/2021 1:15:00 PM -99999.99 -179968 -99999.99 -99999.99 -99999.99 -99999.99
4/14/2021 1:30:00 PM -99999.99 -179968 -99999.99 -99999.99 -99999.99 -99999.99
4/14/2021 1:45:00 PM -99999.99 -179968 -99999.99 -99999.99 -99999.99 -99999.99
4/14/2021 2:00:00 PM -99999.99 -179968 -99999.99 -99999.99 -99999.99 -99999.99
4/14/2021 2:15:00 PM -99999.99 -179968 -99999.99 -99999.99 -99999.99 -99999.99
4/14/2021 2:30:00 PM -99999.99 -179968 -99999.99 -99999.99 -99999.99 -99999.99
4/14/2021 2:45:00 PM -99999.99 -179968 -99999.99 -99999.99 -99999.99 -99999.99
4/14/2021 3:00:00 PM -99999.99 -179968 -99999.99 -99999.99 -99999.99 -99999.99
4/14/2021 3:15:00 PM -99999.99 -179968 -99999.99 -99999.99 -99999.99 -99999.99
4/14/2021 3:30:00 PM -99999.99 -179968 -99999.99 -99999.99 -99999.99 -99999.99
4/14/2021 3:45:00 PM -99999.99 -179968 -99999.99 -99999.99 -99999.99 -99999.99
4/14/2021 4:00:00 PM -99999.99 -179968 -99999.99 -99999.99 -99999.99 -99999.99
4/14/2021 4:15:00 PM -99999.99 -179968 -99999.99 -99999.99 -99999.99 -99999.99
4/14/2021 4:30:00 PM -99999.99 -179968 -99999.99 -99999.99 -99999.99 -99999.99
4/14/2021 4:45:00 PM -99999.99 -179968 -99999.99 -99999.99 -99999.99 -99999.99
4/14/2021 5:00:00 PM -99999.99 -179968 -99999.99 -99999.99 -99999.99 -99999.99
4/14/2021 5:15:00 PM -99999.99 -179968 -99999.99 -99999.99 -99999.99 -99999.99
4/14/2021 5:30:00 PM -99999.99 -179968 -99999.99 -99999.99 -99999.99 -99999.99
4/14/2021 5:45:00 PM -99999.99 -179968 -99999.99 -99999.99 -99999.99 -99999.99
4/14/2021 6:00:00 PM -99999.99 -179968 -99999.99 -99999.99 -99999.99 -99999.99
4/14/2021 6:15:00 PM -99999.99 -179968 -99999.99 -99999.99 -99999.99 -99999.99
4/14/2021 6:30:00 PM -99999.99 -179968 -99999.99 -99999.99 -99999.99 -99999.99
4/14/2021 6:45:00 PM -99999.99 -179968 -99999.99 -99999.99 -99999.99 -99999.99
4/14/2021 7:00:00 PM -99999.99 -179968 -99999.99 -99999.99 -99999.99 -99999.99
4/14/2021 7:15:00 PM -99999.99 -179968 -99999.99 -99999.99 -99999.99 -99999.99
4/14/2021 7:30:00 PM -99999.99 -179968 -99999.99 -99999.99 -99999.99 -99999.99
4/14/2021 7:45:00 PM -99999.99 -179968 -99999.99 -99999.99 -99999.99 -99999.99
4/14/2021 8:00:00 PM -99999.99 -179968 -99999.99 -99999.99 -99999.99 -99999.99
4/14/2021 8:15:00 PM -99999.99 -179968 -99999.99 -99999.99 -99999.99 -99999.99
4/14/2021 8:30:00 PM -99999.99 -179968 -99999.99 -99999.99 -99999.99 -99999.99
4/14/2021 8:45:00 PM -99999.99 -179968 -99999.99 -99999.99 -99999.99 -99999.99
4/14/2021 9:00:00 PM -99999.99 -179968 -99999.99 -99999.99 -99999.99 -99999.99
4/14/2021 9:15:00 PM -99999.99 -179968 -99999.99 -99999.99 -99999.99 -99999.99
4/14/2021 9:30:00 PM -99999.99 -179968 -99999.99 -99999.99 -99999.99 -99999.99
4/14/2021 9:45:00 PM -99999.99 -179968 -99999.99 -99999.99 -99999.99 -99999.99
4/14/2021 10:00:00 PM -99999.99 -179968 -99999.99 -99999.99 -99999.99 -99999.99
4/14/2021 10:15:00 PM -99999.99 -179968 -99999.99 -99999.99 -99999.99 -99999.99
4/14/2021 10:30:00 PM -99999.99 -179968 -99999.99 -99999.99 -99999.99 -99999.99
4/14/2021 10:45:00 PM -99999.99 -179968 -99999.99 -99999.99 -99999.99 -99999.99
4/14/2021 11:00:00 PM -99999.99 -179968 -99999.99 -99999.99 -99999.99 -99999.99
4/14/2021 11:15:00 PM -99999.99 -179968 -99999.99 -99999.99 -99999.99 -99999.99
4/14/2021 11:30:00 PM -99999.99 -179968 -99999.99 -99999.99 -99999.99 -99999.99
4/14/2021 11:45:00 PM -99999.99 -179968 -99999.99 -99999.99 -99999.99 -99999.99
4/15/2021 12:00:00 AM -99999.99 -179968 -99999.99 -99999.99 -99999.99 -99999.99
4/15/2021 12:15:00 AM -99999.99 -179968 -99999.99 -99999.99 -99999.99 -99999.99
4/15/2021 12:30:00 AM -99999.99 -179968 -99999.99 -99999.99 -99999.99 -99999.99
4/15/2021 12:45:00 AM -99999.99 -179968 -99999.99 -99999.99 -99999.99 -99999.99
4/15/2021 1:00:00 AM -99999.99 -179968 -99999.99 -99999.99 -99999.99 -99999.99
4/15/2021 1:15:00 AM -99999.99 -179968 -99999.99 -99999.99 -99999.99 -99999.99
4/15/2021 1:30:00 AM -99999.99 -179968 -99999.99 -99999.99 -99999.99 -99999.99
4/15/2021 1:45:00 AM -99999.99 -179968 -99999.99 -99999.99 -99999.99 -99999.99
4/15/2021 2:00:00 AM -99999.99 -179968 -99999.99 -99999.99 -99999.99 -99999.99
4/15/2021 2:15:00 AM -99999.99 -179968 -99999.99 -99999.99 -99999.99 -99999.99
4/15/2021 2:30:00 AM -99999.99 -179968 -99999.99 -99999.99 -99999.99 -99999.99
4/15/2021 2:45:00 AM -99999.99 -179968 -99999.99 -99999.99 -99999.99 -99999.99
4/15/2021 3:00:00 AM -99999.99 -179968 -99999.99 -99999.99 -99999.99 -99999.99
4/15/2021 3:15:00 AM -99999.99 -179968 -99999.99 -99999.99 -99999.99 -99999.99
4/15/2021 3:30:00 AM -99999.99 -179968 -99999.99 -99999.99 -99999.99 -99999.99
4/15/2021 3:45:00 AM -99999.99 -179968 -99999.99 -99999.99 -99999.99 -99999.99
4/15/2021 4:00:00 AM -99999.99 -179968 -99999.99 -99999.99 -99999.99 -99999.99
4/15/2021 4:15:00 AM -99999.99 -179968 -99999.99 -99999.99 -99999.99 -99999.99
4/15/2021 4:30:00 AM -99999.99 -179968 -99999.99 -99999.99 -99999.99 -99999.99
4/15/2021 4:45:00 AM -99999.99 -179968 -99999.99 -99999.99 -99999.99 -99999.99
4/15/2021 5:00:00 AM -99999.99 -179968 -99999.99 -99999.99 -99999.99 -99999.99
4/15/2021 5:15:00 AM -99999.99 -179968 -99999.99 -99999.99 -99999.99 -99999.99
4/15/2021 5:30:00 AM -99999.99 -179968 -99999.99 -99999.99 -99999.99 -99999.99
4/15/2021 5:45:00 AM -99999.99 -179968 -99999.99 -99999.99 -99999.99 -99999.99
4/15/2021 6:00:00 AM -99999.99 -179968 -99999.99 -99999.99 -99999.99 -99999.99
4/15/2021 6:15:00 AM -99999.99 -179968 -99999.99 -99999.99 -99999.99 -99999.99
4/15/2021 6:30:00 AM -99999.99 -179968 -99999.99 -99999.99 -99999.99 -99999.99
4/15/2021 6:45:00 AM -99999.99 -179968 -99999.99 -99999.99 -99999.99 -99999.99
4/15/2021 7:00:00 AM -99999.99 -179968 -99999.99 -99999.99 -99999.99 -99999.99
4/15/2021 7:15:00 AM -99999.99 -179968 -99999.99 -99999.99 -99999.99 -99999.99
4/15/2021 7:30:00 AM -99999.99 -179968 -99999.99 -99999.99 -99999.99 -99999.99
4/15/2021 7:45:00 AM -99999.99 -179968 -99999.99 -99999.99 -99999.99 -99999.99
4/15/2021 8:00:00 AM -99999.99 -179968 -99999.99 -99999.99 -99999.99 -99999.99
4/15/2021 8:15:00 AM -99999.99 -179968 -99999.99 -99999.99 -99999.99 -99999.99
4/15/2021 8:30:00 AM -99999.99 -179968 -99999.99 -99999.99 -99999.99 -99999.99
4/15/2021 8:45:00 AM -99999.99 -179968 -99999.99 -99999.99 -99999.99 -99999.99
4/15/2021 9:00:00 AM -99999.99 -179968 -99999.99 -99999.99 -99999.99 -99999.99
4/15/2021 9:15:00 AM -99999.99 -179968 -99999.99 -99999.99 -99999.99 -99999.99
4/15/2021 9:30:00 AM -99999.99 -179968 -99999.99 -99999.99 -99999.99 -99999.99
4/15/2021 9:45:00 AM -99999.99 -179968 -99999.99 -99999.99 -99999.99 -99999.99
4/15/2021 10:00:00 AM -99999.99 -179968 -99999.99 -99999.99 -99999.99 -99999.99
4/15/2021 10:15:00 AM -99999.99 -179968 -99999.99 -99999.99 -99999.99 -99999.99
4/15/2021 10:30:00 AM -99999.99 -179968 -99999.99 -99999.99 -99999.99 -99999.99
4/15/2021 10:45:00 AM -99999.99 -179968 -99999.99 -99999.99 -99999.99 -99999.99
4/15/2021 11:00:00 AM -99999.99 -179968 -99999.99 -99999.99 -99999.99 -99999.99
4/15/2021 11:15:00 AM -99999.99 -179968 -99999.99 -99999.99 -99999.99 -99999.99
4/15/2021 11:30:00 AM -99999.99 -179968 -99999.99 -99999.99 -99999.99 -99999.99
4/15/2021 11:45:00 AM -99999.99 -179968 -99999.99 -99999.99 -99999.99 -99999.99
4/15/2021 12:00:00 PM -99999.99 -179968 -99999.99 -99999.99 -99999.99 -99999.99
4/15/2021 12:15:00 PM -99999.99 -179968 -99999.99 -99999.99 -99999.99 -99999.99
4/15/2021 12:30:00 PM -99999.99 -179968 -99999.99 -99999.99 -99999.99 -99999.99
4/15/2021 12:45:00 PM -99999.99 -179968 -99999.99 -99999.99 -99999.99 -99999.99
4/15/2021 1:00:00 PM -99999.99 -179968 -99999.99 -99999.99 -99999.99 -99999.99
4/15/2021 1:15:00 PM -99999.99 -179968 -99999.99 -99999.99 -99999.99 -99999.99
4/15/2021 1:30:00 PM -99999.99 -179968 -99999.99 -99999.99 -99999.99 -99999.99
4/15/2021 1:45:00 PM -99999.99 -179968 -99999.99 -99999.99 -99999.99 -99999.99
4/15/2021 2:00:00 PM -99999.99 -179968 -99999.99 -99999.99 -99999.99 -99999.99
4/15/2021 2:15:00 PM -99999.99 -179968 -99999.99 -99999.99 -99999.99 -99999.99
4/15/2021 2:30:00 PM -99999.99 -179968 -99999.99 -99999.99 -99999.99 -99999.99
4/15/2021 2:45:00 PM -99999.99 -179968 -99999.99 -99999.99 -99999.99 -99999.99
4/15/2021 3:00:00 PM -99999.99 -179968 -99999.99 -99999.99 -99999.99 -99999.99
4/15/2021 3:15:00 PM -99999.99 -179968 -99999.99 -99999.99 -99999.99 -99999.99
4/15/2021 3:30:00 PM -99999.99 -179968 -99999.99 -99999.99 -99999.99 -99999.99
4/15/2021 3:45:00 PM -99999.99 -179968 -99999.99 -99999.99 -99999.99 -99999.99
4/15/2021 4:00:00 PM -99999.99 -179968 -99999.99 -99999.99 -99999.99 -99999.99
4/15/2021 4:15:00 PM -99999.99 -179968 -99999.99 -99999.99 -99999.99 -99999.99
4/15/2021 4:30:00 PM -99999.99 -179968 -99999.99 -99999.99 -99999.99 -99999.99
4/15/2021 4:45:00 PM -99999.99 -179968 -99999.99 -99999.99 -99999.99 -99999.99
4/15/2021 5:00:00 PM -99999.99 -179968 -99999.99 -99999.99 -99999.99 -99999.99
4/15/2021 5:15:00 PM -99999.99 -179968 -99999.99 -99999.99 -99999.99 -99999.99
4/15/2021 5:30:00 PM -99999.99 -179968 -99999.99 -99999.99 -99999.99 -99999.99
4/15/2021 5:45:00 PM -99999.99 -179968 -99999.99 -99999.99 -99999.99 -99999.99
4/15/2021 6:00:00 PM -99999.99 -179968 -99999.99 -99999.99 -99999.99 -99999.99
4/15/2021 6:15:00 PM -99999.99 -179968 -99999.99 -99999.99 -99999.99 -99999.99
4/15/2021 6:30:00 PM -99999.99 -179968 -99999.99 -99999.99 -99999.99 -99999.99
4/15/2021 6:45:00 PM -99999.99 -179968 -99999.99 -99999.99 -99999.99 -99999.99
4/15/2021 7:00:00 PM -99999.99 -179968 -99999.99 -99999.99 -99999.99 -99999.99
4/15/2021 7:15:00 PM -99999.99 -179968 -99999.99 -99999.99 -99999.99 -99999.99
4/15/2021 7:30:00 PM -99999.99 -179968 -99999.99 -99999.99 -99999.99 -99999.99
4/15/2021 7:45:00 PM -99999.99 -179968 -99999.99 -99999.99 -99999.99 -99999.99
4/15/2021 8:00:00 PM -99999.99 -179968 -99999.99 -99999.99 -99999.99 -99999.99
4/15/2021 8:15:00 PM -99999.99 -179968 -99999.99 -99999.99 -99999.99 -99999.99
4/15/2021 8:30:00 PM -99999.99 -179968 -99999.99 -99999.99 -99999.99 -99999.99
4/15/2021 8:45:00 PM -99999.99 -179968 -99999.99 -99999.99 -99999.99 -99999.99
4/15/2021 9:00:00 PM -99999.99 -179968 -99999.99 -99999.99 -99999.99 -99999.99
4/15/2021 9:15:00 PM -99999.99 -179968 -99999.99 -99999.99 -99999.99 -99999.99
4/15/2021 9:30:00 PM -99999.99 -179968 -99999.99 -99999.99 -99999.99 -99999.99
4/15/2021 9:45:00 PM -99999.99 -179968 -99999.99 -99999.99 -99999.99 -99999.99
4/15/2021 10:00:00 PM -99999.99 -179968 -99999.99 -99999.99 -99999.99 -99999.99
4/15/2021 10:15:00 PM -99999.99 -179968 -99999.99 -99999.99 -99999.99 -99999.99
4/15/2021 10:30:00 PM -99999.99 -179968 -99999.99 -99999.99 -99999.99 -99999.99
4/15/2021 10:45:00 PM -99999.99 -179968 -99999.99 -99999.99 -99999.99 -99999.99
4/15/2021 11:00:00 PM -99999.99 -179968 -99999.99 -99999.99 -99999.99 -99999.99
4/15/2021 11:15:00 PM -99999.99 -179968 -99999.99 -99999.99 -99999.99 -99999.99
4/15/2021 11:30:00 PM -99999.99 -179968 -99999.99 -99999.99 -99999.99 -99999.99
4/15/2021 11:45:00 PM -99999.99 -179968 -99999.99 -99999.99 -99999.99 -99999.99
4/16/2021 12:00:00 AM -99999.99 -179968 -99999.99 -99999.99 -99999.99 -99999.99
4/16/2021 12:15:00 AM -99999.99 -179968 -99999.99 -99999.99 -99999.99 -99999.99
4/16/2021 12:30:00 AM -99999.99 -179968 -99999.99 -99999.99 -99999.99 -99999.99
4/16/2021 12:45:00 AM -99999.99 -179968 -99999.99 -99999.99 -99999.99 -99999.99
4/16/2021 1:00:00 AM -99999.99 -179968 -99999.99 -99999.99 -99999.99 -99999.99
4/16/2021 1:15:00 AM -99999.99 -179968 -99999.99 -99999.99 -99999.99 -99999.99
4/16/2021 1:30:00 AM -99999.99 -179968 -99999.99 -99999.99 -99999.99 -99999.99
4/16/2021 1:45:00 AM -99999.99 -179968 -99999.99 -99999.99 -99999.99 -99999.99
4/16/2021 2:00:00 AM -99999.99 -179968 -99999.99 -99999.99 -99999.99 -99999.99
4/16/2021 2:15:00 AM -99999.99 -179968 -99999.99 -99999.99 -99999.99 -99999.99
4/16/2021 2:30:00 AM -99999.99 -179968 -99999.99 -99999.99 -99999.99 -99999.99
4/16/2021 2:45:00 AM -99999.99 -179968 -99999.99 -99999.99 -99999.99 -99999.99
4/16/2021 3:00:00 AM -99999.99 -179968 -99999.99 -99999.99 -99999.99 -99999.99
4/16/2021 3:15:00 AM -99999.99 -179968 -99999.99 -99999.99 -99999.99 -99999.99
4/16/2021 3:30:00 AM -99999.99 -179968 -99999.99 -99999.99 -99999.99 -99999.99
4/16/2021 3:45:00 AM -99999.99 -179968 -99999.99 -99999.99 -99999.99 -99999.99
4/16/2021 4:00:00 AM -99999.99 -179968 -99999.99 -99999.99 -99999.99 -99999.99
4/16/2021 4:15:00 AM -99999.99 -179968 -99999.99 -99999.99 -99999.99 -99999.99
4/16/2021 4:30:00 AM -99999.99 -179968 -99999.99 -99999.99 -99999.99 -99999.99
4/16/2021 4:45:00 AM -99999.99 -179968 -99999.99 -99999.99 -99999.99 -99999.99
4/16/2021 5:00:00 AM -99999.99 -179968 -99999.99 -99999.99 -99999.99 -99999.99
4/16/2021 5:15:00 AM -99999.99 -179968 -99999.99 -99999.99 -99999.99 -99999.99
4/16/2021 5:30:00 AM -99999.99 -179968 -99999.99 -99999.99 -99999.99 -99999.99
4/16/2021 5:45:00 AM -99999.99 -179968 -99999.99 -99999.99 -99999.99 -99999.99
4/16/2021 6:00:00 AM -99999.99 -179968 -99999.99 -99999.99 -99999.99 -99999.99
4/16/2021 6:15:00 AM -99999.99 -179968 -99999.99 -99999.99 -99999.99 -99999.99
4/16/2021 6:30:00 AM -99999.99 -179968 -99999.99 -99999.99 -99999.99 -99999.99
4/16/2021 6:45:00 AM -99999.99 -179968 -99999.99 -99999.99 -99999.99 -99999.99
4/16/2021 7:00:00 AM -99999.99 -179968 -99999.99 -99999.99 -99999.99 -99999.99
4/16/2021 7:15:00 AM -99999.99 -179968 -99999.99 -99999.99 -99999.99 -99999.99
4/16/2021 7:30:00 AM -99999.99 -179968 -99999.99 -99999.99 -99999.99 -99999.99
4/16/2021 7:45:00 AM -99999.99 -179968 -99999.99 -99999.99 -99999.99 -99999.99
4/16/2021 8:00:00 AM -99999.99 -179968 -99999.99 -99999.99 -99999.99 -99999.99
4/16/2021 8:15:00 AM -99999.99 -179968 -99999.99 -99999.99 -99999.99 -99999.99
4/16/2021 8:30:00 AM -99999.99 -179968 -99999.99 -99999.99 -99999.99 -99999.99
4/16/2021 8:45:00 AM -99999.99 -179968 -99999.99 -99999.99 -99999.99 -99999.99
4/16/2021 9:00:00 AM -99999.99 -179968 -99999.99 -99999.99 -99999.99 -99999.99
4/16/2021 9:15:00 AM -99999.99 -179968 -99999.99 -99999.99 -99999.99 -99999.99
4/16/2021 9:30:00 AM -99999.99 -179968 -99999.99 -99999.99 -99999.99 -99999.99
4/16/2021 9:45:00 AM -99999.99 -179968 -99999.99 -99999.99 -99999.99 -99999.99
4/16/2021 10:00:00 AM -99999.99 -179968 -99999.99 -99999.99 -99999.99 -99999.99
4/16/2021 10:15:00 AM -99999.99 -179968 -99999.99 -99999.99 -99999.99 -99999.99
4/16/2021 10:30:00 AM -99999.99 -179968 -99999.99 -99999.99 -99999.99 -99999.99
4/16/2021 10:45:00 AM -99999.99 -179968 -99999.99 -99999.99 -99999.99 -99999.99
4/16/2021 11:00:00 AM -99999.99 -179968 -99999.99 -99999.99 -99999.99 -99999.99
4/16/2021 11:15:00 AM -99999.99 -179968 -99999.99 -99999.99 -99999.99 -99999.99
4/16/2021 11:30:00 AM -99999.99 -179968 -99999.99 -99999.99 -99999.99 -99999.99
4/16/2021 11:45:00 AM -99999.99 -179968 -99999.99 -99999.99 -99999.99 -99999.99
4/16/2021 12:00:00 PM -99999.99 -179968 -99999.99 -99999.99 -99999.99 -99999.99
4/16/2021 12:15:00 PM -99999.99 -179968 -99999.99 -99999.99 -99999.99 -99999.99
4/16/2021 12:30:00 PM -99999.99 -179968 -99999.99 -99999.99 -99999.99 -99999.99
4/16/2021 12:45:00 PM -99999.99 -179968 -99999.99 -99999.99 -99999.99 -99999.99
4/16/2021 1:00:00 PM -99999.99 -179968 -99999.99 -99999.99 -99999.99 -99999.99
4/16/2021 1:15:00 PM -99999.99 -179968 -99999.99 -99999.99 -99999.99 -99999.99
4/16/2021 1:30:00 PM -99999.99 -179968 -99999.99 -99999.99 -99999.99 -99999.99
4/16/2021 1:45:00 PM -99999.99 -179968 -99999.99 -99999.99 -99999.99 -99999.99
4/16/2021 2:00:00 PM -99999.99 -179968 -99999.99 -99999.99 -99999.99 -99999.99
4/16/2021 2:15:00 PM -99999.99 -179968 -99999.99 -99999.99 -99999.99 -99999.99
4/16/2021 2:30:00 PM -99999.99 -179968 -99999.99 -99999.99 -99999.99 -99999.99
4/16/2021 2:45:00 PM -99999.99 -179968 -99999.99 -99999.99 -99999.99 -99999.99
4/16/2021 3:00:00 PM -99999.99 -179968 -99999.99 -99999.99 -99999.99 -99999.99
4/16/2021 3:15:00 PM -99999.99 -179968 -99999.99 -99999.99 -99999.99 -99999.99
4/16/2021 3:30:00 PM -99999.99 -179968 -99999.99 -99999.99 -99999.99 -99999.99
4/16/2021 3:45:00 PM -99999.99 -179968 -99999.99 -99999.99 -99999.99 -99999.99
4/16/2021 4:00:00 PM -99999.99 -179968 -99999.99 -99999.99 -99999.99 -99999.99
4/16/2021 4:15:00 PM -99999.99 -179968 -99999.99 -99999.99 -99999.99 -99999.99
4/16/2021 4:30:00 PM -99999.99 -179968 -99999.99 -99999.99 -99999.99 -99999.99
4/16/2021 4:45:00 PM -99999.99 -179968 -99999.99 -99999.99 -99999.99 -99999.99
4/16/2021 5:00:00 PM -99999.99 -179968 -99999.99 -99999.99 -99999.99 -99999.99
4/16/2021 5:15:00 PM -99999.99 -179968 -99999.99 -99999.99 -99999.99 -99999.99
4/16/2021 5:30:00 PM -99999.99 -179968 -99999.99 -99999.99 -99999.99 -99999.99
4/16/2021 5:45:00 PM -99999.99 -179968 -99999.99 -99999.99 -99999.99 -99999.99
4/16/2021 6:00:00 PM -99999.99 -179968 -99999.99 -99999.99 -99999.99 -99999.99
4/16/2021 6:15:00 PM -99999.99 -179968 -99999.99 -99999.99 -99999.99 -99999.99
4/16/2021 6:30:00 PM -99999.99 -179968 -99999.99 -99999.99 -99999.99 -99999.99
4/16/2021 6:45:00 PM -99999.99 -179968 -99999.99 -99999.99 -99999.99 -99999.99
4/16/2021 7:00:00 PM -99999.99 -179968 -99999.99 -99999.99 -99999.99 -99999.99
4/16/2021 7:15:00 PM -99999.99 -179968 -99999.99 -99999.99 -99999.99 -99999.99
4/16/2021 7:30:00 PM -99999.99 -179968 -99999.99 -99999.99 -99999.99 -99999.99
4/16/2021 7:45:00 PM -99999.99 -179968 -99999.99 -99999.99 -99999.99 -99999.99
4/16/2021 8:00:00 PM -99999.99 -179968 -99999.99 -99999.99 -99999.99 -99999.99
4/16/2021 8:15:00 PM -99999.99 -179968 -99999.99 -99999.99 -99999.99 -99999.99
4/16/2021 8:30:00 PM -99999.99 -179968 -99999.99 -99999.99 -99999.99 -99999.99
4/16/2021 8:45:00 PM -99999.99 -179968 -99999.99 -99999.99 -99999.99 -99999.99
4/16/2021 9:00:00 PM -99999.99 -179968 -99999.99 -99999.99 -99999.99 -99999.99
4/16/2021 9:15:00 PM -99999.99 -179968 -99999.99 -99999.99 -99999.99 -99999.99
4/16/2021 9:30:00 PM -99999.99 -179968 -99999.99 -99999.99 -99999.99 -99999.99
4/16/2021 9:45:00 PM -99999.99 -179968 -99999.99 -99999.99 -99999.99 -99999.99
4/16/2021 10:00:00 PM -99999.99 -179968 -99999.99 -99999.99 -99999.99 -99999.99
4/16/2021 10:15:00 PM -99999.99 -179968 -99999.99 -99999.99 -99999.99 -99999.99
4/16/2021 10:30:00 PM -99999.99 -179968 -99999.99 -99999.99 -99999.99 -99999.99
4/16/2021 10:45:00 PM -99999.99 -179968 -99999.99 -99999.99 -99999.99 -99999.99
4/16/2021 11:00:00 PM -99999.99 -179968 -99999.99 -99999.99 -99999.99 -99999.99
4/16/2021 11:15:00 PM -99999.99 -179968 -99999.99 -99999.99 -99999.99 -99999.99
4/16/2021 11:30:00 PM -99999.99 -179968 -99999.99 -99999.99 -99999.99 -99999.99
4/16/2021 11:45:00 PM -99999.99 -179968 -99999.99 -99999.99 -99999.99 -99999.99
4/17/2021 12:00:00 AM -99999.99 -179968 -99999.99 -99999.99 -99999.99 -99999.99
4/17/2021 12:15:00 AM -99999.99 -179968 -99999.99 -99999.99 -99999.99 -99999.99
4/17/2021 12:30:00 AM -99999.99 -179968 -99999.99 -99999.99 -99999.99 -99999.99
4/17/2021 12:45:00 AM -99999.99 -179968 -99999.99 -99999.99 -99999.99 -99999.99
4/17/2021 1:00:00 AM -99999.99 -179968 -99999.99 -99999.99 -99999.99 -99999.99
4/17/2021 1:15:00 AM -99999.99 -179968 -99999.99 -99999.99 -99999.99 -99999.99
4/17/2021 1:30:00 AM -99999.99 -179968 -99999.99 -99999.99 -99999.99 -99999.99
4/17/2021 1:45:00 AM -99999.99 -179968 -99999.99 -99999.99 -99999.99 -99999.99
4/17/2021 2:00:00 AM -99999.99 -179968 -99999.99 -99999.99 -99999.99 -99999.99
4/17/2021 2:15:00 AM -99999.99 -179968 -99999.99 -99999.99 -99999.99 -99999.99
4/17/2021 2:30:00 AM -99999.99 -179968 -99999.99 -99999.99 -99999.99 -99999.99
4/17/2021 2:45:00 AM -99999.99 -179968 -99999.99 -99999.99 -99999.99 -99999.99
4/17/2021 3:00:00 AM -99999.99 -179968 -99999.99 -99999.99 -99999.99 -99999.99
4/17/2021 3:15:00 AM -99999.99 -179968 -99999.99 -99999.99 -99999.99 -99999.99
4/17/2021 3:30:00 AM -99999.99 -179968 -99999.99 -99999.99 -99999.99 -99999.99
4/17/2021 3:45:00 AM -99999.99 -179968 -99999.99 -99999.99 -99999.99 -99999.99
4/17/2021 4:00:00 AM -99999.99 -179968 -99999.99 -99999.99 -99999.99 -99999.99
4/17/2021 4:15:00 AM -99999.99 -179968 -99999.99 -99999.99 -99999.99 -99999.99
4/17/2021 4:30:00 AM -99999.99 -179968 -99999.99 -99999.99 -99999.99 -99999.99
4/17/2021 4:45:00 AM -99999.99 -179968 -99999.99 -99999.99 -99999.99 -99999.99
4/17/2021 5:00:00 AM -99999.99 -179968 -99999.99 -99999.99 -99999.99 -99999.99
4/17/2021 5:15:00 AM -99999.99 -179968 -99999.99 -99999.99 -99999.99 -99999.99
4/17/2021 5:30:00 AM -99999.99 -179968 -99999.99 -99999.99 -99999.99 -99999.99
4/17/2021 5:45:00 AM -99999.99 -179968 -99999.99 -99999.99 -99999.99 -99999.99
4/17/2021 6:00:00 AM -99999.99 -179968 -99999.99 -99999.99 -99999.99 -99999.99
4/17/2021 6:15:00 AM -99999.99 -179968 -99999.99 -99999.99 -99999.99 -99999.99
4/17/2021 6:30:00 AM -99999.99 -179968 -99999.99 -99999.99 -99999.99 -99999.99
4/17/2021 6:45:00 AM -99999.99 -179968 -99999.99 -99999.99 -99999.99 -99999.99
4/17/2021 7:00:00 AM -99999.99 -179968 -99999.99 -99999.99 -99999.99 -99999.99
4/17/2021 7:15:00 AM -99999.99 -179968 -99999.99 -99999.99 -99999.99 -99999.99
4/17/2021 7:30:00 AM -99999.99 -179968 -99999.99 -99999.99 -99999.99 -99999.99
4/17/2021 7:45:00 AM -99999.99 -179968 -99999.99 -99999.99 -99999.99 -99999.99
4/17/2021 8:00:00 AM -99999.99 -179968 -99999.99 -99999.99 -99999.99 -99999.99
4/17/2021 8:15:00 AM -99999.99 -179968 -99999.99 -99999.99 -99999.99 -99999.99
4/17/2021 8:30:00 AM -99999.99 -179968 -99999.99 -99999.99 -99999.99 -99999.99
4/17/2021 8:45:00 AM -99999.99 -179968 -99999.99 -99999.99 -99999.99 -99999.99
4/17/2021 9:00:00 AM -99999.99 -179968 -99999.99 -99999.99 -99999.99 -99999.99
4/17/2021 9:15:00 AM -99999.99 -179968 -99999.99 -99999.99 -99999.99 -99999.99
4/17/2021 9:30:00 AM -99999.99 -179968 -99999.99 -99999.99 -99999.99 -99999.99
4/17/2021 9:45:00 AM -99999.99 -179968 -99999.99 -99999.99 -99999.99 -99999.99
4/17/2021 10:00:00 AM -99999.99 -179968 -99999.99 -99999.99 -99999.99 -99999.99
4/17/2021 10:15:00 AM -99999.99 -179968 -99999.99 -99999.99 -99999.99 -99999.99
4/17/2021 10:30:00 AM -99999.99 -179968 -99999.99 -99999.99 -99999.99 -99999.99
4/17/2021 10:45:00 AM -99999.99 -179968 -99999.99 -99999.99 -99999.99 -99999.99
4/17/2021 11:00:00 AM -99999.99 -179968 -99999.99 -99999.99 -99999.99 -99999.99
4/17/2021 11:15:00 AM -99999.99 -179968 -99999.99 -99999.99 -99999.99 -99999.99
4/17/2021 11:30:00 AM -99999.99 -179968 -99999.99 -99999.99 -99999.99 -99999.99
4/17/2021 11:45:00 AM -99999.99 -179968 -99999.99 -99999.99 -99999.99 -99999.99
4/17/2021 12:00:00 PM -99999.99 -179968 -99999.99 -99999.99 -99999.99 -99999.99
4/17/2021 12:15:00 PM -99999.99 -179968 -99999.99 -99999.99 -99999.99 -99999.99
4/17/2021 12:30:00 PM -99999.99 -179968 -99999.99 -99999.99 -99999.99 -99999.99
4/17/2021 12:45:00 PM -99999.99 -179968 -99999.99 -99999.99 -99999.99 -99999.99
4/17/2021 1:00:00 PM -99999.99 -179968 -99999.99 -99999.99 -99999.99 -99999.99
4/17/2021 1:15:00 PM -99999.99 -179968 -99999.99 -99999.99 -99999.99 -99999.99
4/17/2021 1:30:00 PM -99999.99 -179968 -99999.99 -99999.99 -99999.99 -99999.99
4/17/2021 1:45:00 PM -99999.99 -179968 -99999.99 -99999.99 -99999.99 -99999.99
4/17/2021 2:00:00 PM -99999.99 -179968 -99999.99 -99999.99 -99999.99 -99999.99
4/17/2021 2:15:00 PM -99999.99 -179968 -99999.99 -99999.99 -99999.99 -99999.99
4/17/2021 2:30:00 PM -99999.99 -179968 -99999.99 -99999.99 -99999.99 -99999.99
4/17/2021 2:45:00 PM -99999.99 -179968 -99999.99 -99999.99 -99999.99 -99999.99
4/17/2021 3:00:00 PM -99999.99 -179968 -99999.99 -99999.99 -99999.99 -99999.99
4/17/2021 3:15:00 PM -99999.99 -179968 -99999.99 -99999.99 -99999.99 -99999.99
4/17/2021 3:30:00 PM -99999.99 -179968 -99999.99 -99999.99 -99999.99 -99999.99
4/17/2021 3:45:00 PM -99999.99 -179968 -99999.99 -99999.99 -99999.99 -99999.99
4/17/2021 4:00:00 PM -99999.99 -179968 -99999.99 -99999.99 -99999.99 -99999.99
4/17/2021 4:15:00 PM -99999.99 -179968 -99999.99 -99999.99 -99999.99 -99999.99
4/17/2021 4:30:00 PM -99999.99 -179968 -99999.99 -99999.99 -99999.99 -99999.99
4/17/2021 4:45:00 PM -99999.99 -179968 -99999.99 -99999.99 -99999.99 -99999.99
4/17/2021 5:00:00 PM -99999.99 -179968 -99999.99 -99999.99 -99999.99 -99999.99
4/17/2021 5:15:00 PM -99999.99 -179968 -99999.99 -99999.99 -99999.99 -99999.99
4/17/2021 5:30:00 PM -99999.99 -179968 -99999.99 -99999.99 -99999.99 -99999.99
4/17/2021 5:45:00 PM -99999.99 -179968 -99999.99 -99999.99 -99999.99 -99999.99
4/17/2021 6:00:00 PM -99999.99 -179968 -99999.99 -99999.99 -99999.99 -99999.99
4/17/2021 6:15:00 PM -99999.99 -179968 -99999.99 -99999.99 -99999.99 -99999.99
4/17/2021 6:30:00 PM -99999.99 -179968 -99999.99 -99999.99 -99999.99 -99999.99
4/17/2021 6:45:00 PM -99999.99 -179968 -99999.99 -99999.99 -99999.99 -99999.99
4/17/2021 7:00:00 PM -99999.99 -179968 -99999.99 -99999.99 -99999.99 -99999.99
4/17/2021 7:15:00 PM -99999.99 -179968 -99999.99 -99999.99 -99999.99 -99999.99
4/17/2021 7:30:00 PM -99999.99 -179968 -99999.99 -99999.99 -99999.99 -99999.99
4/17/2021 7:45:00 PM -99999.99 -179968 -99999.99 -99999.99 -99999.99 -99999.99
4/17/2021 8:00:00 PM -99999.99 -179968 -99999.99 -99999.99 -99999.99 -99999.99
4/17/2021 8:15:00 PM -99999.99 -179968 -99999.99 -99999.99 -99999.99 -99999.99
4/17/2021 8:30:00 PM -99999.99 -179968 -99999.99 -99999.99 -99999.99 -99999.99
4/17/2021 8:45:00 PM -99999.99 -179968 -99999.99 -99999.99 -99999.99 -99999.99
4/17/2021 9:00:00 PM -99999.99 -179968 -99999.99 -99999.99 -99999.99 -99999.99
4/17/2021 9:15:00 PM -99999.99 -179968 -99999.99 -99999.99 -99999.99 -99999.99
4/17/2021 9:30:00 PM -99999.99 -179968 -99999.99 -99999.99 -99999.99 -99999.99
4/17/2021 9:45:00 PM -99999.99 -179968 -99999.99 -99999.99 -99999.99 -99999.99
4/17/2021 10:00:00 PM -99999.99 -179968 -99999.99 -99999.99 -99999.99 -99999.99
4/17/2021 10:15:00 PM -99999.99 -179968 -99999.99 -99999.99 -99999.99 -99999.99
4/17/2021 10:30:00 PM -99999.99 -179968 -99999.99 -99999.99 -99999.99 -99999.99
4/17/2021 10:45:00 PM -99999.99 -179968 -99999.99 -99999.99 -99999.99 -99999.99
4/17/2021 11:00:00 PM -99999.99 -179968 -99999.99 -99999.99 -99999.99 -99999.99
4/17/2021 11:15:00 PM -99999.99 -179968 -99999.99 -99999.99 -99999.99 -99999.99
4/17/2021 11:30:00 PM -99999.99 -179968 -99999.99 -99999.99 -99999.99 -99999.99
4/17/2021 11:45:00 PM -99999.99 -179968 -99999.99 -99999.99 -99999.99 -99999.99
4/18/2021 12:00:00 AM -99999.99 -179968 -99999.99 -99999.99 -99999.99 -99999.99
4/18/2021 12:15:00 AM -99999.99 -179968 -99999.99 -99999.99 -99999.99 -99999.99
4/18/2021 12:30:00 AM -99999.99 -179968 -99999.99 -99999.99 -99999.99 -99999.99
4/18/2021 12:45:00 AM -99999.99 -179968 -99999.99 -99999.99 -99999.99 -99999.99
4/18/2021 1:00:00 AM -99999.99 -179968 -99999.99 -99999.99 -99999.99 -99999.99
4/18/2021 1:15:00 AM -99999.99 -179968 -99999.99 -99999.99 -99999.99 -99999.99
4/18/2021 1:30:00 AM -99999.99 -179968 -99999.99 -99999.99 -99999.99 -99999.99
4/18/2021 1:45:00 AM -99999.99 -179968 -99999.99 -99999.99 -99999.99 -99999.99
4/18/2021 2:00:00 AM -99999.99 -179968 -99999.99 -99999.99 -99999.99 -99999.99
4/18/2021 2:15:00 AM -99999.99 -179968 -99999.99 -99999.99 -99999.99 -99999.99
4/18/2021 2:30:00 AM -99999.99 -179968 -99999.99 -99999.99 -99999.99 -99999.99
4/18/2021 2:45:00 AM -99999.99 -179968 -99999.99 -99999.99 -99999.99 -99999.99
4/18/2021 3:00:00 AM -99999.99 -179968 -99999.99 -99999.99 -99999.99 -99999.99
4/18/2021 3:15:00 AM -99999.99 -179968 -99999.99 -99999.99 -99999.99 -99999.99
4/18/2021 3:30:00 AM -99999.99 -179968 -99999.99 -99999.99 -99999.99 -99999.99
4/18/2021 3:45:00 AM -99999.99 -179968 -99999.99 -99999.99 -99999.99 -99999.99
4/18/2021 4:00:00 AM -99999.99 -179968 -99999.99 -99999.99 -99999.99 -99999.99
4/18/2021 4:15:00 AM -99999.99 -179968 -99999.99 -99999.99 -99999.99 -99999.99
4/18/2021 4:30:00 AM -99999.99 -179968 -99999.99 -99999.99 -99999.99 -99999.99
4/18/2021 4:45:00 AM -99999.99 -179968 -99999.99 -99999.99 -99999.99 -99999.99
4/18/2021 5:00:00 AM -99999.99 -179968 -99999.99 -99999.99 -99999.99 -99999.99
4/18/2021 5:15:00 AM -99999.99 -179968 -99999.99 -99999.99 -99999.99 -99999.99
4/18/2021 5:30:00 AM -99999.99 -179968 -99999.99 -99999.99 -99999.99 -99999.99
4/18/2021 5:45:00 AM -99999.99 -179968 -99999.99 -99999.99 -99999.99 -99999.99
4/18/2021 6:00:00 AM -99999.99 -179968 -99999.99 -99999.99 -99999.99 -99999.99
4/18/2021 6:15:00 AM -99999.99 -179968 -99999.99 -99999.99 -99999.99 -99999.99
4/18/2021 6:30:00 AM -99999.99 -179968 -99999.99 -99999.99 -99999.99 -99999.99
4/18/2021 6:45:00 AM -99999.99 -179968 -99999.99 -99999.99 -99999.99 -99999.99
4/18/2021 7:00:00 AM -99999.99 -179968 -99999.99 -99999.99 -99999.99 -99999.99
4/18/2021 7:15:00 AM -99999.99 -179968 -99999.99 -99999.99 -99999.99 -99999.99
4/18/2021 7:30:00 AM -99999.99 -179968 -99999.99 -99999.99 -99999.99 -99999.99
4/18/2021 7:45:00 AM -99999.99 -179968 -99999.99 -99999.99 -99999.99 -99999.99
4/18/2021 8:00:00 AM -99999.99 -179968 -99999.99 -99999.99 -99999.99 -99999.99
4/18/2021 8:15:00 AM -99999.99 -179968 -99999.99 -99999.99 -99999.99 -99999.99
4/18/2021 8:30:00 AM -99999.99 -179968 -99999.99 -99999.99 -99999.99 -99999.99
4/18/2021 8:45:00 AM -99999.99 -179968 -99999.99 -99999.99 -99999.99 -99999.99
4/18/2021 9:00:00 AM -99999.99 -179968 -99999.99 -99999.99 -99999.99 -99999.99
4/18/2021 9:15:00 AM -99999.99 -179968 -99999.99 -99999.99 -99999.99 -99999.99
4/18/2021 9:30:00 AM -99999.99 -179968 -99999.99 -99999.99 -99999.99 -99999.99
4/18/2021 9:45:00 AM -99999.99 -179968 -99999.99 -99999.99 -99999.99 -99999.99
4/18/2021 10:00:00 AM -99999.99 -179968 -99999.99 -99999.99 -99999.99 -99999.99
4/18/2021 10:15:00 AM -99999.99 -179968 -99999.99 -99999.99 -99999.99 -99999.99
4/18/2021 10:30:00 AM -99999.99 -179968 -99999.99 -99999.99 -99999.99 -99999.99
4/18/2021 10:45:00 AM -99999.99 -179968 -99999.99 -99999.99 -99999.99 -99999.99
4/18/2021 11:00:00 AM -99999.99 -179968 -99999.99 -99999.99 -99999.99 -99999.99
4/18/2021 11:15:00 AM -99999.99 -179968 -99999.99 -99999.99 -99999.99 -99999.99
4/18/2021 11:30:00 AM -99999.99 -179968 -99999.99 -99999.99 -99999.99 -99999.99
4/18/2021 11:45:00 AM -99999.99 -179968 -99999.99 -99999.99 -99999.99 -99999.99
4/18/2021 12:00:00 PM -99999.99 -179968 -99999.99 -99999.99 -99999.99 -99999.99
4/18/2021 12:15:00 PM -99999.99 -179968 -99999.99 -99999.99 -99999.99 -99999.99
4/18/2021 12:30:00 PM -99999.99 -179968 -99999.99 -99999.99 -99999.99 -99999.99
4/18/2021 12:45:00 PM -99999.99 -179968 -99999.99 -99999.99 -99999.99 -99999.99
4/18/2021 1:00:00 PM -99999.99 -179968 -99999.99 -99999.99 -99999.99 -99999.99
4/18/2021 1:15:00 PM -99999.99 -179968 -99999.99 -99999.99 -99999.99 -99999.99
4/18/2021 1:30:00 PM -99999.99 -179968 -99999.99 -99999.99 -99999.99 -99999.99
4/18/2021 1:45:00 PM -99999.99 -179968 -99999.99 -99999.99 -99999.99 -99999.99
4/18/2021 2:00:00 PM -99999.99 -179968 -99999.99 -99999.99 -99999.99 -99999.99
4/18/2021 2:15:00 PM -99999.99 -179968 -99999.99 -99999.99 -99999.99 -99999.99
4/18/2021 2:30:00 PM -99999.99 -179968 -99999.99 -99999.99 -99999.99 -99999.99
4/18/2021 2:45:00 PM -99999.99 -179968 -99999.99 -99999.99 -99999.99 -99999.99
4/18/2021 3:00:00 PM -99999.99 -179968 -99999.99 -99999.99 -99999.99 -99999.99
4/18/2021 3:15:00 PM -99999.99 -179968 -99999.99 -99999.99 -99999.99 -99999.99
4/18/2021 3:30:00 PM -99999.99 -179968 -99999.99 -99999.99 -99999.99 -99999.99
4/18/2021 3:45:00 PM -99999.99 -179968 -99999.99 -99999.99 -99999.99 -99999.99
4/18/2021 4:00:00 PM -99999.99 -179968 -99999.99 -99999.99 -99999.99 -99999.99
4/18/2021 4:15:00 PM -99999.99 -179968 -99999.99 -99999.99 -99999.99 -99999.99
4/18/2021 4:30:00 PM -99999.99 -179968 -99999.99 -99999.99 -99999.99 -99999.99
4/18/2021 4:45:00 PM -99999.99 -179968 -99999.99 -99999.99 -99999.99 -99999.99
4/18/2021 5:00:00 PM -99999.99 -179968 -99999.99 -99999.99 -99999.99 -99999.99
4/18/2021 5:15:00 PM -99999.99 -179968 -99999.99 -99999.99 -99999.99 -99999.99
4/18/2021 5:30:00 PM -99999.99 -179968 -99999.99 -99999.99 -99999.99 -99999.99
4/18/2021 5:45:00 PM -99999.99 -179968 -99999.99 -99999.99 -99999.99 -99999.99
4/18/2021 6:00:00 PM -99999.99 -179968 -99999.99 -99999.99 -99999.99 -99999.99
4/18/2021 6:15:00 PM -99999.99 -179968 -99999.99 -99999.99 -99999.99 -99999.99
4/18/2021 6:30:00 PM -99999.99 -179968 -99999.99 -99999.99 -99999.99 -99999.99
4/18/2021 6:45:00 PM -99999.99 -179968 -99999.99 -99999.99 -99999.99 -99999.99
4/18/2021 7:00:00 PM -99999.99 -179968 -99999.99 -99999.99 -99999.99 -99999.99
4/18/2021 7:15:00 PM -99999.99 -179968 -99999.99 -99999.99 -99999.99 -99999.99
4/18/2021 7:30:00 PM -99999.99 -179968 -99999.99 -99999.99 -99999.99 -99999.99
4/18/2021 7:45:00 PM -99999.99 -179968 -99999.99 -99999.99 -99999.99 -99999.99
4/18/2021 8:00:00 PM -99999.99 -179968 -99999.99 -99999.99 -99999.99 -99999.99
4/18/2021 8:15:00 PM -99999.99 -179968 -99999.99 -99999.99 -99999.99 -99999.99
4/18/2021 8:30:00 PM -99999.99 -179968 -99999.99 -99999.99 -99999.99 -99999.99
4/18/2021 8:45:00 PM -99999.99 -179968 -99999.99 -99999.99 -99999.99 -99999.99
4/18/2021 9:00:00 PM -99999.99 -179968 -99999.99 -99999.99 -99999.99 -99999.99
4/18/2021 9:15:00 PM -99999.99 -179968 -99999.99 -99999.99 -99999.99 -99999.99
4/18/2021 9:30:00 PM -99999.99 -179968 -99999.99 -99999.99 -99999.99 -99999.99
4/18/2021 9:45:00 PM -99999.99 -179968 -99999.99 -99999.99 -99999.99 -99999.99
4/18/2021 10:00:00 PM -99999.99 -179968 -99999.99 -99999.99 -99999.99 -99999.99
4/18/2021 10:15:00 PM -99999.99 -179968 -99999.99 -99999.99 -99999.99 -99999.99
4/18/2021 10:30:00 PM -99999.99 -179968 -99999.99 -99999.99 -99999.99 -99999.99
4/18/2021 10:45:00 PM -99999.99 -179968 -99999.99 -99999.99 -99999.99 -99999.99
4/18/2021 11:00:00 PM -99999.99 -179968 -99999.99 -99999.99 -99999.99 -99999.99
4/18/2021 11:15:00 PM -99999.99 -179968 -99999.99 -99999.99 -99999.99 -99999.99
4/18/2021 11:30:00 PM -99999.99 -179968 -99999.99 -99999.99 -99999.99 -99999.99
4/18/2021 11:45:00 PM -99999.99 -179968 -99999.99 -99999.99 -99999.99 -99999.99
4/19/2021 12:00:00 AM -99999.99 -179968 -99999.99 -99999.99 -99999.99 -99999.99
4/19/2021 12:15:00 AM -99999.99 -179968 -99999.99 -99999.99 -99999.99 -99999.99
4/19/2021 12:30:00 AM -99999.99 -179968 -99999.99 -99999.99 -99999.99 -99999.99
4/19/2021 12:45:00 AM -99999.99 -179968 -99999.99 -99999.99 -99999.99 -99999.99
4/19/2021 1:00:00 AM -99999.99 -179968 -99999.99 -99999.99 -99999.99 -99999.99
4/19/2021 1:15:00 AM -99999.99 -179968 -99999.99 -99999.99 -99999.99 -99999.99
4/19/2021 1:30:00 AM -99999.99 -179968 -99999.99 -99999.99 -99999.99 -99999.99
4/19/2021 1:45:00 AM -99999.99 -179968 -99999.99 -99999.99 -99999.99 -99999.99
4/19/2021 2:00:00 AM -99999.99 -179968 -99999.99 -99999.99 -99999.99 -99999.99
4/19/2021 2:15:00 AM -99999.99 -179968 -99999.99 -99999.99 -99999.99 -99999.99
4/19/2021 2:30:00 AM -99999.99 -179968 -99999.99 -99999.99 -99999.99 -99999.99
4/19/2021 2:45:00 AM -99999.99 -179968 -99999.99 -99999.99 -99999.99 -99999.99
4/19/2021 3:00:00 AM -99999.99 -179968 -99999.99 -99999.99 -99999.99 -99999.99
4/19/2021 3:15:00 AM -99999.99 -179968 -99999.99 -99999.99 -99999.99 -99999.99
4/19/2021 3:30:00 AM -99999.99 -179968 -99999.99 -99999.99 -99999.99 -99999.99
4/19/2021 3:45:00 AM -99999.99 -179968 -99999.99 -99999.99 -99999.99 -99999.99
4/19/2021 4:00:00 AM -99999.99 -179968 -99999.99 -99999.99 -99999.99 -99999.99
4/19/2021 4:15:00 AM -99999.99 -179968 -99999.99 -99999.99 -99999.99 -99999.99
4/19/2021 4:30:00 AM -99999.99 -179968 -99999.99 -99999.99 -99999.99 -99999.99
4/19/2021 4:45:00 AM -99999.99 -179968 -99999.99 -99999.99 -99999.99 -99999.99
4/19/2021 5:00:00 AM -99999.99 -179968 -99999.99 -99999.99 -99999.99 -99999.99
4/19/2021 5:15:00 AM -99999.99 -179968 -99999.99 -99999.99 -99999.99 -99999.99
4/19/2021 5:30:00 AM -99999.99 -179968 -99999.99 -99999.99 -99999.99 -99999.99
4/19/2021 5:45:00 AM -99999.99 -179968 -99999.99 -99999.99 -99999.99 -99999.99
4/19/2021 6:00:00 AM -99999.99 -179968 -99999.99 -99999.99 -99999.99 -99999.99
4/19/2021 6:15:00 AM -99999.99 -179968 -99999.99 -99999.99 -99999.99 -99999.99
4/19/2021 6:30:00 AM -99999.99 -179968 -99999.99 -99999.99 -99999.99 -99999.99
4/19/2021 6:45:00 AM -99999.99 -179968 -99999.99 -99999.99 -99999.99 -99999.99
4/19/2021 7:00:00 AM -99999.99 -179968 -99999.99 -99999.99 -99999.99 -99999.99
4/19/2021 7:15:00 AM -99999.99 -179968 -99999.99 -99999.99 -99999.99 -99999.99
4/19/2021 7:30:00 AM -99999.99 -179968 -99999.99 -99999.99 -99999.99 -99999.99
4/19/2021 7:45:00 AM -99999.99 -179968 -99999.99 -99999.99 -99999.99 -99999.99
4/19/2021 8:00:00 AM -99999.99 -179968 -99999.99 -99999.99 -99999.99 -99999.99
4/19/2021 8:15:00 AM -99999.99 -179968 -99999.99 -99999.99 -99999.99 -99999.99
4/19/2021 8:30:00 AM -99999.99 -179968 -99999.99 -99999.99 -99999.99 -99999.99
4/19/2021 8:45:00 AM -99999.99 -179968 -99999.99 -99999.99 -99999.99 -99999.99
4/19/2021 9:00:00 AM -99999.99 -179968 -99999.99 -99999.99 -99999.99 -99999.99
4/19/2021 9:15:00 AM -99999.99 -179968 -99999.99 -99999.99 -99999.99 -99999.99
4/19/2021 9:30:00 AM -99999.99 -179968 -99999.99 -99999.99 -99999.99 -99999.99
4/19/2021 9:45:00 AM -99999.99 -179968 -99999.99 -99999.99 -99999.99 -99999.99
4/19/2021 10:00:00 AM -99999.99 -179968 -99999.99 -99999.99 -99999.99 -99999.99
4/19/2021 10:15:00 AM -99999.99 -179968 -99999.99 -99999.99 -99999.99 -99999.99
4/19/2021 10:30:00 AM -99999.99 -179968 -99999.99 -99999.99 -99999.99 -99999.99
4/19/2021 10:45:00 AM -99999.99 -179968 -99999.99 -99999.99 -99999.99 -99999.99
4/19/2021 11:00:00 AM -99999.99 -179968 -99999.99 -99999.99 -99999.99 -99999.99
4/19/2021 11:15:00 AM -99999.99 -179968 -99999.99 -99999.99 -99999.99 -99999.99
4/19/2021 11:30:00 AM -99999.99 -179968 -99999.99 -99999.99 -99999.99 -99999.99
4/19/2021 11:45:00 AM -99999.99 -179968 -99999.99 -99999.99 -99999.99 -99999.99
4/19/2021 12:00:00 PM -99999.99 -179968 -99999.99 -99999.99 -99999.99 -99999.99
4/19/2021 12:15:00 PM -99999.99 -179968 -99999.99 -99999.99 -99999.99 -99999.99
4/19/2021 12:30:00 PM -99999.99 -179968 -99999.99 -99999.99 -99999.99 -99999.99
4/19/2021 12:45:00 PM -99999.99 -179968 -99999.99 -99999.99 -99999.99 -99999.99
4/19/2021 1:00:00 PM -99999.99 -179968 -99999.99 -99999.99 -99999.99 -99999.99
4/19/2021 1:15:00 PM -99999.99 -179968 -99999.99 -99999.99 -99999.99 -99999.99
4/19/2021 1:30:00 PM -99999.99 -179968 -99999.99 -99999.99 -99999.99 -99999.99
4/19/2021 1:45:00 PM -99999.99 -179968 -99999.99 -99999.99 -99999.99 -99999.99
4/19/2021 2:00:00 PM -99999.99 -179968 -99999.99 -99999.99 -99999.99 -99999.99
4/19/2021 2:15:00 PM -99999.99 -179968 -99999.99 -99999.99 -99999.99 -99999.99
4/19/2021 2:30:00 PM -99999.99 -179968 -99999.99 -99999.99 -99999.99 -99999.99
4/19/2021 2:45:00 PM -99999.99 -179968 -99999.99 -99999.99 -99999.99 -99999.99
4/19/2021 3:00:00 PM -99999.99 -179968 -99999.99 -99999.99 -99999.99 -99999.99
4/19/2021 3:15:00 PM -99999.99 -179968 -99999.99 -99999.99 -99999.99 -99999.99
4/19/2021 3:30:00 PM -99999.99 -179968 -99999.99 -99999.99 -99999.99 -99999.99
4/19/2021 3:45:00 PM -99999.99 -179968 -99999.99 -99999.99 -99999.99 -99999.99
4/19/2021 4:00:00 PM -99999.99 -179968 -99999.99 -99999.99 -99999.99 -99999.99
4/19/2021 4:15:00 PM -99999.99 -179968 -99999.99 -99999.99 -99999.99 -99999.99
4/19/2021 4:30:00 PM -99999.99 -179968 -99999.99 -99999.99 -99999.99 -99999.99
4/19/2021 4:45:00 PM -99999.99 -179968 -99999.99 -99999.99 -99999.99 -99999.99
4/19/2021 5:00:00 PM -99999.99 -179968 -99999.99 -99999.99 -99999.99 -99999.99
4/19/2021 5:15:00 PM -99999.99 -179968 -99999.99 -99999.99 -99999.99 -99999.99
4/19/2021 5:30:00 PM -99999.99 -179968 -99999.99 -99999.99 -99999.99 -99999.99
4/19/2021 5:45:00 PM -99999.99 -179968 -99999.99 -99999.99 -99999.99 -99999.99
4/19/2021 6:00:00 PM -99999.99 -179968 -99999.99 -99999.99 -99999.99 -99999.99
4/19/2021 6:15:00 PM -99999.99 -179968 -99999.99 -99999.99 -99999.99 -99999.99
4/19/2021 6:30:00 PM -99999.99 -179968 -99999.99 -99999.99 -99999.99 -99999.99
4/19/2021 6:45:00 PM -99999.99 -179968 -99999.99 -99999.99 -99999.99 -99999.99
4/19/2021 7:00:00 PM -99999.99 -179968 -99999.99 -99999.99 -99999.99 -99999.99
4/19/2021 7:15:00 PM -99999.99 -179968 -99999.99 -99999.99 -99999.99 -99999.99
4/19/2021 7:30:00 PM -99999.99 -179968 -99999.99 -99999.99 -99999.99 -99999.99
4/19/2021 7:45:00 PM -99999.99 -179968 -99999.99 -99999.99 -99999.99 -99999.99
4/19/2021 8:00:00 PM -99999.99 -179968 -99999.99 -99999.99 -99999.99 -99999.99
4/19/2021 8:15:00 PM -99999.99 -179968 -99999.99 -99999.99 -99999.99 -99999.99
4/19/2021 8:30:00 PM -99999.99 -179968 -99999.99 -99999.99 -99999.99 -99999.99
4/19/2021 8:45:00 PM -99999.99 -179968 -99999.99 -99999.99 -99999.99 -99999.99
4/19/2021 9:00:00 PM -99999.99 -179968 -99999.99 -99999.99 -99999.99 -99999.99
4/19/2021 9:15:00 PM -99999.99 -179968 -99999.99 -99999.99 -99999.99 -99999.99
4/19/2021 9:30:00 PM -99999.99 -179968 -99999.99 -99999.99 -99999.99 -99999.99
4/19/2021 9:45:00 PM -99999.99 -179968 -99999.99 -99999.99 -99999.99 -99999.99
4/19/2021 10:00:00 PM -99999.99 -179968 -99999.99 -99999.99 -99999.99 -99999.99
4/19/2021 10:15:00 PM -99999.99 -179968 -99999.99 -99999.99 -99999.99 -99999.99
4/19/2021 10:30:00 PM -99999.99 -179968 -99999.99 -99999.99 -99999.99 -99999.99
4/19/2021 10:45:00 PM -99999.99 -179968 -99999.99 -99999.99 -99999.99 -99999.99
4/19/2021 11:00:00 PM -99999.99 -179968 -99999.99 -99999.99 -99999.99 -99999.99
4/19/2021 11:15:00 PM -99999.99 -179968 -99999.99 -99999.99 -99999.99 -99999.99
4/19/2021 11:30:00 PM -99999.99 -179968 -99999.99 -99999.99 -99999.99 -99999.99
4/19/2021 11:45:00 PM -99999.99 -179968 -99999.99 -99999.99 -99999.99 -99999.99
4/20/2021 12:00:00 AM -99999.99 -179968 -99999.99 -99999.99 -99999.99 -99999.99
4/20/2021 12:15:00 AM -99999.99 -179968 -99999.99 -99999.99 -99999.99 -99999.99
4/20/2021 12:30:00 AM -99999.99 -179968 -99999.99 -99999.99 -99999.99 -99999.99
4/20/2021 12:45:00 AM -99999.99 -179968 -99999.99 -99999.99 -99999.99 -99999.99
4/20/2021 1:00:00 AM -99999.99 -179968 -99999.99 -99999.99 -99999.99 -99999.99
4/20/2021 1:15:00 AM -99999.99 -179968 -99999.99 -99999.99 -99999.99 -99999.99
4/20/2021 1:30:00 AM -99999.99 -179968 -99999.99 -99999.99 -99999.99 -99999.99
4/20/2021 1:45:00 AM -99999.99 -179968 -99999.99 -99999.99 -99999.99 -99999.99
4/20/2021 2:00:00 AM -99999.99 -179968 -99999.99 -99999.99 -99999.99 -99999.99
4/20/2021 2:15:00 AM -99999.99 -179968 -99999.99 -99999.99 -99999.99 -99999.99
4/20/2021 2:30:00 AM -99999.99 -179968 -99999.99 -99999.99 -99999.99 -99999.99
4/20/2021 2:45:00 AM -99999.99 -179968 -99999.99 -99999.99 -99999.99 -99999.99
4/20/2021 3:00:00 AM -99999.99 -179968 -99999.99 -99999.99 -99999.99 -99999.99
4/20/2021 3:15:00 AM -99999.99 -179968 -99999.99 -99999.99 -99999.99 -99999.99
4/20/2021 3:30:00 AM -99999.99 -179968 -99999.99 -99999.99 -99999.99 -99999.99
4/20/2021 3:45:00 AM -99999.99 -179968 -99999.99 -99999.99 -99999.99 -99999.99
4/20/2021 4:00:00 AM -99999.99 -179968 -99999.99 -99999.99 -99999.99 -99999.99
4/20/2021 4:15:00 AM -99999.99 -179968 -99999.99 -99999.99 -99999.99 -99999.99
4/20/2021 4:30:00 AM -99999.99 -179968 -99999.99 -99999.99 -99999.99 -99999.99
4/20/2021 4:45:00 AM -99999.99 -179968 -99999.99 -99999.99 -99999.99 -99999.99
4/20/2021 5:00:00 AM -99999.99 -179968 -99999.99 -99999.99 -99999.99 -99999.99
4/20/2021 5:15:00 AM -99999.99 -179968 -99999.99 -99999.99 -99999.99 -99999.99
4/20/2021 5:30:00 AM -99999.99 -179968 -99999.99 -99999.99 -99999.99 -99999.99
4/20/2021 5:45:00 AM -99999.99 -179968 -99999.99 -99999.99 -99999.99 -99999.99
4/20/2021 6:00:00 AM -99999.99 -179968 -99999.99 -99999.99 -99999.99 -99999.99
4/20/2021 6:15:00 AM -99999.99 -179968 -99999.99 -99999.99 -99999.99 -99999.99
4/20/2021 6:30:00 AM -99999.99 -179968 -99999.99 -99999.99 -99999.99 -99999.99
4/20/2021 6:45:00 AM -99999.99 -179968 -99999.99 -99999.99 -99999.99 -99999.99
4/20/2021 7:00:00 AM -99999.99 -179968 -99999.99 -99999.99 -99999.99 -99999.99
4/20/2021 7:15:00 AM -99999.99 -179968 -99999.99 -99999.99 -99999.99 -99999.99
4/20/2021 7:30:00 AM -99999.99 -179968 -99999.99 -99999.99 -99999.99 -99999.99
4/20/2021 7:45:00 AM -99999.99 -179968 -99999.99 -99999.99 -99999.99 -99999.99
4/20/2021 8:00:00 AM -99999.99 -179968 -99999.99 -99999.99 -99999.99 -99999.99
4/20/2021 8:15:00 AM -99999.99 -179968 -99999.99 -99999.99 -99999.99 -99999.99
4/20/2021 8:30:00 AM -99999.99 -179968 -99999.99 -99999.99 -99999.99 -99999.99
4/20/2021 8:45:00 AM -99999.99 -179968 -99999.99 -99999.99 -99999.99 -99999.99
4/20/2021 9:00:00 AM -99999.99 -179968 -99999.99 -99999.99 -99999.99 -99999.99
4/20/2021 9:15:00 AM -99999.99 -179968 -99999.99 -99999.99 -99999.99 -99999.99
4/20/2021 9:30:00 AM -99999.99 -179968 -99999.99 -99999.99 -99999.99 -99999.99
4/20/2021 9:45:00 AM -99999.99 -179968 -99999.99 -99999.99 -99999.99 -99999.99
4/20/2021 10:00:00 AM -99999.99 -179968 -99999.99 -99999.99 -99999.99 -99999.99
4/20/2021 10:15:00 AM -99999.99 -179968 -99999.99 -99999.99 -99999.99 -99999.99
4/20/2021 10:30:00 AM -99999.99 -179968 -99999.99 -99999.99 -99999.99 -99999.99
4/20/2021 10:45:00 AM -99999.99 -179968 -99999.99 -99999.99 -99999.99 -99999.99
4/20/2021 11:00:00 AM -99999.99 -179968 -99999.99 -99999.99 -99999.99 -99999.99
4/20/2021 11:15:00 AM -99999.99 -179968 -99999.99 -99999.99 -99999.99 -99999.99
4/20/2021 11:30:00 AM -99999.99 -179968 -99999.99 -99999.99 -99999.99 -99999.99
4/20/2021 11:45:00 AM -99999.99 -179968 -99999.99 -99999.99 -99999.99 -99999.99
4/20/2021 12:00:00 PM -99999.99 -179968 -99999.99 -99999.99 -99999.99 -99999.99
4/20/2021 12:15:00 PM -99999.99 -179968 -99999.99 -99999.99 -99999.99 -99999.99
4/20/2021 12:30:00 PM -99999.99 -179968 -99999.99 -99999.99 -99999.99 -99999.99
4/20/2021 12:45:00 PM -99999.99 -179968 -99999.99 -99999.99 -99999.99 -99999.99
4/20/2021 1:00:00 PM -99999.99 -179968 -99999.99 -99999.99 -99999.99 -99999.99
4/20/2021 1:15:00 PM -99999.99 -179968 -99999.99 -99999.99 -99999.99 -99999.99
4/20/2021 1:30:00 PM -99999.99 -179968 -99999.99 -99999.99 -99999.99 -99999.99
4/20/2021 1:45:00 PM -99999.99 -179968 -99999.99 -99999.99 -99999.99 -99999.99
4/20/2021 2:00:00 PM -99999.99 -179968 -99999.99 -99999.99 -99999.99 -99999.99
4/20/2021 2:15:00 PM -99999.99 -179968 -99999.99 -99999.99 -99999.99 -99999.99
4/20/2021 2:30:00 PM -99999.99 -179968 -99999.99 -99999.99 -99999.99 -99999.99
4/20/2021 2:45:00 PM -99999.99 -179968 -99999.99 -99999.99 -99999.99 -99999.99
4/20/2021 3:00:00 PM -99999.99 -179968 -99999.99 -99999.99 -99999.99 -99999.99
4/20/2021 3:15:00 PM -99999.99 -179968 -99999.99 -99999.99 -99999.99 -99999.99
4/20/2021 3:30:00 PM -99999.99 -179968 -99999.99 -99999.99 -99999.99 -99999.99
4/20/2021 3:45:00 PM -99999.99 -179968 -99999.99 -99999.99 -99999.99 -99999.99
4/20/2021 4:00:00 PM -99999.99 -179968 -99999.99 -99999.99 -99999.99 -99999.99
4/20/2021 4:15:00 PM -99999.99 -179968 -99999.99 -99999.99 -99999.99 -99999.99
4/20/2021 4:30:00 PM -99999.99 -179968 -99999.99 -99999.99 -99999.99 -99999.99
4/20/2021 4:45:00 PM -99999.99 -179968 -99999.99 -99999.99 -99999.99 -99999.99
4/20/2021 5:00:00 PM -99999.99 -179968 -99999.99 -99999.99 -99999.99 -99999.99
4/20/2021 5:15:00 PM -99999.99 -179968 -99999.99 -99999.99 -99999.99 -99999.99
4/20/2021 5:30:00 PM -99999.99 -179968 -99999.99 -99999.99 -99999.99 -99999.99
4/20/2021 5:45:00 PM -99999.99 -179968 -99999.99 -99999.99 -99999.99 -99999.99
4/20/2021 6:00:00 PM -99999.99 -179968 -99999.99 -99999.99 -99999.99 -99999.99
4/20/2021 6:15:00 PM -99999.99 -179968 -99999.99 -99999.99 -99999.99 -99999.99
4/20/2021 6:30:00 PM -99999.99 -179968 -99999.99 -99999.99 -99999.99 -99999.99
4/20/2021 6:45:00 PM -99999.99 -179968 -99999.99 -99999.99 -99999.99 -99999.99
4/20/2021 7:00:00 PM -99999.99 -179968 -99999.99 -99999.99 -99999.99 -99999.99
4/20/2021 7:15:00 PM -99999.99 -179968 -99999.99 -99999.99 -99999.99 -99999.99
4/20/2021 7:30:00 PM -99999.99 -179968 -99999.99 -99999.99 -99999.99 -99999.99
4/20/2021 7:45:00 PM -99999.99 -179968 -99999.99 -99999.99 -99999.99 -99999.99
4/20/2021 8:00:00 PM -99999.99 -179968 -99999.99 -99999.99 -99999.99 -99999.99
4/20/2021 8:15:00 PM -99999.99 -179968 -99999.99 -99999.99 -99999.99 -99999.99
4/20/2021 8:30:00 PM -99999.99 -179968 -99999.99 -99999.99 -99999.99 -99999.99
4/20/2021 8:45:00 PM -99999.99 -179968 -99999.99 -99999.99 -99999.99 -99999.99
4/20/2021 9:00:00 PM -99999.99 -179968 -99999.99 -99999.99 -99999.99 -99999.99
4/20/2021 9:15:00 PM -99999.99 -179968 -99999.99 -99999.99 -99999.99 -99999.99
4/20/2021 9:30:00 PM -99999.99 -179968 -99999.99 -99999.99 -99999.99 -99999.99
4/20/2021 9:45:00 PM -99999.99 -179968 -99999.99 -99999.99 -99999.99 -99999.99
4/20/2021 10:00:00 PM -99999.99 -179968 -99999.99 -99999.99 -99999.99 -99999.99
4/20/2021 10:15:00 PM -99999.99 -179968 -99999.99 -99999.99 -99999.99 -99999.99
4/20/2021 10:30:00 PM -99999.99 -179968 -99999.99 -99999.99 -99999.99 -99999.99
4/20/2021 10:45:00 PM -99999.99 -179968 -99999.99 -99999.99 -99999.99 -99999.99
4/20/2021 11:00:00 PM -99999.99 -179968 -99999.99 -99999.99 -99999.99 -99999.99
4/20/2021 11:15:00 PM -99999.99 -179968 -99999.99 -99999.99 -99999.99 -99999.99
4/20/2021 11:30:00 PM -99999.99 -179968 -99999.99 -99999.99 -99999.99 -99999.99
4/20/2021 11:45:00 PM -99999.99 -179968 -99999.99 -99999.99 -99999.99 -99999.99
4/21/2021 12:00:00 AM -99999.99 -179968 -99999.99 -99999.99 -99999.99 -99999.99
4/21/2021 12:15:00 AM -99999.99 -179968 -99999.99 -99999.99 -99999.99 -99999.99
4/21/2021 12:30:00 AM -99999.99 -179968 -99999.99 -99999.99 -99999.99 -99999.99
4/21/2021 12:45:00 AM -99999.99 -179968 -99999.99 -99999.99 -99999.99 -99999.99
4/21/2021 1:00:00 AM -99999.99 -179968 -99999.99 -99999.99 -99999.99 -99999.99
4/21/2021 1:15:00 AM -99999.99 -179968 -99999.99 -99999.99 -99999.99 -99999.99
4/21/2021 1:30:00 AM -99999.99 -179968 -99999.99 -99999.99 -99999.99 -99999.99
4/21/2021 1:45:00 AM -99999.99 -179968 -99999.99 -99999.99 -99999.99 -99999.99
4/21/2021 2:00:00 AM -99999.99 -179968 -99999.99 -99999.99 -99999.99 -99999.99
4/21/2021 2:15:00 AM -99999.99 -179968 -99999.99 -99999.99 -99999.99 -99999.99
4/21/2021 2:30:00 AM -99999.99 -179968 -99999.99 -99999.99 -99999.99 -99999.99
4/21/2021 2:45:00 AM -99999.99 -179968 -99999.99 -99999.99 -99999.99 -99999.99
4/21/2021 3:00:00 AM -99999.99 -179968 -99999.99 -99999.99 -99999.99 -99999.99
4/21/2021 3:15:00 AM -99999.99 -179968 -99999.99 -99999.99 -99999.99 -99999.99
4/21/2021 3:30:00 AM -99999.99 -179968 -99999.99 -99999.99 -99999.99 -99999.99
4/21/2021 3:45:00 AM -99999.99 -179968 -99999.99 -99999.99 -99999.99 -99999.99
4/21/2021 4:00:00 AM -99999.99 -179968 -99999.99 -99999.99 -99999.99 -99999.99
4/21/2021 4:15:00 AM -99999.99 -179968 -99999.99 -99999.99 -99999.99 -99999.99
4/21/2021 4:30:00 AM -99999.99 -179968 -99999.99 -99999.99 -99999.99 -99999.99
4/21/2021 4:45:00 AM -99999.99 -179968 -99999.99 -99999.99 -99999.99 -99999.99
4/21/2021 5:00:00 AM -99999.99 -179968 -99999.99 -99999.99 -99999.99 -99999.99
4/21/2021 5:15:00 AM -99999.99 -179968 -99999.99 -99999.99 -99999.99 -99999.99
4/21/2021 5:30:00 AM -99999.99 -179968 -99999.99 -99999.99 -99999.99 -99999.99
4/21/2021 5:45:00 AM -99999.99 -179968 -99999.99 -99999.99 -99999.99 -99999.99
4/21/2021 6:00:00 AM -99999.99 -179968 -99999.99 -99999.99 -99999.99 -99999.99
4/21/2021 6:15:00 AM -99999.99 -179968 -99999.99 -99999.99 -99999.99 -99999.99
4/21/2021 6:30:00 AM -99999.99 -179968 -99999.99 -99999.99 -99999.99 -99999.99
4/21/2021 6:45:00 AM -99999.99 -179968 -99999.99 -99999.99 -99999.99 -99999.99
4/21/2021 7:00:00 AM -99999.99 -179968 -99999.99 -99999.99 -99999.99 -99999.99
4/21/2021 7:15:00 AM -99999.99 -179968 -99999.99 -99999.99 -99999.99 -99999.99
4/21/2021 7:30:00 AM -99999.99 -179968 -99999.99 -99999.99 -99999.99 -99999.99
4/21/2021 7:45:00 AM -99999.99 -179968 -99999.99 -99999.99 -99999.99 -99999.99
4/21/2021 8:00:00 AM -99999.99 -179968 -99999.99 -99999.99 -99999.99 -99999.99
4/21/2021 8:15:00 AM -99999.99 -179968 -99999.99 -99999.99 -99999.99 -99999.99
4/21/2021 8:30:00 AM -99999.99 -179968 -99999.99 -99999.99 -99999.99 -99999.99
4/21/2021 8:45:00 AM -99999.99 -179968 -99999.99 -99999.99 -99999.99 -99999.99
4/21/2021 9:00:00 AM -99999.99 -179968 -99999.99 -99999.99 -99999.99 -99999.99
4/21/2021 9:15:00 AM -99999.99 -179968 -99999.99 -99999.99 -99999.99 -99999.99
4/21/2021 9:30:00 AM -99999.99 -179968 -99999.99 -99999.99 -99999.99 -99999.99
4/21/2021 9:45:00 AM -99999.99 -179968 -99999.99 -99999.99 -99999.99 -99999.99
4/21/2021 10:00:00 AM -99999.99 -179968 -99999.99 -99999.99 -99999.99 -99999.99
4/21/2021 10:15:00 AM -99999.99 -179968 -99999.99 -99999.99 -99999.99 -99999.99
4/21/2021 10:30:00 AM -99999.99 -179968 -99999.99 -99999.99 -99999.99 -99999.99
4/21/2021 10:45:00 AM -99999.99 -179968 -99999.99 -99999.99 -99999.99 -99999.99
4/21/2021 11:00:00 AM -99999.99 -179968 -99999.99 -99999.99 -99999.99 -99999.99
4/21/2021 11:15:00 AM -99999.99 -179968 -99999.99 -99999.99 -99999.99 -99999.99
4/21/2021 11:30:00 AM -99999.99 -179968 -99999.99 -99999.99 -99999.99 -99999.99
4/21/2021 11:45:00 AM -99999.99 -179968 -99999.99 -99999.99 -99999.99 -99999.99
4/21/2021 12:00:00 PM -99999.99 -179968 -99999.99 -99999.99 -99999.99 -99999.99
4/21/2021 12:15:00 PM -99999.99 -179968 -99999.99 -99999.99 -99999.99 -99999.99
4/21/2021 12:30:00 PM -99999.99 -179968 -99999.99 -99999.99 -99999.99 -99999.99
4/21/2021 12:45:00 PM -99999.99 -179968 -99999.99 -99999.99 -99999.99 -99999.99
4/21/2021 1:00:00 PM -99999.99 -179968 -99999.99 -99999.99 -99999.99 -99999.99
4/21/2021 1:15:00 PM -99999.99 -179968 -99999.99 -99999.99 -99999.99 -99999.99
4/21/2021 1:30:00 PM -99999.99 -179968 -99999.99 -99999.99 -99999.99 -99999.99
4/21/2021 1:45:00 PM -99999.99 -179968 -99999.99 -99999.99 -99999.99 -99999.99
4/21/2021 2:00:00 PM -99999.99 -179968 -99999.99 -99999.99 -99999.99 -99999.99
4/21/2021 2:15:00 PM -99999.99 -179968 -99999.99 -99999.99 -99999.99 -99999.99
4/21/2021 2:30:00 PM -99999.99 -179968 -99999.99 -99999.99 -99999.99 -99999.99
4/21/2021 2:45:00 PM -99999.99 -179968 -99999.99 -99999.99 -99999.99 -99999.99
4/21/2021 3:00:00 PM -99999.99 -179968 -99999.99 -99999.99 -99999.99 -99999.99
4/21/2021 3:15:00 PM -99999.99 -179968 -99999.99 -99999.99 -99999.99 -99999.99
4/21/2021 3:30:00 PM -99999.99 -179968 -99999.99 -99999.99 -99999.99 -99999.99
4/21/2021 3:45:00 PM -99999.99 -179968 -99999.99 -99999.99 -99999.99 -99999.99
4/21/2021 4:00:00 PM -99999.99 -179968 -99999.99 -99999.99 -99999.99 -99999.99
4/21/2021 4:15:00 PM -99999.99 -179968 -99999.99 -99999.99 -99999.99 -99999.99
4/21/2021 4:30:00 PM -99999.99 -179968 -99999.99 -99999.99 -99999.99 -99999.99
4/21/2021 4:45:00 PM -99999.99 -179968 -99999.99 -99999.99 -99999.99 -99999.99
4/21/2021 5:00:00 PM -99999.99 -179968 -99999.99 -99999.99 -99999.99 -99999.99
4/21/2021 5:15:00 PM -99999.99 -179968 -99999.99 -99999.99 -99999.99 -99999.99
4/21/2021 5:30:00 PM -99999.99 -179968 -99999.99 -99999.99 -99999.99 -99999.99
4/21/2021 5:45:00 PM -99999.99 -179968 -99999.99 -99999.99 -99999.99 -99999.99
4/21/2021 6:00:00 PM -99999.99 -179968 -99999.99 -99999.99 -99999.99 -99999.99
4/21/2021 6:15:00 PM -99999.99 -179968 -99999.99 -99999.99 -99999.99 -99999.99
4/21/2021 6:30:00 PM -99999.99 -179968 -99999.99 -99999.99 -99999.99 -99999.99
4/21/2021 6:45:00 PM -99999.99 -179968 -99999.99 -99999.99 -99999.99 -99999.99
4/21/2021 7:00:00 PM -99999.99 -179968 -99999.99 -99999.99 -99999.99 -99999.99
4/21/2021 7:15:00 PM -99999.99 -179968 -99999.99 -99999.99 -99999.99 -99999.99
4/21/2021 7:30:00 PM -99999.99 -179968 -99999.99 -99999.99 -99999.99 -99999.99
4/21/2021 7:45:00 PM -99999.99 -179968 -99999.99 -99999.99 -99999.99 -99999.99
4/21/2021 8:00:00 PM -99999.99 -179968 -99999.99 -99999.99 -99999.99 -99999.99
4/21/2021 8:15:00 PM -99999.99 -179968 -99999.99 -99999.99 -99999.99 -99999.99
4/21/2021 8:30:00 PM -99999.99 -179968 -99999.99 -99999.99 -99999.99 -99999.99
4/21/2021 8:45:00 PM -99999.99 -179968 -99999.99 -99999.99 -99999.99 -99999.99
4/21/2021 9:00:00 PM -99999.99 -179968 -99999.99 -99999.99 -99999.99 -99999.99
4/21/2021 9:15:00 PM -99999.99 -179968 -99999.99 -99999.99 -99999.99 -99999.99
4/21/2021 9:30:00 PM -99999.99 -179968 -99999.99 -99999.99 -99999.99 -99999.99
4/21/2021 9:45:00 PM -99999.99 -179968 -99999.99 -99999.99 -99999.99 -99999.99
4/21/2021 10:00:00 PM -99999.99 -179968 -99999.99 -99999.99 -99999.99 -99999.99
4/21/2021 10:15:00 PM -99999.99 -179968 -99999.99 -99999.99 -99999.99 -99999.99
4/21/2021 10:30:00 PM -99999.99 -179968 -99999.99 -99999.99 -99999.99 -99999.99
4/21/2021 10:45:00 PM -99999.99 -179968 -99999.99 -99999.99 -99999.99 -99999.99
4/21/2021 11:00:00 PM -99999.99 -179968 -99999.99 -99999.99 -99999.99 -99999.99
4/21/2021 11:15:00 PM -99999.99 -179968 -99999.99 -99999.99 -99999.99 -99999.99
4/21/2021 11:30:00 PM -99999.99 -179968 -99999.99 -99999.99 -99999.99 -99999.99
4/21/2021 11:45:00 PM -99999.99 -179968 -99999.99 -99999.99 -99999.99 -99999.99
4/22/2021 12:00:00 AM -99999.99 -179968 -99999.99 -99999.99 -99999.99 -99999.99
4/22/2021 12:15:00 AM -99999.99 -179968 -99999.99 -99999.99 -99999.99 -99999.99
4/22/2021 12:30:00 AM -99999.99 -179968 -99999.99 -99999.99 -99999.99 -99999.99
4/22/2021 12:45:00 AM -99999.99 -179968 -99999.99 -99999.99 -99999.99 -99999.99
4/22/2021 1:00:00 AM -99999.99 -179968 -99999.99 -99999.99 -99999.99 -99999.99
4/22/2021 1:15:00 AM -99999.99 -179968 -99999.99 -99999.99 -99999.99 -99999.99
4/22/2021 1:30:00 AM -99999.99 -179968 -99999.99 -99999.99 -99999.99 -99999.99
4/22/2021 1:45:00 AM -99999.99 -179968 -99999.99 -99999.99 -99999.99 -99999.99
4/22/2021 2:00:00 AM -99999.99 -179968 -99999.99 -99999.99 -99999.99 -99999.99
4/22/2021 2:15:00 AM -99999.99 -179968 -99999.99 -99999.99 -99999.99 -99999.99
4/22/2021 2:30:00 AM -99999.99 -179968 -99999.99 -99999.99 -99999.99 -99999.99
4/22/2021 2:45:00 AM -99999.99 -179968 -99999.99 -99999.99 -99999.99 -99999.99
4/22/2021 3:00:00 AM -99999.99 -179968 -99999.99 -99999.99 -99999.99 -99999.99
4/22/2021 3:15:00 AM -99999.99 -179968 -99999.99 -99999.99 -99999.99 -99999.99
4/22/2021 3:30:00 AM -99999.99 -179968 -99999.99 -99999.99 -99999.99 -99999.99
4/22/2021 3:45:00 AM -99999.99 -179968 -99999.99 -99999.99 -99999.99 -99999.99
4/22/2021 4:00:00 AM -99999.99 -179968 -99999.99 -99999.99 -99999.99 -99999.99
4/22/2021 4:15:00 AM -99999.99 -179968 -99999.99 -99999.99 -99999.99 -99999.99
4/22/2021 4:30:00 AM -99999.99 -179968 -99999.99 -99999.99 -99999.99 -99999.99
4/22/2021 4:45:00 AM -99999.99 -179968 -99999.99 -99999.99 -99999.99 -99999.99
4/22/2021 5:00:00 AM -99999.99 -179968 -99999.99 -99999.99 -99999.99 -99999.99
4/22/2021 5:15:00 AM -99999.99 -179968 -99999.99 -99999.99 -99999.99 -99999.99
4/22/2021 5:30:00 AM -99999.99 -179968 -99999.99 -99999.99 -99999.99 -99999.99
4/22/2021 5:45:00 AM -99999.99 -179968 -99999.99 -99999.99 -99999.99 -99999.99
4/22/2021 6:00:00 AM -99999.99 -179968 -99999.99 -99999.99 -99999.99 -99999.99
4/22/2021 6:15:00 AM -99999.99 -179968 -99999.99 -99999.99 -99999.99 -99999.99
4/22/2021 6:30:00 AM -99999.99 -179968 -99999.99 -99999.99 -99999.99 -99999.99
4/22/2021 6:45:00 AM -99999.99 -179968 -99999.99 -99999.99 -99999.99 -99999.99
4/22/2021 7:00:00 AM -99999.99 -179968 -99999.99 -99999.99 -99999.99 -99999.99
4/22/2021 7:15:00 AM -99999.99 -179968 -99999.99 -99999.99 -99999.99 -99999.99
4/22/2021 7:30:00 AM -99999.99 -179968 -99999.99 -99999.99 -99999.99 -99999.99
4/22/2021 7:45:00 AM -99999.99 -179968 -99999.99 -99999.99 -99999.99 -99999.99
4/22/2021 8:00:00 AM -99999.99 -179968 -99999.99 -99999.99 -99999.99 -99999.99
4/22/2021 8:15:00 AM -99999.99 -179968 -99999.99 -99999.99 -99999.99 -99999.99
4/22/2021 8:30:00 AM -99999.99 -179968 -99999.99 -99999.99 -99999.99 -99999.99
4/22/2021 8:45:00 AM -99999.99 -179968 -99999.99 -99999.99 -99999.99 -99999.99
4/22/2021 9:00:00 AM -99999.99 -179968 -99999.99 -99999.99 -99999.99 -99999.99
4/22/2021 9:15:00 AM -99999.99 -179968 -99999.99 -99999.99 -99999.99 -99999.99
4/22/2021 9:30:00 AM -99999.99 -179968 -99999.99 -99999.99 -99999.99 -99999.99
4/22/2021 9:45:00 AM -99999.99 -179968 -99999.99 -99999.99 -99999.99 -99999.99
4/22/2021 10:00:00 AM -99999.99 -179968 -99999.99 -99999.99 -99999.99 -99999.99
4/22/2021 10:15:00 AM -99999.99 -179968 -99999.99 -99999.99 -99999.99 -99999.99
4/22/2021 10:30:00 AM -99999.99 -179968 -99999.99 -99999.99 -99999.99 -99999.99
4/22/2021 10:45:00 AM -99999.99 -179968 -99999.99 -99999.99 -99999.99 -99999.99
4/22/2021 11:00:00 AM -99999.99 -179968 -99999.99 -99999.99 -99999.99 -99999.99
4/22/2021 11:15:00 AM -99999.99 -179968 -99999.99 -99999.99 -99999.99 -99999.99
4/22/2021 11:30:00 AM -99999.99 -179968 -99999.99 -99999.99 -99999.99 -99999.99
4/22/2021 11:45:00 AM -99999.99 -179968 -99999.99 -99999.99 -99999.99 -99999.99
4/22/2021 12:00:00 PM -99999.99 -179968 -99999.99 -99999.99 -99999.99 -99999.99
4/22/2021 12:15:00 PM -99999.99 -179968 -99999.99 -99999.99 -99999.99 -99999.99
4/22/2021 12:30:00 PM -99999.99 -179968 -99999.99 -99999.99 -99999.99 -99999.99
4/22/2021 12:45:00 PM -99999.99 -179968 -99999.99 -99999.99 -99999.99 -99999.99
4/22/2021 1:00:00 PM -99999.99 -179968 -99999.99 -99999.99 -99999.99 -99999.99
4/22/2021 1:15:00 PM -99999.99 -179968 -99999.99 -99999.99 -99999.99 -99999.99
4/22/2021 1:30:00 PM -99999.99 -179968 -99999.99 -99999.99 -99999.99 -99999.99
4/22/2021 1:45:00 PM -99999.99 -179968 -99999.99 -99999.99 -99999.99 -99999.99
4/22/2021 2:00:00 PM -99999.99 -179968 -99999.99 -99999.99 -99999.99 -99999.99
4/22/2021 2:15:00 PM -99999.99 -179968 -99999.99 -99999.99 -99999.99 -99999.99
4/22/2021 2:30:00 PM -99999.99 -179968 -99999.99 -99999.99 -99999.99 -99999.99
4/22/2021 2:45:00 PM -99999.99 -179968 -99999.99 -99999.99 -99999.99 -99999.99
4/22/2021 3:00:00 PM -99999.99 -179968 -99999.99 -99999.99 -99999.99 -99999.99
4/22/2021 3:15:00 PM -99999.99 -179968 -99999.99 -99999.99 -99999.99 -99999.99
4/22/2021 3:30:00 PM -99999.99 -179968 -99999.99 -99999.99 -99999.99 -99999.99
4/22/2021 3:45:00 PM -99999.99 -179968 -99999.99 -99999.99 -99999.99 -99999.99
4/22/2021 4:00:00 PM -99999.99 -179968 -99999.99 -99999.99 -99999.99 -99999.99
4/22/2021 4:15:00 PM -99999.99 -179968 -99999.99 -99999.99 -99999.99 -99999.99
4/22/2021 4:30:00 PM -99999.99 -179968 -99999.99 -99999.99 -99999.99 -99999.99
4/22/2021 4:45:00 PM -99999.99 -179968 -99999.99 -99999.99 -99999.99 -99999.99
4/22/2021 5:00:00 PM -99999.99 -179968 -99999.99 -99999.99 -99999.99 -99999.99
4/22/2021 5:15:00 PM -99999.99 -179968 -99999.99 -99999.99 -99999.99 -99999.99
4/22/2021 5:30:00 PM -99999.99 -179968 -99999.99 -99999.99 -99999.99 -99999.99
4/22/2021 5:45:00 PM -99999.99 -179968 -99999.99 -99999.99 -99999.99 -99999.99
4/22/2021 6:00:00 PM -99999.99 -179968 -99999.99 -99999.99 -99999.99 -99999.99
4/22/2021 6:15:00 PM -99999.99 -179968 -99999.99 -99999.99 -99999.99 -99999.99
4/22/2021 6:30:00 PM -99999.99 -179968 -99999.99 -99999.99 -99999.99 -99999.99
4/22/2021 6:45:00 PM -99999.99 -179968 -99999.99 -99999.99 -99999.99 -99999.99
4/22/2021 7:00:00 PM -99999.99 -179968 -99999.99 -99999.99 -99999.99 -99999.99
4/22/2021 7:15:00 PM -99999.99 -179968 -99999.99 -99999.99 -99999.99 -99999.99
4/22/2021 7:30:00 PM -99999.99 -179968 -99999.99 -99999.99 -99999.99 -99999.99
4/22/2021 7:45:00 PM -99999.99 -179968 -99999.99 -99999.99 -99999.99 -99999.99
4/22/2021 8:00:00 PM -99999.99 -179968 -99999.99 -99999.99 -99999.99 -99999.99
4/22/2021 8:15:00 PM -99999.99 -179968 -99999.99 -99999.99 -99999.99 -99999.99
4/22/2021 8:30:00 PM -99999.99 -179968 -99999.99 -99999.99 -99999.99 -99999.99
4/22/2021 8:45:00 PM -99999.99 -179968 -99999.99 -99999.99 -99999.99 -99999.99
4/22/2021 9:00:00 PM -99999.99 -179968 -99999.99 -99999.99 -99999.99 -99999.99
4/22/2021 9:15:00 PM -99999.99 -179968 -99999.99 -99999.99 -99999.99 -99999.99
4/22/2021 9:30:00 PM -99999.99 -179968 -99999.99 -99999.99 -99999.99 -99999.99
4/22/2021 9:45:00 PM -99999.99 -179968 -99999.99 -99999.99 -99999.99 -99999.99
4/22/2021 10:00:00 PM -99999.99 -179968 -99999.99 -99999.99 -99999.99 -99999.99
4/22/2021 10:15:00 PM -99999.99 -179968 -99999.99 -99999.99 -99999.99 -99999.99
4/22/2021 10:30:00 PM -99999.99 -179968 -99999.99 -99999.99 -99999.99 -99999.99
4/22/2021 10:45:00 PM -99999.99 -179968 -99999.99 -99999.99 -99999.99 -99999.99
4/22/2021 11:00:00 PM -99999.99 -179968 -99999.99 -99999.99 -99999.99 -99999.99
4/22/2021 11:15:00 PM -99999.99 -179968 -99999.99 -99999.99 -99999.99 -99999.99
4/22/2021 11:30:00 PM -99999.99 -179968 -99999.99 -99999.99 -99999.99 -99999.99
4/22/2021 11:45:00 PM -99999.99 -179968 -99999.99 -99999.99 -99999.99 -99999.99
4/23/2021 12:00:00 AM -99999.99 -179968 -99999.99 -99999.99 -99999.99 -99999.99
4/23/2021 12:15:00 AM -99999.99 -179968 -99999.99 -99999.99 -99999.99 -99999.99
4/23/2021 12:30:00 AM -99999.99 -179968 -99999.99 -99999.99 -99999.99 -99999.99
4/23/2021 12:45:00 AM -99999.99 -179968 -99999.99 -99999.99 -99999.99 -99999.99
4/23/2021 1:00:00 AM -99999.99 -179968 -99999.99 -99999.99 -99999.99 -99999.99
4/23/2021 1:15:00 AM -99999.99 -179968 -99999.99 -99999.99 -99999.99 -99999.99
4/23/2021 1:30:00 AM -99999.99 -179968 -99999.99 -99999.99 -99999.99 -99999.99
4/23/2021 1:45:00 AM -99999.99 -179968 -99999.99 -99999.99 -99999.99 -99999.99
4/23/2021 2:00:00 AM -99999.99 -179968 -99999.99 -99999.99 -99999.99 -99999.99
4/23/2021 2:15:00 AM -99999.99 -179968 -99999.99 -99999.99 -99999.99 -99999.99

These are provisional data and have not been subject to a quality assurance process, but rather are the raw data reported by the instrument.
H: value is above sensor operating range
L: value is below sensor operating range
Offline: station is not reporting data
NC: parameter is not collected at site

Data Availability & Limitations

Uncertainty and potential for error can be associated with environmental monitoring data. Provisional data have not been subject to a quality assurance process, but rather are the raw data reported by the instrument. Data users are cautioned to consider carefully the provisional nature of the information before using it for decisions that concern personal or public safety or the conduct of business that involves substantial monetary or operational consequences.

Approved data are currently available by request by emailing: srbc@srbc.net. Approved data have been subject to a quality assurance process to correct for equipment or fouling drift. Data recorded during equipment malfunctions have been removed.

View Historical Stations that have been discontinued.